<?xml version="1.0" encoding="UTF-8" standalone="no" ?><gpx xmlns="http://www.topografix.com/GPX/1/1" xmlns:gpxx="http://www.garmin.com/xmlschemas/GpxExtensions/v3" xmlns:wptx1="http://www.garmin.com/xmlschemas/WaypointExtension/v1" xmlns:gpxtpx="http://www.garmin.com/xmlschemas/TrackPointExtension/v1" creator="GuideVTT.com" version="1.1" xmlns:xsi="http://www.w3.org/2001/XMLSchema-instance" xsi:schemaLocation="http://www.topografix.com/GPX/1/1 http://www.topografix.com/GPX/1/1/gpx.xsd http://www.garmin.com/xmlschemas/GpxExtensions/v3 http://www8.garmin.com/xmlschemas/GpxExtensionsv3.xsd http://www.garmin.com/xmlschemas/WaypointExtension/v1 http://www8.garmin.com/xmlschemas/WaypointExtensionv1.xsd http://www.garmin.com/xmlschemas/TrackPointExtension/v1 http://www.garmin.com/xmlschemas/TrackPointExtensionv1.xsd">
<metadata><link href="http://www.garmin.com"><text>Garmin International</text></link><time>2013-06-22T15:13:50Z</time></metadata>
<trk><name>rp2016_46.gpx</name><extensions><gpxx:TrackExtension><gpxx:DisplayColor>Cyan</gpxx:DisplayColor></gpxx:TrackExtension></extensions><trkseg>
<trkpt lat="46.49449" lon="6.70905"><ele>307.6</ele><time>2016-09-14T13:10:47Z</time></trkpt>
<trkpt lat="46.49475" lon="6.70934"><ele>355.2</ele><time>2016-09-14T13:10:55Z</time></trkpt>
<trkpt lat="46.49479" lon="6.7097"><ele>390.8</ele><time>2016-09-14T13:11:05Z</time></trkpt>
<trkpt lat="46.49469" lon="6.70992"><ele>392.2</ele><time>2016-09-14T13:11:13Z</time></trkpt>
<trkpt lat="46.49463" lon="6.71002"><ele>393.4</ele><time>2016-09-14T13:11:17Z</time></trkpt>
<trkpt lat="46.49451" lon="6.71023"><ele>395.8</ele><time>2016-09-14T13:11:26Z</time></trkpt>
<trkpt lat="46.49437" lon="6.71041"><ele>398</ele><time>2016-09-14T13:11:33Z</time></trkpt>
<trkpt lat="46.49423" lon="6.71055"><ele>399.8</ele><time>2016-09-14T13:11:38Z</time></trkpt>
<trkpt lat="46.494" lon="6.71076"><ele>402.6</ele><time>2016-09-14T13:11:47Z</time></trkpt>
<trkpt lat="46.49373" lon="6.71088"><ele>397.6</ele><time>2016-09-14T13:11:50Z</time></trkpt>
<trkpt lat="46.4936" lon="6.71097"><ele>396.2</ele><time>2016-09-14T13:11:52Z</time></trkpt>
<trkpt lat="46.4934" lon="6.71114"><ele>393.8</ele><time>2016-09-14T13:11:56Z</time></trkpt>
<trkpt lat="46.49327" lon="6.71136"><ele>391.8</ele><time>2016-09-14T13:12:00Z</time></trkpt>
<trkpt lat="46.49315" lon="6.71158"><ele>391.4</ele><time>2016-09-14T13:12:08Z</time></trkpt>
<trkpt lat="46.49315" lon="6.71159"><ele>391.6</ele><time>2016-09-14T13:12:09Z</time></trkpt>
<trkpt lat="46.49313" lon="6.71162"><ele>391.8</ele><time>2016-09-14T13:12:11Z</time></trkpt>
<trkpt lat="46.49309" lon="6.7117"><ele>392.4</ele><time>2016-09-14T13:12:16Z</time></trkpt>
<trkpt lat="46.49306" lon="6.71176"><ele>392.6</ele><time>2016-09-14T13:12:19Z</time></trkpt>
<trkpt lat="46.49296" lon="6.71196"><ele>394</ele><time>2016-09-14T13:12:28Z</time></trkpt>
<trkpt lat="46.4929" lon="6.71206"><ele>394.2</ele><time>2016-09-14T13:12:32Z</time></trkpt>
<trkpt lat="46.49284" lon="6.71214"><ele>394.6</ele><time>2016-09-14T13:12:35Z</time></trkpt>
<trkpt lat="46.49281" lon="6.71216"><ele>394.6</ele><time>2016-09-14T13:12:36Z</time></trkpt>
<trkpt lat="46.49279" lon="6.71218"><ele>394.6</ele><time>2016-09-14T13:12:37Z</time></trkpt>
<trkpt lat="46.49277" lon="6.7122"><ele>394.8</ele><time>2016-09-14T13:12:38Z</time></trkpt>
<trkpt lat="46.49275" lon="6.71222"><ele>394.8</ele><time>2016-09-14T13:12:39Z</time></trkpt>
<trkpt lat="46.49273" lon="6.71224"><ele>395</ele><time>2016-09-14T13:12:40Z</time></trkpt>
<trkpt lat="46.49271" lon="6.71226"><ele>395</ele><time>2016-09-14T13:12:41Z</time></trkpt>
<trkpt lat="46.49266" lon="6.7123"><ele>395.4</ele><time>2016-09-14T13:12:43Z</time></trkpt>
<trkpt lat="46.49255" lon="6.71241"><ele>397</ele><time>2016-09-14T13:12:48Z</time></trkpt>
<trkpt lat="46.49234" lon="6.71265"><ele>398.4</ele><time>2016-09-14T13:12:57Z</time></trkpt>
<trkpt lat="46.4922" lon="6.71287"><ele>399.8</ele><time>2016-09-14T13:13:04Z</time></trkpt>
<trkpt lat="46.49214" lon="6.71301"><ele>400.8</ele><time>2016-09-14T13:13:09Z</time></trkpt>
<trkpt lat="46.49204" lon="6.71325"><ele>399.6</ele><time>2016-09-14T13:13:15Z</time></trkpt>
<trkpt lat="46.49201" lon="6.71337"><ele>399.6</ele><time>2016-09-14T13:13:17Z</time></trkpt>
<trkpt lat="46.49199" lon="6.71365"><ele>401</ele><time>2016-09-14T13:13:22Z</time></trkpt>
<trkpt lat="46.49199" lon="6.71392"><ele>402</ele><time>2016-09-14T13:13:28Z</time></trkpt>
<trkpt lat="46.49199" lon="6.7142"><ele>401</ele><time>2016-09-14T13:13:33Z</time></trkpt>
<trkpt lat="46.49197" lon="6.71436"><ele>400</ele><time>2016-09-14T13:13:35Z</time></trkpt>
<trkpt lat="46.49191" lon="6.71465"><ele>398.8</ele><time>2016-09-14T13:13:38Z</time></trkpt>
<trkpt lat="46.49184" lon="6.71495"><ele>398.8</ele><time>2016-09-14T13:13:41Z</time></trkpt>
<trkpt lat="46.49179" lon="6.71514"><ele>399.8</ele><time>2016-09-14T13:13:43Z</time></trkpt>
<trkpt lat="46.49172" lon="6.71539"><ele>401.4</ele><time>2016-09-14T13:13:46Z</time></trkpt>
<trkpt lat="46.49159" lon="6.71564"><ele>402</ele><time>2016-09-14T13:13:50Z</time></trkpt>
<trkpt lat="46.49148" lon="6.71586"><ele>403.8</ele><time>2016-09-14T13:13:54Z</time></trkpt>
<trkpt lat="46.49144" lon="6.71594"><ele>404.8</ele><time>2016-09-14T13:13:56Z</time></trkpt>
<trkpt lat="46.49132" lon="6.71617"><ele>406.4</ele><time>2016-09-14T13:14:04Z</time></trkpt>
<trkpt lat="46.4913" lon="6.7162"><ele>406.6</ele><time>2016-09-14T13:14:05Z</time></trkpt>
<trkpt lat="46.4912" lon="6.71634"><ele>406.8</ele><time>2016-09-14T13:14:09Z</time></trkpt>
<trkpt lat="46.49106" lon="6.71654"><ele>407.2</ele><time>2016-09-14T13:14:14Z</time></trkpt>
<trkpt lat="46.49103" lon="6.71658"><ele>407.2</ele><time>2016-09-14T13:14:15Z</time></trkpt>
<trkpt lat="46.49088" lon="6.71682"><ele>406.4</ele><time>2016-09-14T13:14:20Z</time></trkpt>
<trkpt lat="46.49072" lon="6.71708"><ele>404.6</ele><time>2016-09-14T13:14:24Z</time></trkpt>
<trkpt lat="46.49061" lon="6.71723"><ele>403.4</ele><time>2016-09-14T13:14:26Z</time></trkpt>
<trkpt lat="46.49039" lon="6.71744"><ele>400.6</ele><time>2016-09-14T13:14:29Z</time></trkpt>
<trkpt lat="46.49023" lon="6.7176"><ele>399.2</ele><time>2016-09-14T13:14:31Z</time></trkpt>
<trkpt lat="46.49007" lon="6.71777"><ele>398</ele><time>2016-09-14T13:14:33Z</time></trkpt>
<trkpt lat="46.48991" lon="6.7179"><ele>396.2</ele><time>2016-09-14T13:14:35Z</time></trkpt>
<trkpt lat="46.48983" lon="6.71797"><ele>395.6</ele><time>2016-09-14T13:14:36Z</time></trkpt>
<trkpt lat="46.48969" lon="6.71815"><ele>394.6</ele><time>2016-09-14T13:14:38Z</time></trkpt>
<trkpt lat="46.48957" lon="6.71837"><ele>393.6</ele><time>2016-09-14T13:14:40Z</time></trkpt>
<trkpt lat="46.48944" lon="6.71857"><ele>392.8</ele><time>2016-09-14T13:14:42Z</time></trkpt>
<trkpt lat="46.48932" lon="6.71878"><ele>392.4</ele><time>2016-09-14T13:14:44Z</time></trkpt>
<trkpt lat="46.48916" lon="6.71907"><ele>393.2</ele><time>2016-09-14T13:14:47Z</time></trkpt>
<trkpt lat="46.48908" lon="6.71923"><ele>395.2</ele><time>2016-09-14T13:14:49Z</time></trkpt>
<trkpt lat="46.48904" lon="6.7193"><ele>395.8</ele><time>2016-09-14T13:14:50Z</time></trkpt>
<trkpt lat="46.48891" lon="6.71952"><ele>398</ele><time>2016-09-14T13:14:55Z</time></trkpt>
<trkpt lat="46.48886" lon="6.71959"><ele>398.2</ele><time>2016-09-14T13:14:57Z</time></trkpt>
<trkpt lat="46.48869" lon="6.71986"><ele>398.8</ele><time>2016-09-14T13:15:04Z</time></trkpt>
<trkpt lat="46.48856" lon="6.72007"><ele>398.4</ele><time>2016-09-14T13:15:08Z</time></trkpt>
<trkpt lat="46.48843" lon="6.72034"><ele>398.2</ele><time>2016-09-14T13:15:12Z</time></trkpt>
<trkpt lat="46.48832" lon="6.72064"><ele>398.6</ele><time>2016-09-14T13:15:16Z</time></trkpt>
<trkpt lat="46.48823" lon="6.72094"><ele>399</ele><time>2016-09-14T13:15:20Z</time></trkpt>
<trkpt lat="46.48816" lon="6.72122"><ele>399.8</ele><time>2016-09-14T13:15:24Z</time></trkpt>
<trkpt lat="46.48815" lon="6.72133"><ele>400.4</ele><time>2016-09-14T13:15:26Z</time></trkpt>
<trkpt lat="46.48814" lon="6.72161"><ele>401.4</ele><time>2016-09-14T13:15:32Z</time></trkpt>
<trkpt lat="46.48817" lon="6.72192"><ele>400.2</ele><time>2016-09-14T13:15:38Z</time></trkpt>
<trkpt lat="46.48819" lon="6.72227"><ele>398</ele><time>2016-09-14T13:15:42Z</time></trkpt>
<trkpt lat="46.4882" lon="6.72258"><ele>396.4</ele><time>2016-09-14T13:15:45Z</time></trkpt>
<trkpt lat="46.48821" lon="6.72291"><ele>395</ele><time>2016-09-14T13:15:48Z</time></trkpt>
<trkpt lat="46.48821" lon="6.72323"><ele>393.8</ele><time>2016-09-14T13:15:51Z</time></trkpt>
<trkpt lat="46.48823" lon="6.72354"><ele>392.4</ele><time>2016-09-14T13:15:54Z</time></trkpt>
<trkpt lat="46.4883" lon="6.72387"><ele>390.4</ele><time>2016-09-14T13:15:57Z</time></trkpt>
<trkpt lat="46.48838" lon="6.72417"><ele>389.2</ele><time>2016-09-14T13:16:00Z</time></trkpt>
<trkpt lat="46.48839" lon="6.72428"><ele>388.6</ele><time>2016-09-14T13:16:01Z</time></trkpt>
<trkpt lat="46.48839" lon="6.7246"><ele>388.2</ele><time>2016-09-14T13:16:04Z</time></trkpt>
<trkpt lat="46.48839" lon="6.72471"><ele>387.8</ele><time>2016-09-14T13:16:05Z</time></trkpt>
<trkpt lat="46.4884" lon="6.72491"><ele>387.6</ele><time>2016-09-14T13:16:07Z</time></trkpt>
<trkpt lat="46.4884" lon="6.72499"><ele>387.4</ele><time>2016-09-14T13:16:08Z</time></trkpt>
<trkpt lat="46.48837" lon="6.72513"><ele>386.4</ele><time>2016-09-14T13:16:10Z</time></trkpt>
<trkpt lat="46.48825" lon="6.72534"><ele>384.4</ele><time>2016-09-14T13:16:15Z</time></trkpt>
<trkpt lat="46.48826" lon="6.72549"><ele>384</ele><time>2016-09-14T13:16:18Z</time></trkpt>
<trkpt lat="46.4883" lon="6.7256"><ele>384</ele><time>2016-09-14T13:16:20Z</time></trkpt>
<trkpt lat="46.48834" lon="6.72571"><ele>384</ele><time>2016-09-14T13:16:22Z</time></trkpt>
<trkpt lat="46.4884" lon="6.72589"><ele>383.8</ele><time>2016-09-14T13:16:25Z</time></trkpt>
<trkpt lat="46.48845" lon="6.72602"><ele>383.6</ele><time>2016-09-14T13:16:27Z</time></trkpt>
<trkpt lat="46.48849" lon="6.72616"><ele>383.4</ele><time>2016-09-14T13:16:29Z</time></trkpt>
<trkpt lat="46.48856" lon="6.72648"><ele>383</ele><time>2016-09-14T13:16:33Z</time></trkpt>
<trkpt lat="46.4886" lon="6.72664"><ele>383.2</ele><time>2016-09-14T13:16:35Z</time></trkpt>
<trkpt lat="46.48871" lon="6.72683"><ele>383</ele><time>2016-09-14T13:16:38Z</time></trkpt>
<trkpt lat="46.4889" lon="6.72689"><ele>382.8</ele><time>2016-09-14T13:16:42Z</time></trkpt>
<trkpt lat="46.48895" lon="6.72689"><ele>383.2</ele><time>2016-09-14T13:16:43Z</time></trkpt>
<trkpt lat="46.48904" lon="6.72691"><ele>383.6</ele><time>2016-09-14T13:16:45Z</time></trkpt>
<trkpt lat="46.48921" lon="6.72694"><ele>385</ele><time>2016-09-14T13:16:49Z</time></trkpt>
<trkpt lat="46.48929" lon="6.72697"><ele>386.2</ele><time>2016-09-14T13:16:51Z</time></trkpt>
<trkpt lat="46.48938" lon="6.7271"><ele>388</ele><time>2016-09-14T13:16:55Z</time></trkpt>
<trkpt lat="46.48941" lon="6.72717"><ele>388.6</ele><time>2016-09-14T13:16:57Z</time></trkpt>
<trkpt lat="46.48942" lon="6.72733"><ele>389</ele><time>2016-09-14T13:17:01Z</time></trkpt>
<trkpt lat="46.48947" lon="6.72763"><ele>389.6</ele><time>2016-09-14T13:17:08Z</time></trkpt>
<trkpt lat="46.48951" lon="6.72791"><ele>391.8</ele><time>2016-09-14T13:17:15Z</time></trkpt>
<trkpt lat="46.48955" lon="6.7282"><ele>393.6</ele><time>2016-09-14T13:17:22Z</time></trkpt>
<trkpt lat="46.48959" lon="6.72845"><ele>394.2</ele><time>2016-09-14T13:17:28Z</time></trkpt>
<trkpt lat="46.48964" lon="6.72874"><ele>395.4</ele><time>2016-09-14T13:17:35Z</time></trkpt>
<trkpt lat="46.48974" lon="6.72901"><ele>397</ele><time>2016-09-14T13:17:42Z</time></trkpt>
<trkpt lat="46.48985" lon="6.72922"><ele>398.6</ele><time>2016-09-14T13:17:48Z</time></trkpt>
<trkpt lat="46.49" lon="6.72938"><ele>400.4</ele><time>2016-09-14T13:17:54Z</time></trkpt>
<trkpt lat="46.49029" lon="6.72962"><ele>402.4</ele><time>2016-09-14T13:18:05Z</time></trkpt>
<trkpt lat="46.49045" lon="6.72975"><ele>403.4</ele><time>2016-09-14T13:18:11Z</time></trkpt>
<trkpt lat="46.49064" lon="6.7299"><ele>404.8</ele><time>2016-09-14T13:18:18Z</time></trkpt>
<trkpt lat="46.49077" lon="6.73"><ele>405.8</ele><time>2016-09-14T13:18:23Z</time></trkpt>
<trkpt lat="46.49093" lon="6.73014"><ele>406.6</ele><time>2016-09-14T13:18:29Z</time></trkpt>
<trkpt lat="46.49108" lon="6.73028"><ele>407.6</ele><time>2016-09-14T13:18:35Z</time></trkpt>
<trkpt lat="46.49122" lon="6.73047"><ele>408.8</ele><time>2016-09-14T13:18:41Z</time></trkpt>
<trkpt lat="46.49135" lon="6.73076"><ele>410.4</ele><time>2016-09-14T13:18:49Z</time></trkpt>
<trkpt lat="46.49138" lon="6.73088"><ele>411.2</ele><time>2016-09-14T13:18:52Z</time></trkpt>
<trkpt lat="46.49143" lon="6.73108"><ele>412.4</ele><time>2016-09-14T13:18:57Z</time></trkpt>
<trkpt lat="46.49144" lon="6.73117"><ele>412.8</ele><time>2016-09-14T13:18:59Z</time></trkpt>
<trkpt lat="46.49146" lon="6.73125"><ele>413.4</ele><time>2016-09-14T13:19:01Z</time></trkpt>
<trkpt lat="46.49146" lon="6.73129"><ele>413.6</ele><time>2016-09-14T13:19:02Z</time></trkpt>
<trkpt lat="46.49147" lon="6.73133"><ele>413.8</ele><time>2016-09-14T13:19:03Z</time></trkpt>
<trkpt lat="46.49148" lon="6.73137"><ele>414</ele><time>2016-09-14T13:19:04Z</time></trkpt>
<trkpt lat="46.49149" lon="6.73145"><ele>414.6</ele><time>2016-09-14T13:19:06Z</time></trkpt>
<trkpt lat="46.49158" lon="6.73172"><ele>416.2</ele><time>2016-09-14T13:19:13Z</time></trkpt>
<trkpt lat="46.49171" lon="6.73195"><ele>417.4</ele><time>2016-09-14T13:19:20Z</time></trkpt>
<trkpt lat="46.49185" lon="6.73212"><ele>418.8</ele><time>2016-09-14T13:19:26Z</time></trkpt>
<trkpt lat="46.492" lon="6.73229"><ele>420</ele><time>2016-09-14T13:19:32Z</time></trkpt>
<trkpt lat="46.49213" lon="6.73247"><ele>421.2</ele><time>2016-09-14T13:19:38Z</time></trkpt>
<trkpt lat="46.49233" lon="6.73284"><ele>424</ele><time>2016-09-14T13:19:49Z</time></trkpt>
<trkpt lat="46.49245" lon="6.73307"><ele>425.6</ele><time>2016-09-14T13:19:56Z</time></trkpt>
<trkpt lat="46.49256" lon="6.73328"><ele>427</ele><time>2016-09-14T13:20:03Z</time></trkpt>
<trkpt lat="46.4927" lon="6.73346"><ele>428.2</ele><time>2016-09-14T13:20:10Z</time></trkpt>
<trkpt lat="46.49287" lon="6.73359"><ele>429.2</ele><time>2016-09-14T13:20:17Z</time></trkpt>
<trkpt lat="46.49306" lon="6.73368"><ele>430</ele><time>2016-09-14T13:20:24Z</time></trkpt>
<trkpt lat="46.49325" lon="6.73377"><ele>430.6</ele><time>2016-09-14T13:20:31Z</time></trkpt>
<trkpt lat="46.49344" lon="6.73387"><ele>431.6</ele><time>2016-09-14T13:20:38Z</time></trkpt>
<trkpt lat="46.49361" lon="6.73421"><ele>433.4</ele><time>2016-09-14T13:20:48Z</time></trkpt>
<trkpt lat="46.49358" lon="6.73448"><ele>436.6</ele><time>2016-09-14T13:20:55Z</time></trkpt>
<trkpt lat="46.49345" lon="6.7347"><ele>439</ele><time>2016-09-14T13:21:02Z</time></trkpt>
<trkpt lat="46.49337" lon="6.73496"><ele>439.4</ele><time>2016-09-14T13:21:09Z</time></trkpt>
<trkpt lat="46.49336" lon="6.73525"><ele>441</ele><time>2016-09-14T13:21:16Z</time></trkpt>
<trkpt lat="46.49338" lon="6.73554"><ele>442.6</ele><time>2016-09-14T13:21:24Z</time></trkpt>
<trkpt lat="46.49337" lon="6.73581"><ele>444.4</ele><time>2016-09-14T13:21:31Z</time></trkpt>
<trkpt lat="46.49329" lon="6.73619"><ele>444.2</ele><time>2016-09-14T13:21:38Z</time></trkpt>
<trkpt lat="46.49326" lon="6.73646"><ele>443.6</ele><time>2016-09-14T13:21:42Z</time></trkpt>
<trkpt lat="46.49326" lon="6.7367"><ele>443.2</ele><time>2016-09-14T13:21:45Z</time></trkpt>
<trkpt lat="46.49326" lon="6.73702"><ele>442.8</ele><time>2016-09-14T13:21:49Z</time></trkpt>
<trkpt lat="46.49323" lon="6.73731"><ele>441</ele><time>2016-09-14T13:21:53Z</time></trkpt>
<trkpt lat="46.49317" lon="6.73757"><ele>440.8</ele><time>2016-09-14T13:21:57Z</time></trkpt>
<trkpt lat="46.49309" lon="6.73782"><ele>440.8</ele><time>2016-09-14T13:22:01Z</time></trkpt>
<trkpt lat="46.493" lon="6.73809"><ele>440.4</ele><time>2016-09-14T13:22:06Z</time></trkpt>
<trkpt lat="46.49292" lon="6.73834"><ele>440.4</ele><time>2016-09-14T13:22:11Z</time></trkpt>
<trkpt lat="46.49285" lon="6.73859"><ele>439.6</ele><time>2016-09-14T13:22:15Z</time></trkpt>
<trkpt lat="46.49281" lon="6.73885"><ele>439.6</ele><time>2016-09-14T13:22:19Z</time></trkpt>
<trkpt lat="46.4928" lon="6.73911"><ele>440.2</ele><time>2016-09-14T13:22:23Z</time></trkpt>
<trkpt lat="46.4928" lon="6.73941"><ele>441.6</ele><time>2016-09-14T13:22:28Z</time></trkpt>
<trkpt lat="46.49283" lon="6.73969"><ele>442.6</ele><time>2016-09-14T13:22:33Z</time></trkpt>
<trkpt lat="46.49284" lon="6.73985"><ele>443.4</ele><time>2016-09-14T13:22:36Z</time></trkpt>
<trkpt lat="46.49285" lon="6.74043"><ele>445.4</ele><time>2016-09-14T13:22:46Z</time></trkpt>
<trkpt lat="46.4928" lon="6.74071"><ele>446.6</ele><time>2016-09-14T13:22:51Z</time></trkpt>
<trkpt lat="46.49272" lon="6.74098"><ele>447.6</ele><time>2016-09-14T13:22:56Z</time></trkpt>
<trkpt lat="46.49265" lon="6.74126"><ele>448.4</ele><time>2016-09-14T13:23:01Z</time></trkpt>
<trkpt lat="46.4926" lon="6.74153"><ele>449.6</ele><time>2016-09-14T13:23:06Z</time></trkpt>
<trkpt lat="46.49255" lon="6.74183"><ele>450.4</ele><time>2016-09-14T13:23:12Z</time></trkpt>
<trkpt lat="46.49253" lon="6.7421"><ele>451.2</ele><time>2016-09-14T13:23:17Z</time></trkpt>
<trkpt lat="46.49256" lon="6.74237"><ele>452.2</ele><time>2016-09-14T13:23:22Z</time></trkpt>
<trkpt lat="46.4926" lon="6.74263"><ele>453</ele><time>2016-09-14T13:23:27Z</time></trkpt>
<trkpt lat="46.4926" lon="6.7429"><ele>454</ele><time>2016-09-14T13:23:32Z</time></trkpt>
<trkpt lat="46.49253" lon="6.74315"><ele>455</ele><time>2016-09-14T13:23:37Z</time></trkpt>
<trkpt lat="46.49234" lon="6.7436"><ele>457.2</ele><time>2016-09-14T13:23:47Z</time></trkpt>
<trkpt lat="46.49229" lon="6.74385"><ele>456.6</ele><time>2016-09-14T13:23:52Z</time></trkpt>
<trkpt lat="46.49229" lon="6.74418"><ele>456</ele><time>2016-09-14T13:23:57Z</time></trkpt>
<trkpt lat="46.49239" lon="6.74447"><ele>454.6</ele><time>2016-09-14T13:24:01Z</time></trkpt>
<trkpt lat="46.49249" lon="6.7447"><ele>454</ele><time>2016-09-14T13:24:04Z</time></trkpt>
<trkpt lat="46.49248" lon="6.74501"><ele>453.4</ele><time>2016-09-14T13:24:08Z</time></trkpt>
<trkpt lat="46.49237" lon="6.74523"><ele>454.2</ele><time>2016-09-14T13:24:12Z</time></trkpt>
<trkpt lat="46.49227" lon="6.74535"><ele>454.8</ele><time>2016-09-14T13:24:15Z</time></trkpt>
<trkpt lat="46.49212" lon="6.74552"><ele>454</ele><time>2016-09-14T13:24:19Z</time></trkpt>
<trkpt lat="46.49204" lon="6.74563"><ele>453.4</ele><time>2016-09-14T13:24:21Z</time></trkpt>
<trkpt lat="46.49194" lon="6.74594"><ele>452.4</ele><time>2016-09-14T13:24:25Z</time></trkpt>
<trkpt lat="46.4919" lon="6.74628"><ele>451.8</ele><time>2016-09-14T13:24:29Z</time></trkpt>
<trkpt lat="46.49185" lon="6.74656"><ele>450.8</ele><time>2016-09-14T13:24:32Z</time></trkpt>
<trkpt lat="46.49181" lon="6.74684"><ele>450</ele><time>2016-09-14T13:24:35Z</time></trkpt>
<trkpt lat="46.49176" lon="6.74713"><ele>448.6</ele><time>2016-09-14T13:24:39Z</time></trkpt>
<trkpt lat="46.49174" lon="6.74718"><ele>448.6</ele><time>2016-09-14T13:24:40Z</time></trkpt>
<trkpt lat="46.49173" lon="6.74723"><ele>448.4</ele><time>2016-09-14T13:24:41Z</time></trkpt>
<trkpt lat="46.4917" lon="6.7473"><ele>448.6</ele><time>2016-09-14T13:24:43Z</time></trkpt>
<trkpt lat="46.49169" lon="6.74733"><ele>448.4</ele><time>2016-09-14T13:24:44Z</time></trkpt>
<trkpt lat="46.49162" lon="6.74744"><ele>449.2</ele><time>2016-09-14T13:24:50Z</time></trkpt>
<trkpt lat="46.49161" lon="6.74745"><ele>449.4</ele><time>2016-09-14T13:24:52Z</time></trkpt>
<trkpt lat="46.4916" lon="6.74747"><ele>449.8</ele><time>2016-09-14T13:24:56Z</time></trkpt>
<trkpt lat="46.49159" lon="6.74748"><ele>449.8</ele><time>2016-09-14T13:24:57Z</time></trkpt>
<trkpt lat="46.49159" lon="6.74748"><ele>450</ele><time>2016-09-14T13:24:58Z</time></trkpt>
<trkpt lat="46.49157" lon="6.74755"><ele>450.2</ele><time>2016-09-14T13:25:04Z</time></trkpt>
<trkpt lat="46.49144" lon="6.74777"><ele>451.2</ele><time>2016-09-14T13:25:10Z</time></trkpt>
<trkpt lat="46.49141" lon="6.74781"><ele>451.2</ele><time>2016-09-14T13:25:11Z</time></trkpt>
<trkpt lat="46.49134" lon="6.7479"><ele>451.4</ele><time>2016-09-14T13:25:13Z</time></trkpt>
<trkpt lat="46.49122" lon="6.74809"><ele>451.6</ele><time>2016-09-14T13:25:17Z</time></trkpt>
<trkpt lat="46.4911" lon="6.74833"><ele>453.8</ele><time>2016-09-14T13:25:22Z</time></trkpt>
<trkpt lat="46.49105" lon="6.74842"><ele>454.6</ele><time>2016-09-14T13:25:24Z</time></trkpt>
<trkpt lat="46.49099" lon="6.7485"><ele>455.6</ele><time>2016-09-14T13:25:26Z</time></trkpt>
<trkpt lat="46.49088" lon="6.7486"><ele>456.8</ele><time>2016-09-14T13:25:29Z</time></trkpt>
<trkpt lat="46.4908" lon="6.74864"><ele>457.6</ele><time>2016-09-14T13:25:31Z</time></trkpt>
<trkpt lat="46.49072" lon="6.74868"><ele>458.4</ele><time>2016-09-14T13:25:33Z</time></trkpt>
<trkpt lat="46.49056" lon="6.74875"><ele>458.8</ele><time>2016-09-14T13:25:37Z</time></trkpt>
<trkpt lat="46.49038" lon="6.7489"><ele>457.6</ele><time>2016-09-14T13:25:42Z</time></trkpt>
<trkpt lat="46.49027" lon="6.74909"><ele>457.6</ele><time>2016-09-14T13:25:46Z</time></trkpt>
<trkpt lat="46.49021" lon="6.74928"><ele>456.6</ele><time>2016-09-14T13:25:49Z</time></trkpt>
<trkpt lat="46.49015" lon="6.74955"><ele>456.6</ele><time>2016-09-14T13:25:53Z</time></trkpt>
<trkpt lat="46.49008" lon="6.74983"><ele>457.6</ele><time>2016-09-14T13:25:58Z</time></trkpt>
<trkpt lat="46.49007" lon="6.74987"><ele>458</ele><time>2016-09-14T13:25:59Z</time></trkpt>
<trkpt lat="46.49001" lon="6.75001"><ele>459.4</ele><time>2016-09-14T13:26:02Z</time></trkpt>
<trkpt lat="46.48987" lon="6.75019"><ele>460.6</ele><time>2016-09-14T13:26:07Z</time></trkpt>
<trkpt lat="46.48972" lon="6.75038"><ele>461.6</ele><time>2016-09-14T13:26:12Z</time></trkpt>
<trkpt lat="46.4895" lon="6.75063"><ele>462.8</ele><time>2016-09-14T13:26:19Z</time></trkpt>
<trkpt lat="46.48948" lon="6.75067"><ele>462.8</ele><time>2016-09-14T13:26:20Z</time></trkpt>
<trkpt lat="46.48939" lon="6.75093"><ele>463.6</ele><time>2016-09-14T13:26:25Z</time></trkpt>
<trkpt lat="46.48938" lon="6.75114"><ele>464</ele><time>2016-09-14T13:26:29Z</time></trkpt>
<trkpt lat="46.48938" lon="6.75145"><ele>464.8</ele><time>2016-09-14T13:26:34Z</time></trkpt>
<trkpt lat="46.48933" lon="6.75174"><ele>466</ele><time>2016-09-14T13:26:39Z</time></trkpt>
<trkpt lat="46.4892" lon="6.75197"><ele>467.4</ele><time>2016-09-14T13:26:44Z</time></trkpt>
<trkpt lat="46.48904" lon="6.75212"><ele>468.8</ele><time>2016-09-14T13:26:49Z</time></trkpt>
<trkpt lat="46.48885" lon="6.75226"><ele>469.8</ele><time>2016-09-14T13:26:54Z</time></trkpt>
<trkpt lat="46.48868" lon="6.75243"><ele>470.8</ele><time>2016-09-14T13:26:59Z</time></trkpt>
<trkpt lat="46.48852" lon="6.75264"><ele>472</ele><time>2016-09-14T13:27:04Z</time></trkpt>
<trkpt lat="46.48847" lon="6.75274"><ele>472.2</ele><time>2016-09-14T13:27:06Z</time></trkpt>
<trkpt lat="46.48834" lon="6.75298"><ele>473.2</ele><time>2016-09-14T13:27:11Z</time></trkpt>
<trkpt lat="46.48822" lon="6.75322"><ele>474.2</ele><time>2016-09-14T13:27:16Z</time></trkpt>
<trkpt lat="46.4881" lon="6.75347"><ele>475</ele><time>2016-09-14T13:27:21Z</time></trkpt>
<trkpt lat="46.48797" lon="6.75372"><ele>476.6</ele><time>2016-09-14T13:27:26Z</time></trkpt>
<trkpt lat="46.48783" lon="6.75397"><ele>477.4</ele><time>2016-09-14T13:27:31Z</time></trkpt>
<trkpt lat="46.4877" lon="6.75422"><ele>478.2</ele><time>2016-09-14T13:27:36Z</time></trkpt>
<trkpt lat="46.48755" lon="6.75445"><ele>478.8</ele><time>2016-09-14T13:27:41Z</time></trkpt>
<trkpt lat="46.48738" lon="6.75466"><ele>479.4</ele><time>2016-09-14T13:27:46Z</time></trkpt>
<trkpt lat="46.48721" lon="6.75485"><ele>480</ele><time>2016-09-14T13:27:51Z</time></trkpt>
<trkpt lat="46.48704" lon="6.75504"><ele>480.6</ele><time>2016-09-14T13:27:56Z</time></trkpt>
<trkpt lat="46.48687" lon="6.75524"><ele>481.4</ele><time>2016-09-14T13:28:01Z</time></trkpt>
<trkpt lat="46.48671" lon="6.75546"><ele>482.2</ele><time>2016-09-14T13:28:06Z</time></trkpt>
<trkpt lat="46.48657" lon="6.75569"><ele>483.4</ele><time>2016-09-14T13:28:11Z</time></trkpt>
<trkpt lat="46.48643" lon="6.75591"><ele>484.8</ele><time>2016-09-14T13:28:16Z</time></trkpt>
<trkpt lat="46.48636" lon="6.75604"><ele>485.4</ele><time>2016-09-14T13:28:19Z</time></trkpt>
<trkpt lat="46.48623" lon="6.75629"><ele>486.8</ele><time>2016-09-14T13:28:25Z</time></trkpt>
<trkpt lat="46.48611" lon="6.75652"><ele>487.8</ele><time>2016-09-14T13:28:31Z</time></trkpt>
<trkpt lat="46.48598" lon="6.75676"><ele>489</ele><time>2016-09-14T13:28:37Z</time></trkpt>
<trkpt lat="46.48593" lon="6.75684"><ele>489.6</ele><time>2016-09-14T13:28:39Z</time></trkpt>
<trkpt lat="46.48581" lon="6.75706"><ele>490.6</ele><time>2016-09-14T13:28:45Z</time></trkpt>
<trkpt lat="46.48569" lon="6.75727"><ele>492.2</ele><time>2016-09-14T13:28:51Z</time></trkpt>
<trkpt lat="46.48549" lon="6.75759"><ele>493.4</ele><time>2016-09-14T13:29:01Z</time></trkpt>
<trkpt lat="46.48537" lon="6.75779"><ele>494.6</ele><time>2016-09-14T13:29:07Z</time></trkpt>
<trkpt lat="46.48525" lon="6.75799"><ele>494.4</ele><time>2016-09-14T13:29:13Z</time></trkpt>
<trkpt lat="46.48512" lon="6.75822"><ele>495.4</ele><time>2016-09-14T13:29:20Z</time></trkpt>
<trkpt lat="46.48499" lon="6.75846"><ele>497.4</ele><time>2016-09-14T13:29:27Z</time></trkpt>
<trkpt lat="46.48485" lon="6.75867"><ele>499.4</ele><time>2016-09-14T13:29:34Z</time></trkpt>
<trkpt lat="46.48478" lon="6.75874"><ele>500.4</ele><time>2016-09-14T13:29:37Z</time></trkpt>
<trkpt lat="46.48472" lon="6.75877"><ele>500.8</ele><time>2016-09-14T13:29:42Z</time></trkpt>
<trkpt lat="46.48472" lon="6.75876"><ele>500.2</ele><time>2016-09-14T13:29:44Z</time></trkpt>
<trkpt lat="46.48473" lon="6.75875"><ele>499.6</ele><time>2016-09-14T13:29:50Z</time></trkpt>
<trkpt lat="46.48473" lon="6.75876"><ele>499.4</ele><time>2016-09-14T13:29:53Z</time></trkpt>
<trkpt lat="46.48461" lon="6.75899"><ele>500.6</ele><time>2016-09-14T13:30:01Z</time></trkpt>
<trkpt lat="46.48445" lon="6.75918"><ele>501.8</ele><time>2016-09-14T13:30:07Z</time></trkpt>
<trkpt lat="46.48427" lon="6.75935"><ele>503.4</ele><time>2016-09-14T13:30:13Z</time></trkpt>
<trkpt lat="46.48413" lon="6.7595"><ele>504.4</ele><time>2016-09-14T13:30:18Z</time></trkpt>
<trkpt lat="46.48397" lon="6.7597"><ele>505.4</ele><time>2016-09-14T13:30:24Z</time></trkpt>
<trkpt lat="46.48385" lon="6.7599"><ele>506.4</ele><time>2016-09-14T13:30:29Z</time></trkpt>
<trkpt lat="46.48371" lon="6.76013"><ele>507.6</ele><time>2016-09-14T13:30:35Z</time></trkpt>
<trkpt lat="46.48358" lon="6.76031"><ele>509</ele><time>2016-09-14T13:30:40Z</time></trkpt>
<trkpt lat="46.48341" lon="6.7605"><ele>510.4</ele><time>2016-09-14T13:30:46Z</time></trkpt>
<trkpt lat="46.48327" lon="6.76066"><ele>511.6</ele><time>2016-09-14T13:30:51Z</time></trkpt>
<trkpt lat="46.48313" lon="6.76088"><ele>513</ele><time>2016-09-14T13:30:57Z</time></trkpt>
<trkpt lat="46.483" lon="6.76113"><ele>514.4</ele><time>2016-09-14T13:31:03Z</time></trkpt>
<trkpt lat="46.48287" lon="6.76137"><ele>516</ele><time>2016-09-14T13:31:09Z</time></trkpt>
<trkpt lat="46.48274" lon="6.76161"><ele>516.8</ele><time>2016-09-14T13:31:15Z</time></trkpt>
<trkpt lat="46.48259" lon="6.76183"><ele>518.2</ele><time>2016-09-14T13:31:21Z</time></trkpt>
<trkpt lat="46.48244" lon="6.76203"><ele>520.2</ele><time>2016-09-14T13:31:27Z</time></trkpt>
<trkpt lat="46.4823" lon="6.76226"><ele>521.8</ele><time>2016-09-14T13:31:33Z</time></trkpt>
<trkpt lat="46.48219" lon="6.76252"><ele>522.4</ele><time>2016-09-14T13:31:39Z</time></trkpt>
<trkpt lat="46.48216" lon="6.76256"><ele>522.6</ele><time>2016-09-14T13:31:40Z</time></trkpt>
<trkpt lat="46.48205" lon="6.76282"><ele>523</ele><time>2016-09-14T13:31:46Z</time></trkpt>
<trkpt lat="46.48194" lon="6.76306"><ele>524</ele><time>2016-09-14T13:31:52Z</time></trkpt>
<trkpt lat="46.48175" lon="6.76347"><ele>526.2</ele><time>2016-09-14T13:32:02Z</time></trkpt>
<trkpt lat="46.48163" lon="6.76371"><ele>527.2</ele><time>2016-09-14T13:32:08Z</time></trkpt>
<trkpt lat="46.4815" lon="6.76393"><ele>528.4</ele><time>2016-09-14T13:32:14Z</time></trkpt>
<trkpt lat="46.48137" lon="6.76414"><ele>530</ele><time>2016-09-14T13:32:20Z</time></trkpt>
<trkpt lat="46.48131" lon="6.76439"><ele>530.2</ele><time>2016-09-14T13:32:26Z</time></trkpt>
<trkpt lat="46.48124" lon="6.76464"><ele>530.6</ele><time>2016-09-14T13:32:32Z</time></trkpt>
<trkpt lat="46.48116" lon="6.76489"><ele>531.6</ele><time>2016-09-14T13:32:38Z</time></trkpt>
<trkpt lat="46.48099" lon="6.76537"><ele>533.6</ele><time>2016-09-14T13:32:50Z</time></trkpt>
<trkpt lat="46.48089" lon="6.7656"><ele>535</ele><time>2016-09-14T13:32:56Z</time></trkpt>
<trkpt lat="46.48077" lon="6.76581"><ele>536.4</ele><time>2016-09-14T13:33:02Z</time></trkpt>
<trkpt lat="46.48064" lon="6.76599"><ele>537.8</ele><time>2016-09-14T13:33:08Z</time></trkpt>
<trkpt lat="46.48055" lon="6.76622"><ele>538.8</ele><time>2016-09-14T13:33:15Z</time></trkpt>
<trkpt lat="46.48049" lon="6.76651"><ele>539.6</ele><time>2016-09-14T13:33:22Z</time></trkpt>
<trkpt lat="46.48041" lon="6.76679"><ele>541</ele><time>2016-09-14T13:33:29Z</time></trkpt>
<trkpt lat="46.48033" lon="6.76706"><ele>542.4</ele><time>2016-09-14T13:33:36Z</time></trkpt>
<trkpt lat="46.48024" lon="6.76756"><ele>544.2</ele><time>2016-09-14T13:33:48Z</time></trkpt>
<trkpt lat="46.4803" lon="6.76783"><ele>544.8</ele><time>2016-09-14T13:33:54Z</time></trkpt>
<trkpt lat="46.4804" lon="6.76807"><ele>545.6</ele><time>2016-09-14T13:34:00Z</time></trkpt>
<trkpt lat="46.48048" lon="6.76828"><ele>546.4</ele><time>2016-09-14T13:34:05Z</time></trkpt>
<trkpt lat="46.48051" lon="6.76857"><ele>547.6</ele><time>2016-09-14T13:34:12Z</time></trkpt>
<trkpt lat="46.48048" lon="6.76886"><ele>549.4</ele><time>2016-09-14T13:34:19Z</time></trkpt>
<trkpt lat="46.48042" lon="6.76914"><ele>550.6</ele><time>2016-09-14T13:34:26Z</time></trkpt>
<trkpt lat="46.48042" lon="6.7694"><ele>551.2</ele><time>2016-09-14T13:34:32Z</time></trkpt>
<trkpt lat="46.48043" lon="6.76968"><ele>550.8</ele><time>2016-09-14T13:34:38Z</time></trkpt>
<trkpt lat="46.48044" lon="6.76996"><ele>552</ele><time>2016-09-14T13:34:44Z</time></trkpt>
<trkpt lat="46.48042" lon="6.77023"><ele>553</ele><time>2016-09-14T13:34:50Z</time></trkpt>
<trkpt lat="46.48036" lon="6.77048"><ele>554</ele><time>2016-09-14T13:34:56Z</time></trkpt>
<trkpt lat="46.48029" lon="6.77077"><ele>555.2</ele><time>2016-09-14T13:35:03Z</time></trkpt>
<trkpt lat="46.48027" lon="6.77104"><ele>556</ele><time>2016-09-14T13:35:09Z</time></trkpt>
<trkpt lat="46.48026" lon="6.77118"><ele>556.4</ele><time>2016-09-14T13:35:12Z</time></trkpt>
<trkpt lat="46.48024" lon="6.77146"><ele>557.2</ele><time>2016-09-14T13:35:18Z</time></trkpt>
<trkpt lat="46.48023" lon="6.77174"><ele>558.4</ele><time>2016-09-14T13:35:24Z</time></trkpt>
<trkpt lat="46.48019" lon="6.77201"><ele>560.4</ele><time>2016-09-14T13:35:30Z</time></trkpt>
<trkpt lat="46.48016" lon="6.77227"><ele>561.6</ele><time>2016-09-14T13:35:36Z</time></trkpt>
<trkpt lat="46.4801" lon="6.77276"><ele>563</ele><time>2016-09-14T13:35:47Z</time></trkpt>
<trkpt lat="46.48007" lon="6.77304"><ele>564.4</ele><time>2016-09-14T13:35:53Z</time></trkpt>
<trkpt lat="46.48007" lon="6.77335"><ele>565.4</ele><time>2016-09-14T13:35:59Z</time></trkpt>
<trkpt lat="46.48013" lon="6.77361"><ele>565.8</ele><time>2016-09-14T13:36:04Z</time></trkpt>
<trkpt lat="46.48022" lon="6.77383"><ele>566.2</ele><time>2016-09-14T13:36:09Z</time></trkpt>
<trkpt lat="46.48039" lon="6.77393"><ele>566.4</ele><time>2016-09-14T13:36:14Z</time></trkpt>
<trkpt lat="46.48059" lon="6.7739"><ele>566.6</ele><time>2016-09-14T13:36:19Z</time></trkpt>
<trkpt lat="46.48071" lon="6.77382"><ele>566.4</ele><time>2016-09-14T13:36:22Z</time></trkpt>
<trkpt lat="46.48088" lon="6.77372"><ele>566.2</ele><time>2016-09-14T13:36:26Z</time></trkpt>
<trkpt lat="46.48106" lon="6.77373"><ele>566</ele><time>2016-09-14T13:36:30Z</time></trkpt>
<trkpt lat="46.48114" lon="6.77377"><ele>566.2</ele><time>2016-09-14T13:36:32Z</time></trkpt>
<trkpt lat="46.48127" lon="6.77392"><ele>565.6</ele><time>2016-09-14T13:36:36Z</time></trkpt>
<trkpt lat="46.48139" lon="6.77418"><ele>566.2</ele><time>2016-09-14T13:36:41Z</time></trkpt>
<trkpt lat="46.4815" lon="6.77443"><ele>565.6</ele><time>2016-09-14T13:36:46Z</time></trkpt>
<trkpt lat="46.48164" lon="6.77462"><ele>565.8</ele><time>2016-09-14T13:36:51Z</time></trkpt>
<trkpt lat="46.4818" lon="6.77481"><ele>565.8</ele><time>2016-09-14T13:36:56Z</time></trkpt>
<trkpt lat="46.48195" lon="6.77504"><ele>566.2</ele><time>2016-09-14T13:37:01Z</time></trkpt>
<trkpt lat="46.48195" lon="6.7751"><ele>566</ele><time>2016-09-14T13:37:02Z</time></trkpt>
<trkpt lat="46.48188" lon="6.77534"><ele>563.4</ele><time>2016-09-14T13:37:05Z</time></trkpt>
<trkpt lat="46.48172" lon="6.77558"><ele>562.6</ele><time>2016-09-14T13:37:08Z</time></trkpt>
<trkpt lat="46.48168" lon="6.77563"><ele>562.2</ele><time>2016-09-14T13:37:09Z</time></trkpt>
<trkpt lat="46.4815" lon="6.7758"><ele>562</ele><time>2016-09-14T13:37:13Z</time></trkpt>
<trkpt lat="46.48132" lon="6.77603"><ele>561.4</ele><time>2016-09-14T13:37:17Z</time></trkpt>
<trkpt lat="46.48128" lon="6.77611"><ele>560.6</ele><time>2016-09-14T13:37:18Z</time></trkpt>
<trkpt lat="46.48118" lon="6.77639"><ele>559.4</ele><time>2016-09-14T13:37:21Z</time></trkpt>
<trkpt lat="46.48113" lon="6.77658"><ele>559.2</ele><time>2016-09-14T13:37:23Z</time></trkpt>
<trkpt lat="46.48118" lon="6.77684"><ele>558.2</ele><time>2016-09-14T13:37:26Z</time></trkpt>
<trkpt lat="46.4813" lon="6.77706"><ele>558.4</ele><time>2016-09-14T13:37:29Z</time></trkpt>
<trkpt lat="46.48144" lon="6.77725"><ele>559.2</ele><time>2016-09-14T13:37:33Z</time></trkpt>
<trkpt lat="46.4815" lon="6.77734"><ele>560.8</ele><time>2016-09-14T13:37:37Z</time></trkpt>
<trkpt lat="46.48152" lon="6.77736"><ele>561.2</ele><time>2016-09-14T13:37:38Z</time></trkpt>
<trkpt lat="46.48153" lon="6.77746"><ele>562.2</ele><time>2016-09-14T13:37:40Z</time></trkpt>
<trkpt lat="46.48155" lon="6.77774"><ele>564.6</ele><time>2016-09-14T13:37:44Z</time></trkpt>
<trkpt lat="46.48158" lon="6.7779"><ele>564.6</ele><time>2016-09-14T13:37:46Z</time></trkpt>
<trkpt lat="46.48165" lon="6.77818"><ele>565.6</ele><time>2016-09-14T13:37:49Z</time></trkpt>
<trkpt lat="46.48172" lon="6.7785"><ele>566.6</ele><time>2016-09-14T13:37:52Z</time></trkpt>
<trkpt lat="46.48175" lon="6.77875"><ele>565</ele><time>2016-09-14T13:37:54Z</time></trkpt>
<trkpt lat="46.48178" lon="6.77903"><ele>563.8</ele><time>2016-09-14T13:37:56Z</time></trkpt>
<trkpt lat="46.4818" lon="6.77932"><ele>562.4</ele><time>2016-09-14T13:37:58Z</time></trkpt>
<trkpt lat="46.48176" lon="6.77961"><ele>560</ele><time>2016-09-14T13:38:00Z</time></trkpt>
<trkpt lat="46.48162" lon="6.77983"><ele>557.2</ele><time>2016-09-14T13:38:02Z</time></trkpt>
<trkpt lat="46.48154" lon="6.77993"><ele>556.6</ele><time>2016-09-14T13:38:03Z</time></trkpt>
<trkpt lat="46.48137" lon="6.78014"><ele>554</ele><time>2016-09-14T13:38:05Z</time></trkpt>
<trkpt lat="46.48121" lon="6.78035"><ele>551.4</ele><time>2016-09-14T13:38:07Z</time></trkpt>
<trkpt lat="46.48103" lon="6.78055"><ele>550</ele><time>2016-09-14T13:38:09Z</time></trkpt>
<trkpt lat="46.48087" lon="6.78072"><ele>548.2</ele><time>2016-09-14T13:38:11Z</time></trkpt>
<trkpt lat="46.48066" lon="6.78092"><ele>545.8</ele><time>2016-09-14T13:38:14Z</time></trkpt>
<trkpt lat="46.48061" lon="6.781"><ele>544.6</ele><time>2016-09-14T13:38:15Z</time></trkpt>
<trkpt lat="46.48054" lon="6.78128"><ele>541.8</ele><time>2016-09-14T13:38:18Z</time></trkpt>
<trkpt lat="46.48053" lon="6.78138"><ele>541</ele><time>2016-09-14T13:38:19Z</time></trkpt>
<trkpt lat="46.48051" lon="6.78158"><ele>539.4</ele><time>2016-09-14T13:38:21Z</time></trkpt>
<trkpt lat="46.48038" lon="6.78181"><ele>537</ele><time>2016-09-14T13:38:24Z</time></trkpt>
<trkpt lat="46.48024" lon="6.78208"><ele>534.8</ele><time>2016-09-14T13:38:28Z</time></trkpt>
<trkpt lat="46.48019" lon="6.78223"><ele>534</ele><time>2016-09-14T13:38:30Z</time></trkpt>
<trkpt lat="46.48012" lon="6.78247"><ele>533.6</ele><time>2016-09-14T13:38:33Z</time></trkpt>
<trkpt lat="46.48" lon="6.78273"><ele>533.2</ele><time>2016-09-14T13:38:37Z</time></trkpt>
<trkpt lat="46.47996" lon="6.78278"><ele>533</ele><time>2016-09-14T13:38:38Z</time></trkpt>
<trkpt lat="46.47982" lon="6.78304"><ele>532.6</ele><time>2016-09-14T13:38:42Z</time></trkpt>
<trkpt lat="46.47974" lon="6.78329"><ele>532.2</ele><time>2016-09-14T13:38:45Z</time></trkpt>
<trkpt lat="46.47969" lon="6.78359"><ele>531.2</ele><time>2016-09-14T13:38:48Z</time></trkpt>
<trkpt lat="46.47967" lon="6.78382"><ele>530.4</ele><time>2016-09-14T13:38:50Z</time></trkpt>
<trkpt lat="46.47963" lon="6.7842"><ele>529</ele><time>2016-09-14T13:38:53Z</time></trkpt>
<trkpt lat="46.47958" lon="6.78447"><ele>527.8</ele><time>2016-09-14T13:38:55Z</time></trkpt>
<trkpt lat="46.47952" lon="6.78476"><ele>526.6</ele><time>2016-09-14T13:38:57Z</time></trkpt>
<trkpt lat="46.47949" lon="6.7849"><ele>526</ele><time>2016-09-14T13:38:58Z</time></trkpt>
<trkpt lat="46.47943" lon="6.78521"><ele>524.4</ele><time>2016-09-14T13:39:00Z</time></trkpt>
<trkpt lat="46.47935" lon="6.78551"><ele>523.2</ele><time>2016-09-14T13:39:02Z</time></trkpt>
<trkpt lat="46.47928" lon="6.78582"><ele>521.4</ele><time>2016-09-14T13:39:04Z</time></trkpt>
<trkpt lat="46.47919" lon="6.78613"><ele>520.2</ele><time>2016-09-14T13:39:06Z</time></trkpt>
<trkpt lat="46.47909" lon="6.78643"><ele>519.4</ele><time>2016-09-14T13:39:08Z</time></trkpt>
<trkpt lat="46.47897" lon="6.78672"><ele>519.2</ele><time>2016-09-14T13:39:10Z</time></trkpt>
<trkpt lat="46.47886" lon="6.787"><ele>518.8</ele><time>2016-09-14T13:39:12Z</time></trkpt>
<trkpt lat="46.47874" lon="6.78726"><ele>518.4</ele><time>2016-09-14T13:39:14Z</time></trkpt>
<trkpt lat="46.47862" lon="6.78751"><ele>517.6</ele><time>2016-09-14T13:39:16Z</time></trkpt>
<trkpt lat="46.4785" lon="6.78775"><ele>517.8</ele><time>2016-09-14T13:39:18Z</time></trkpt>
<trkpt lat="46.4784" lon="6.78799"><ele>517.6</ele><time>2016-09-14T13:39:20Z</time></trkpt>
<trkpt lat="46.47831" lon="6.78822"><ele>517.6</ele><time>2016-09-14T13:39:22Z</time></trkpt>
<trkpt lat="46.47822" lon="6.78846"><ele>517.2</ele><time>2016-09-14T13:39:24Z</time></trkpt>
<trkpt lat="46.47814" lon="6.78871"><ele>517</ele><time>2016-09-14T13:39:26Z</time></trkpt>
<trkpt lat="46.47807" lon="6.78896"><ele>516.6</ele><time>2016-09-14T13:39:28Z</time></trkpt>
<trkpt lat="46.47804" lon="6.78923"><ele>517</ele><time>2016-09-14T13:39:30Z</time></trkpt>
<trkpt lat="46.47801" lon="6.78957"><ele>518.4</ele><time>2016-09-14T13:39:33Z</time></trkpt>
<trkpt lat="46.47797" lon="6.78986"><ele>519</ele><time>2016-09-14T13:39:36Z</time></trkpt>
<trkpt lat="46.47794" lon="6.79014"><ele>518.4</ele><time>2016-09-14T13:39:39Z</time></trkpt>
<trkpt lat="46.47796" lon="6.79044"><ele>519.8</ele><time>2016-09-14T13:39:43Z</time></trkpt>
<trkpt lat="46.47796" lon="6.79057"><ele>520.2</ele><time>2016-09-14T13:39:45Z</time></trkpt>
<trkpt lat="46.47788" lon="6.79087"><ele>521.4</ele><time>2016-09-14T13:39:50Z</time></trkpt>
<trkpt lat="46.47783" lon="6.79107"><ele>524</ele><time>2016-09-14T13:39:57Z</time></trkpt>
<trkpt lat="46.47781" lon="6.79114"><ele>524.6</ele><time>2016-09-14T13:40:00Z</time></trkpt>
<trkpt lat="46.4778" lon="6.79118"><ele>525</ele><time>2016-09-14T13:40:02Z</time></trkpt>
<trkpt lat="46.47779" lon="6.79133"><ele>525.6</ele><time>2016-09-14T13:40:06Z</time></trkpt>
<trkpt lat="46.47778" lon="6.79146"><ele>526.2</ele><time>2016-09-14T13:40:09Z</time></trkpt>
<trkpt lat="46.47768" lon="6.79171"><ele>526.8</ele><time>2016-09-14T13:40:15Z</time></trkpt>
<trkpt lat="46.47756" lon="6.79189"><ele>526.6</ele><time>2016-09-14T13:40:20Z</time></trkpt>
<trkpt lat="46.47745" lon="6.7921"><ele>526.8</ele><time>2016-09-14T13:40:25Z</time></trkpt>
<trkpt lat="46.47731" lon="6.79255"><ele>528</ele><time>2016-09-14T13:40:35Z</time></trkpt>
<trkpt lat="46.47728" lon="6.79283"><ele>529.4</ele><time>2016-09-14T13:40:41Z</time></trkpt>
<trkpt lat="46.47727" lon="6.79295"><ele>530.2</ele><time>2016-09-14T13:40:44Z</time></trkpt>
<trkpt lat="46.47726" lon="6.79302"><ele>530.8</ele><time>2016-09-14T13:40:46Z</time></trkpt>
<trkpt lat="46.47722" lon="6.79322"><ele>532.8</ele><time>2016-09-14T13:40:52Z</time></trkpt>
<trkpt lat="46.47716" lon="6.79348"><ele>535</ele><time>2016-09-14T13:41:01Z</time></trkpt>
<trkpt lat="46.47711" lon="6.79364"><ele>536.8</ele><time>2016-09-14T13:41:07Z</time></trkpt>
<trkpt lat="46.47702" lon="6.79386"><ele>539.4</ele><time>2016-09-14T13:41:17Z</time></trkpt>
<trkpt lat="46.47691" lon="6.79409"><ele>541.6</ele><time>2016-09-14T13:41:28Z</time></trkpt>
<trkpt lat="46.4768" lon="6.79432"><ele>544.2</ele><time>2016-09-14T13:41:39Z</time></trkpt>
<trkpt lat="46.47679" lon="6.79469"><ele>546.8</ele><time>2016-09-14T13:41:54Z</time></trkpt>
<trkpt lat="46.47681" lon="6.79494"><ele>548.2</ele><time>2016-09-14T13:42:03Z</time></trkpt>
<trkpt lat="46.47668" lon="6.79517"><ele>548.2</ele><time>2016-09-14T13:42:10Z</time></trkpt>
<trkpt lat="46.47659" lon="6.7954"><ele>548.4</ele><time>2016-09-14T13:42:15Z</time></trkpt>
<trkpt lat="46.47653" lon="6.79566"><ele>549.4</ele><time>2016-09-14T13:42:20Z</time></trkpt>
<trkpt lat="46.47647" lon="6.79595"><ele>550.8</ele><time>2016-09-14T13:42:26Z</time></trkpt>
<trkpt lat="46.4764" lon="6.79622"><ele>552</ele><time>2016-09-14T13:42:32Z</time></trkpt>
<trkpt lat="46.47629" lon="6.79649"><ele>552</ele><time>2016-09-14T13:42:38Z</time></trkpt>
<trkpt lat="46.47621" lon="6.79667"><ele>550.6</ele><time>2016-09-14T13:42:41Z</time></trkpt>
<trkpt lat="46.47616" lon="6.79692"><ele>549.2</ele><time>2016-09-14T13:42:44Z</time></trkpt>
<trkpt lat="46.47616" lon="6.79701"><ele>548.8</ele><time>2016-09-14T13:42:45Z</time></trkpt>
<trkpt lat="46.47616" lon="6.79712"><ele>548.2</ele><time>2016-09-14T13:42:46Z</time></trkpt>
<trkpt lat="46.47615" lon="6.79723"><ele>547.6</ele><time>2016-09-14T13:42:47Z</time></trkpt>
<trkpt lat="46.47604" lon="6.79757"><ele>545.2</ele><time>2016-09-14T13:42:50Z</time></trkpt>
<trkpt lat="46.47598" lon="6.79767"><ele>544.2</ele><time>2016-09-14T13:42:51Z</time></trkpt>
<trkpt lat="46.47587" lon="6.79787"><ele>544.2</ele><time>2016-09-14T13:42:53Z</time></trkpt>
<trkpt lat="46.47579" lon="6.79818"><ele>544.6</ele><time>2016-09-14T13:42:56Z</time></trkpt>
<trkpt lat="46.47574" lon="6.79847"><ele>544.8</ele><time>2016-09-14T13:42:59Z</time></trkpt>
<trkpt lat="46.47576" lon="6.79873"><ele>544.6</ele><time>2016-09-14T13:43:02Z</time></trkpt>
<trkpt lat="46.47582" lon="6.7989"><ele>544.2</ele><time>2016-09-14T13:43:04Z</time></trkpt>
<trkpt lat="46.47591" lon="6.79902"><ele>544.2</ele><time>2016-09-14T13:43:06Z</time></trkpt>
<trkpt lat="46.47604" lon="6.7992"><ele>544.4</ele><time>2016-09-14T13:43:09Z</time></trkpt>
<trkpt lat="46.47608" lon="6.79934"><ele>544.8</ele><time>2016-09-14T13:43:11Z</time></trkpt>
<trkpt lat="46.476" lon="6.79957"><ele>546.8</ele><time>2016-09-14T13:43:16Z</time></trkpt>
<trkpt lat="46.47597" lon="6.7996"><ele>547</ele><time>2016-09-14T13:43:17Z</time></trkpt>
<trkpt lat="46.47589" lon="6.79982"><ele>547.8</ele><time>2016-09-14T13:43:22Z</time></trkpt>
<trkpt lat="46.47585" lon="6.80008"><ele>548.6</ele><time>2016-09-14T13:43:27Z</time></trkpt>
<trkpt lat="46.47584" lon="6.8002"><ele>548.8</ele><time>2016-09-14T13:43:29Z</time></trkpt>
<trkpt lat="46.47581" lon="6.80037"><ele>548.8</ele><time>2016-09-14T13:43:32Z</time></trkpt>
<trkpt lat="46.4758" lon="6.8005"><ele>548.2</ele><time>2016-09-14T13:43:34Z</time></trkpt>
<trkpt lat="46.47576" lon="6.80077"><ele>547.8</ele><time>2016-09-14T13:43:38Z</time></trkpt>
<trkpt lat="46.47574" lon="6.80084"><ele>547.4</ele><time>2016-09-14T13:43:39Z</time></trkpt>
<trkpt lat="46.47565" lon="6.80114"><ele>546</ele><time>2016-09-14T13:43:43Z</time></trkpt>
<trkpt lat="46.47555" lon="6.80144"><ele>543</ele><time>2016-09-14T13:43:46Z</time></trkpt>
<trkpt lat="46.47546" lon="6.80169"><ele>540</ele><time>2016-09-14T13:43:48Z</time></trkpt>
<trkpt lat="46.47537" lon="6.80198"><ele>537</ele><time>2016-09-14T13:43:50Z</time></trkpt>
<trkpt lat="46.47528" lon="6.80231"><ele>534.6</ele><time>2016-09-14T13:43:52Z</time></trkpt>
<trkpt lat="46.4752" lon="6.80265"><ele>532.6</ele><time>2016-09-14T13:43:54Z</time></trkpt>
<trkpt lat="46.47516" lon="6.80299"><ele>531.4</ele><time>2016-09-14T13:43:56Z</time></trkpt>
<trkpt lat="46.47514" lon="6.80333"><ele>530.2</ele><time>2016-09-14T13:43:58Z</time></trkpt>
<trkpt lat="46.47512" lon="6.80366"><ele>529.6</ele><time>2016-09-14T13:44:00Z</time></trkpt>
<trkpt lat="46.47508" lon="6.80397"><ele>529.4</ele><time>2016-09-14T13:44:02Z</time></trkpt>
<trkpt lat="46.47502" lon="6.80425"><ele>529.4</ele><time>2016-09-14T13:44:04Z</time></trkpt>
<trkpt lat="46.47496" lon="6.8045"><ele>529.4</ele><time>2016-09-14T13:44:06Z</time></trkpt>
<trkpt lat="46.47488" lon="6.80484"><ele>529.6</ele><time>2016-09-14T13:44:09Z</time></trkpt>
<trkpt lat="46.47482" lon="6.80503"><ele>529.6</ele><time>2016-09-14T13:44:11Z</time></trkpt>
<trkpt lat="46.47476" lon="6.80535"><ele>527.6</ele><time>2016-09-14T13:44:14Z</time></trkpt>
<trkpt lat="46.4747" lon="6.8056"><ele>524.6</ele><time>2016-09-14T13:44:16Z</time></trkpt>
<trkpt lat="46.47462" lon="6.80584"><ele>522</ele><time>2016-09-14T13:44:18Z</time></trkpt>
<trkpt lat="46.47452" lon="6.80606"><ele>520.2</ele><time>2016-09-14T13:44:20Z</time></trkpt>
<trkpt lat="46.47437" lon="6.80633"><ele>518</ele><time>2016-09-14T13:44:23Z</time></trkpt>
<trkpt lat="46.47424" lon="6.80659"><ele>516.4</ele><time>2016-09-14T13:44:26Z</time></trkpt>
<trkpt lat="46.47415" lon="6.80675"><ele>515.2</ele><time>2016-09-14T13:44:28Z</time></trkpt>
<trkpt lat="46.474" lon="6.80695"><ele>513.8</ele><time>2016-09-14T13:44:31Z</time></trkpt>
<trkpt lat="46.4739" lon="6.80724"><ele>511.2</ele><time>2016-09-14T13:44:35Z</time></trkpt>
<trkpt lat="46.47389" lon="6.80731"><ele>511.2</ele><time>2016-09-14T13:44:36Z</time></trkpt>
<trkpt lat="46.4739" lon="6.80756"><ele>511.6</ele><time>2016-09-14T13:44:42Z</time></trkpt>
<trkpt lat="46.47392" lon="6.80776"><ele>512.6</ele><time>2016-09-14T13:44:48Z</time></trkpt>
<trkpt lat="46.47394" lon="6.8079"><ele>513</ele><time>2016-09-14T13:44:52Z</time></trkpt>
<trkpt lat="46.47395" lon="6.80796"><ele>514.2</ele><time>2016-09-14T13:44:54Z</time></trkpt>
<trkpt lat="46.47396" lon="6.80802"><ele>514.8</ele><time>2016-09-14T13:44:56Z</time></trkpt>
<trkpt lat="46.47396" lon="6.80807"><ele>515.6</ele><time>2016-09-14T13:44:58Z</time></trkpt>
<trkpt lat="46.47396" lon="6.80814"><ele>516.8</ele><time>2016-09-14T13:45:01Z</time></trkpt>
<trkpt lat="46.47392" lon="6.80838"><ele>516.6</ele><time>2016-09-14T13:45:07Z</time></trkpt>
<trkpt lat="46.47388" lon="6.80867"><ele>514</ele><time>2016-09-14T13:45:10Z</time></trkpt>
<trkpt lat="46.47384" lon="6.80904"><ele>512</ele><time>2016-09-14T13:45:13Z</time></trkpt>
<trkpt lat="46.47384" lon="6.80917"><ele>511.4</ele><time>2016-09-14T13:45:14Z</time></trkpt>
<trkpt lat="46.47387" lon="6.80954"><ele>511</ele><time>2016-09-14T13:45:17Z</time></trkpt>
<trkpt lat="46.47388" lon="6.80978"><ele>511.2</ele><time>2016-09-14T13:45:19Z</time></trkpt>
<trkpt lat="46.47389" lon="6.80989"><ele>511.4</ele><time>2016-09-14T13:45:20Z</time></trkpt>
<trkpt lat="46.47389" lon="6.80999"><ele>511.8</ele><time>2016-09-14T13:45:21Z</time></trkpt>
<trkpt lat="46.4739" lon="6.8101"><ele>511.6</ele><time>2016-09-14T13:45:22Z</time></trkpt>
<trkpt lat="46.47393" lon="6.81041"><ele>511</ele><time>2016-09-14T13:45:25Z</time></trkpt>
<trkpt lat="46.47395" lon="6.81073"><ele>511.4</ele><time>2016-09-14T13:45:28Z</time></trkpt>
<trkpt lat="46.47397" lon="6.81102"><ele>511.8</ele><time>2016-09-14T13:45:31Z</time></trkpt>
<trkpt lat="46.47396" lon="6.81111"><ele>512</ele><time>2016-09-14T13:45:32Z</time></trkpt>
<trkpt lat="46.47391" lon="6.81138"><ele>511.8</ele><time>2016-09-14T13:45:35Z</time></trkpt>
<trkpt lat="46.47388" lon="6.81147"><ele>511.4</ele><time>2016-09-14T13:45:36Z</time></trkpt>
<trkpt lat="46.47383" lon="6.81167"><ele>509.8</ele><time>2016-09-14T13:45:38Z</time></trkpt>
<trkpt lat="46.47379" lon="6.81205"><ele>508</ele><time>2016-09-14T13:45:41Z</time></trkpt>
<trkpt lat="46.47379" lon="6.81241"><ele>509</ele><time>2016-09-14T13:45:44Z</time></trkpt>
<trkpt lat="46.47379" lon="6.81272"><ele>510</ele><time>2016-09-14T13:45:47Z</time></trkpt>
<trkpt lat="46.4738" lon="6.8129"><ele>510.4</ele><time>2016-09-14T13:45:49Z</time></trkpt>
<trkpt lat="46.47385" lon="6.81315"><ele>510.6</ele><time>2016-09-14T13:45:52Z</time></trkpt>
<trkpt lat="46.47393" lon="6.81346"><ele>510.8</ele><time>2016-09-14T13:45:56Z</time></trkpt>
<trkpt lat="46.47402" lon="6.81376"><ele>511.4</ele><time>2016-09-14T13:46:00Z</time></trkpt>
<trkpt lat="46.47409" lon="6.81403"><ele>512.6</ele><time>2016-09-14T13:46:04Z</time></trkpt>
<trkpt lat="46.47418" lon="6.81428"><ele>514.4</ele><time>2016-09-14T13:46:10Z</time></trkpt>
<trkpt lat="46.47427" lon="6.81456"><ele>515.8</ele><time>2016-09-14T13:46:18Z</time></trkpt>
<trkpt lat="46.47429" lon="6.81471"><ele>515.4</ele><time>2016-09-14T13:46:21Z</time></trkpt>
<trkpt lat="46.4743" lon="6.81502"><ele>514</ele><time>2016-09-14T13:46:25Z</time></trkpt>
<trkpt lat="46.47434" lon="6.81522"><ele>513.4</ele><time>2016-09-14T13:46:27Z</time></trkpt>
<trkpt lat="46.47445" lon="6.81551"><ele>512.8</ele><time>2016-09-14T13:46:30Z</time></trkpt>
<trkpt lat="46.47448" lon="6.81561"><ele>512.6</ele><time>2016-09-14T13:46:31Z</time></trkpt>
<trkpt lat="46.47452" lon="6.81596"><ele>511.8</ele><time>2016-09-14T13:46:34Z</time></trkpt>
<trkpt lat="46.47445" lon="6.81631"><ele>511.2</ele><time>2016-09-14T13:46:37Z</time></trkpt>
<trkpt lat="46.47438" lon="6.81667"><ele>510.4</ele><time>2016-09-14T13:46:40Z</time></trkpt>
<trkpt lat="46.4744" lon="6.81706"><ele>509</ele><time>2016-09-14T13:46:43Z</time></trkpt>
<trkpt lat="46.47442" lon="6.81734"><ele>507.6</ele><time>2016-09-14T13:46:45Z</time></trkpt>
<trkpt lat="46.47444" lon="6.81764"><ele>506.6</ele><time>2016-09-14T13:46:47Z</time></trkpt>
<trkpt lat="46.47446" lon="6.81794"><ele>506.2</ele><time>2016-09-14T13:46:49Z</time></trkpt>
<trkpt lat="46.47447" lon="6.81823"><ele>506.6</ele><time>2016-09-14T13:46:51Z</time></trkpt>
<trkpt lat="46.47448" lon="6.81849"><ele>507.2</ele><time>2016-09-14T13:46:53Z</time></trkpt>
<trkpt lat="46.47448" lon="6.81884"><ele>508</ele><time>2016-09-14T13:46:56Z</time></trkpt>
<trkpt lat="46.47445" lon="6.81904"><ele>508.4</ele><time>2016-09-14T13:46:58Z</time></trkpt>
<trkpt lat="46.47447" lon="6.81933"><ele>510</ele><time>2016-09-14T13:47:02Z</time></trkpt>
<trkpt lat="46.4745" lon="6.81938"><ele>510.4</ele><time>2016-09-14T13:47:03Z</time></trkpt>
<trkpt lat="46.47452" lon="6.81942"><ele>510.6</ele><time>2016-09-14T13:47:04Z</time></trkpt>
<trkpt lat="46.47461" lon="6.81967"><ele>513</ele><time>2016-09-14T13:47:10Z</time></trkpt>
<trkpt lat="46.47465" lon="6.8198"><ele>514.8</ele><time>2016-09-14T13:47:15Z</time></trkpt>
<trkpt lat="46.47476" lon="6.81982"><ele>517</ele><time>2016-09-14T13:47:21Z</time></trkpt>
<trkpt lat="46.47477" lon="6.81985"><ele>518.4</ele><time>2016-09-14T13:47:25Z</time></trkpt>
<trkpt lat="46.47482" lon="6.81989"><ele>520.8</ele><time>2016-09-14T13:47:33Z</time></trkpt>
<trkpt lat="46.47484" lon="6.81992"><ele>521.6</ele><time>2016-09-14T13:47:35Z</time></trkpt>
<trkpt lat="46.47485" lon="6.82"><ele>522.6</ele><time>2016-09-14T13:47:39Z</time></trkpt>
<trkpt lat="46.47486" lon="6.82005"><ele>523.2</ele><time>2016-09-14T13:47:42Z</time></trkpt>
<trkpt lat="46.47485" lon="6.82008"><ele>523.4</ele><time>2016-09-14T13:47:44Z</time></trkpt>
<trkpt lat="46.47485" lon="6.82012"><ele>523.8</ele><time>2016-09-14T13:47:46Z</time></trkpt>
<trkpt lat="46.47485" lon="6.82014"><ele>524</ele><time>2016-09-14T13:47:47Z</time></trkpt>
<trkpt lat="46.47483" lon="6.82019"><ele>524.6</ele><time>2016-09-14T13:47:50Z</time></trkpt>
<trkpt lat="46.4748" lon="6.82026"><ele>526.2</ele><time>2016-09-14T13:47:55Z</time></trkpt>
<trkpt lat="46.47479" lon="6.82028"><ele>526.4</ele><time>2016-09-14T13:47:56Z</time></trkpt>
<trkpt lat="46.47477" lon="6.82036"><ele>527.4</ele><time>2016-09-14T13:48:01Z</time></trkpt>
<trkpt lat="46.47476" lon="6.82038"><ele>527.4</ele><time>2016-09-14T13:48:02Z</time></trkpt>
<trkpt lat="46.47475" lon="6.82047"><ele>527.8</ele><time>2016-09-14T13:48:07Z</time></trkpt>
<trkpt lat="46.47475" lon="6.82061"><ele>527.8</ele><time>2016-09-14T13:48:15Z</time></trkpt>
<trkpt lat="46.47476" lon="6.82069"><ele>528</ele><time>2016-09-14T13:48:20Z</time></trkpt>
<trkpt lat="46.47481" lon="6.82078"><ele>528.2</ele><time>2016-09-14T13:48:26Z</time></trkpt>
<trkpt lat="46.47483" lon="6.82082"><ele>528.4</ele><time>2016-09-14T13:48:29Z</time></trkpt>
<trkpt lat="46.47485" lon="6.82085"><ele>528.6</ele><time>2016-09-14T13:48:32Z</time></trkpt>
<trkpt lat="46.47487" lon="6.82091"><ele>529</ele><time>2016-09-14T13:48:36Z</time></trkpt>
<trkpt lat="46.47488" lon="6.82092"><ele>529</ele><time>2016-09-14T13:48:37Z</time></trkpt>
<trkpt lat="46.47492" lon="6.821"><ele>530</ele><time>2016-09-14T13:48:43Z</time></trkpt>
<trkpt lat="46.47498" lon="6.82111"><ele>531.6</ele><time>2016-09-14T13:48:52Z</time></trkpt>
<trkpt lat="46.47505" lon="6.82124"><ele>533.6</ele><time>2016-09-14T13:49:02Z</time></trkpt>
<trkpt lat="46.4751" lon="6.82136"><ele>535.6</ele><time>2016-09-14T13:49:11Z</time></trkpt>
<trkpt lat="46.47511" lon="6.82139"><ele>536.2</ele><time>2016-09-14T13:49:13Z</time></trkpt>
<trkpt lat="46.4752" lon="6.82158"><ele>540.2</ele><time>2016-09-14T13:49:27Z</time></trkpt>
<trkpt lat="46.47524" lon="6.82178"><ele>542.8</ele><time>2016-09-14T13:49:39Z</time></trkpt>
<trkpt lat="46.47524" lon="6.82212"><ele>546</ele><time>2016-09-14T13:49:53Z</time></trkpt>
<trkpt lat="46.47526" lon="6.82239"><ele>548.8</ele><time>2016-09-14T13:50:04Z</time></trkpt>
<trkpt lat="46.4753" lon="6.82264"><ele>552</ele><time>2016-09-14T13:50:15Z</time></trkpt>
<trkpt lat="46.4754" lon="6.82288"><ele>555.2</ele><time>2016-09-14T13:50:27Z</time></trkpt>
<trkpt lat="46.47557" lon="6.82298"><ele>558.2</ele><time>2016-09-14T13:50:39Z</time></trkpt>
<trkpt lat="46.47576" lon="6.82307"><ele>562.4</ele><time>2016-09-14T13:50:50Z</time></trkpt>
<trkpt lat="46.47591" lon="6.82336"><ele>564.8</ele><time>2016-09-14T13:51:04Z</time></trkpt>
<trkpt lat="46.47598" lon="6.8236"><ele>566.6</ele><time>2016-09-14T13:51:14Z</time></trkpt>
<trkpt lat="46.47586" lon="6.82372"><ele>568.8</ele><time>2016-09-14T13:51:25Z</time></trkpt>
<trkpt lat="46.4757" lon="6.82371"><ele>570.2</ele><time>2016-09-14T13:51:34Z</time></trkpt>
<trkpt lat="46.47567" lon="6.82375"><ele>570.2</ele><time>2016-09-14T13:51:37Z</time></trkpt>
<trkpt lat="46.47566" lon="6.82376"><ele>570.2</ele><time>2016-09-14T13:51:41Z</time></trkpt>
<trkpt lat="46.47566" lon="6.82376"><ele>570.4</ele><time>2016-09-14T13:52:01Z</time></trkpt>
<trkpt lat="46.47565" lon="6.82375"><ele>569.8</ele><time>2016-09-14T13:52:15Z</time></trkpt>
<trkpt lat="46.47565" lon="6.82376"><ele>569.4</ele><time>2016-09-14T13:52:23Z</time></trkpt>
<trkpt lat="46.47565" lon="6.82376"><ele>569.2</ele><time>2016-09-14T13:52:25Z</time></trkpt>
<trkpt lat="46.47565" lon="6.82376"><ele>569.2</ele><time>2016-09-14T13:52:26Z</time></trkpt>
<trkpt lat="46.47565" lon="6.82376"><ele>569.2</ele><time>2016-09-14T13:52:28Z</time></trkpt>
<trkpt lat="46.47566" lon="6.82376"><ele>569.2</ele><time>2016-09-14T13:52:32Z</time></trkpt>
<trkpt lat="46.47566" lon="6.82376"><ele>569.2</ele><time>2016-09-14T13:52:41Z</time></trkpt>
<trkpt lat="46.47566" lon="6.82376"><ele>569.2</ele><time>2016-09-14T13:52:44Z</time></trkpt>
<trkpt lat="46.47566" lon="6.82375"><ele>569</ele><time>2016-09-14T13:52:57Z</time></trkpt>
<trkpt lat="46.47566" lon="6.82375"><ele>568.6</ele><time>2016-09-14T13:53:06Z</time></trkpt>
<trkpt lat="46.47566" lon="6.82375"><ele>567.6</ele><time>2016-09-14T13:53:39Z</time></trkpt>
<trkpt lat="46.47566" lon="6.82375"><ele>567.4</ele><time>2016-09-14T13:53:46Z</time></trkpt>
<trkpt lat="46.47566" lon="6.82375"><ele>567.4</ele><time>2016-09-14T13:53:48Z</time></trkpt>
<trkpt lat="46.47568" lon="6.82374"><ele>567</ele><time>2016-09-14T13:53:55Z</time></trkpt>
<trkpt lat="46.47586" lon="6.82368"><ele>567.4</ele><time>2016-09-14T13:54:08Z</time></trkpt>
<trkpt lat="46.47605" lon="6.82371"><ele>568.6</ele><time>2016-09-14T13:54:16Z</time></trkpt>
<trkpt lat="46.47608" lon="6.82374"><ele>568.8</ele><time>2016-09-14T13:54:18Z</time></trkpt>
<trkpt lat="46.47609" lon="6.82377"><ele>568.6</ele><time>2016-09-14T13:54:19Z</time></trkpt>
<trkpt lat="46.47611" lon="6.82384"><ele>568.4</ele><time>2016-09-14T13:54:21Z</time></trkpt>
<trkpt lat="46.47614" lon="6.82393"><ele>568.4</ele><time>2016-09-14T13:54:23Z</time></trkpt>
<trkpt lat="46.47621" lon="6.8242"><ele>570.8</ele><time>2016-09-14T13:54:33Z</time></trkpt>
<trkpt lat="46.47622" lon="6.82426"><ele>571.4</ele><time>2016-09-14T13:54:36Z</time></trkpt>
<trkpt lat="46.47625" lon="6.82448"><ele>575</ele><time>2016-09-14T13:54:47Z</time></trkpt>
<trkpt lat="46.47625" lon="6.82457"><ele>577</ele><time>2016-09-14T13:54:52Z</time></trkpt>
<trkpt lat="46.47625" lon="6.82459"><ele>577.6</ele><time>2016-09-14T13:54:53Z</time></trkpt>
<trkpt lat="46.47626" lon="6.82467"><ele>579.2</ele><time>2016-09-14T13:54:57Z</time></trkpt>
<trkpt lat="46.47626" lon="6.82468"><ele>579.4</ele><time>2016-09-14T13:54:58Z</time></trkpt>
<trkpt lat="46.4763" lon="6.82481"><ele>582.2</ele><time>2016-09-14T13:55:05Z</time></trkpt>
<trkpt lat="46.47637" lon="6.82506"><ele>585.2</ele><time>2016-09-14T13:55:16Z</time></trkpt>
<trkpt lat="46.47642" lon="6.82531"><ele>587.6</ele><time>2016-09-14T13:55:24Z</time></trkpt>
<trkpt lat="46.47649" lon="6.82558"><ele>590.4</ele><time>2016-09-14T13:55:32Z</time></trkpt>
<trkpt lat="46.47652" lon="6.82587"><ele>589.8</ele><time>2016-09-14T13:55:40Z</time></trkpt>
<trkpt lat="46.47658" lon="6.82604"><ele>588.6</ele><time>2016-09-14T13:55:45Z</time></trkpt>
<trkpt lat="46.47665" lon="6.8263"><ele>585.6</ele><time>2016-09-14T13:55:52Z</time></trkpt>
<trkpt lat="46.47669" lon="6.8265"><ele>585.4</ele><time>2016-09-14T13:55:57Z</time></trkpt>
<trkpt lat="46.47673" lon="6.82666"><ele>584.4</ele><time>2016-09-14T13:56:04Z</time></trkpt>
<trkpt lat="46.47676" lon="6.82662"><ele>583.4</ele><time>2016-09-14T13:56:09Z</time></trkpt>
<trkpt lat="46.47679" lon="6.8264"><ele>584.8</ele><time>2016-09-14T13:56:23Z</time></trkpt>
<trkpt lat="46.47679" lon="6.82638"><ele>584.8</ele><time>2016-09-14T13:56:24Z</time></trkpt>
<trkpt lat="46.47676" lon="6.82619"><ele>587.6</ele><time>2016-09-14T13:56:35Z</time></trkpt>
<trkpt lat="46.47675" lon="6.8261"><ele>588</ele><time>2016-09-14T13:56:39Z</time></trkpt>
<trkpt lat="46.47675" lon="6.826"><ele>588.8</ele><time>2016-09-14T13:56:44Z</time></trkpt>
<trkpt lat="46.47677" lon="6.82581"><ele>589.8</ele><time>2016-09-14T13:56:53Z</time></trkpt>
<trkpt lat="46.47686" lon="6.82567"><ele>591.6</ele><time>2016-09-14T13:57:04Z</time></trkpt>
<trkpt lat="46.47692" lon="6.82558"><ele>593.6</ele><time>2016-09-14T13:57:13Z</time></trkpt>
<trkpt lat="46.47693" lon="6.82556"><ele>593.8</ele><time>2016-09-14T13:57:14Z</time></trkpt>
<trkpt lat="46.47696" lon="6.82546"><ele>594.6</ele><time>2016-09-14T13:57:21Z</time></trkpt>
<trkpt lat="46.47703" lon="6.82514"><ele>597.6</ele><time>2016-09-14T13:57:42Z</time></trkpt>
<trkpt lat="46.47704" lon="6.82503"><ele>599.2</ele><time>2016-09-14T13:57:49Z</time></trkpt>
<trkpt lat="46.47705" lon="6.82494"><ele>600.6</ele><time>2016-09-14T13:57:55Z</time></trkpt>
<trkpt lat="46.47708" lon="6.82488"><ele>601.6</ele><time>2016-09-14T13:58:00Z</time></trkpt>
<trkpt lat="46.47714" lon="6.82467"><ele>604.8</ele><time>2016-09-14T13:58:19Z</time></trkpt>
<trkpt lat="46.47717" lon="6.82458"><ele>606.8</ele><time>2016-09-14T13:58:28Z</time></trkpt>
<trkpt lat="46.47718" lon="6.82445"><ele>609</ele><time>2016-09-14T13:58:40Z</time></trkpt>
<trkpt lat="46.47723" lon="6.8242"><ele>613.6</ele><time>2016-09-14T13:59:07Z</time></trkpt>
<trkpt lat="46.47731" lon="6.82394"><ele>619</ele><time>2016-09-14T13:59:34Z</time></trkpt>
<trkpt lat="46.47735" lon="6.82394"><ele>619.6</ele><time>2016-09-14T13:59:38Z</time></trkpt>
<trkpt lat="46.47745" lon="6.82417"><ele>620.4</ele><time>2016-09-14T13:59:53Z</time></trkpt>
<trkpt lat="46.47748" lon="6.82421"><ele>620.4</ele><time>2016-09-14T13:59:57Z</time></trkpt>
<trkpt lat="46.47752" lon="6.82416"><ele>621</ele><time>2016-09-14T14:00:02Z</time></trkpt>
<trkpt lat="46.47758" lon="6.82399"><ele>623.4</ele><time>2016-09-14T14:00:16Z</time></trkpt>
<trkpt lat="46.47768" lon="6.82384"><ele>625.2</ele><time>2016-09-14T14:00:32Z</time></trkpt>
<trkpt lat="46.47785" lon="6.82373"><ele>627.2</ele><time>2016-09-14T14:00:50Z</time></trkpt>
<trkpt lat="46.47798" lon="6.82366"><ele>629.4</ele><time>2016-09-14T14:01:01Z</time></trkpt>
<trkpt lat="46.47802" lon="6.82341"><ele>632</ele><time>2016-09-14T14:01:13Z</time></trkpt>
<trkpt lat="46.478" lon="6.82315"><ele>634</ele><time>2016-09-14T14:01:23Z</time></trkpt>
<trkpt lat="46.47798" lon="6.82275"><ele>637</ele><time>2016-09-14T14:01:37Z</time></trkpt>
<trkpt lat="46.478" lon="6.82247"><ele>638</ele><time>2016-09-14T14:01:46Z</time></trkpt>
<trkpt lat="46.47804" lon="6.82224"><ele>639.4</ele><time>2016-09-14T14:01:54Z</time></trkpt>
<trkpt lat="46.47806" lon="6.82198"><ele>641.6</ele><time>2016-09-14T14:02:05Z</time></trkpt>
<trkpt lat="46.47809" lon="6.82183"><ele>643.8</ele><time>2016-09-14T14:02:13Z</time></trkpt>
<trkpt lat="46.47808" lon="6.82177"><ele>644.6</ele><time>2016-09-14T14:02:17Z</time></trkpt>
<trkpt lat="46.47809" lon="6.82174"><ele>645.2</ele><time>2016-09-14T14:02:20Z</time></trkpt>
<trkpt lat="46.47809" lon="6.82169"><ele>646</ele><time>2016-09-14T14:02:24Z</time></trkpt>
<trkpt lat="46.4781" lon="6.82167"><ele>646.4</ele><time>2016-09-14T14:02:26Z</time></trkpt>
<trkpt lat="46.4781" lon="6.82164"><ele>647</ele><time>2016-09-14T14:02:28Z</time></trkpt>
<trkpt lat="46.4781" lon="6.8216"><ele>647.4</ele><time>2016-09-14T14:02:31Z</time></trkpt>
<trkpt lat="46.4781" lon="6.82154"><ele>648.2</ele><time>2016-09-14T14:02:36Z</time></trkpt>
<trkpt lat="46.47813" lon="6.82142"><ele>649.4</ele><time>2016-09-14T14:02:46Z</time></trkpt>
<trkpt lat="46.47811" lon="6.82127"><ele>650.8</ele><time>2016-09-14T14:02:57Z</time></trkpt>
<trkpt lat="46.4781" lon="6.82121"><ele>651.4</ele><time>2016-09-14T14:03:02Z</time></trkpt>
<trkpt lat="46.4781" lon="6.82119"><ele>651.8</ele><time>2016-09-14T14:03:03Z</time></trkpt>
<trkpt lat="46.47809" lon="6.82094"><ele>655.6</ele><time>2016-09-14T14:03:24Z</time></trkpt>
<trkpt lat="46.47808" lon="6.82092"><ele>655.8</ele><time>2016-09-14T14:03:26Z</time></trkpt>
<trkpt lat="46.47805" lon="6.82072"><ele>658.6</ele><time>2016-09-14T14:03:42Z</time></trkpt>
<trkpt lat="46.47804" lon="6.82069"><ele>659</ele><time>2016-09-14T14:03:45Z</time></trkpt>
<trkpt lat="46.47805" lon="6.82056"><ele>660.8</ele><time>2016-09-14T14:03:56Z</time></trkpt>
<trkpt lat="46.47804" lon="6.82052"><ele>661.6</ele><time>2016-09-14T14:03:59Z</time></trkpt>
<trkpt lat="46.47805" lon="6.82046"><ele>662.8</ele><time>2016-09-14T14:04:04Z</time></trkpt>
<trkpt lat="46.47811" lon="6.82034"><ele>665.4</ele><time>2016-09-14T14:04:17Z</time></trkpt>
<trkpt lat="46.47812" lon="6.82016"><ele>668</ele><time>2016-09-14T14:04:30Z</time></trkpt>
<trkpt lat="46.47815" lon="6.82001"><ele>669.6</ele><time>2016-09-14T14:04:41Z</time></trkpt>
<trkpt lat="46.47816" lon="6.81989"><ele>671.6</ele><time>2016-09-14T14:04:50Z</time></trkpt>
<trkpt lat="46.47816" lon="6.81976"><ele>674</ele><time>2016-09-14T14:04:59Z</time></trkpt>
<trkpt lat="46.47816" lon="6.81947"><ele>678.6</ele><time>2016-09-14T14:05:20Z</time></trkpt>
<trkpt lat="46.47813" lon="6.81937"><ele>680.4</ele><time>2016-09-14T14:05:28Z</time></trkpt>
<trkpt lat="46.47815" lon="6.81933"><ele>681.2</ele><time>2016-09-14T14:05:32Z</time></trkpt>
<trkpt lat="46.47816" lon="6.81927"><ele>682.2</ele><time>2016-09-14T14:05:36Z</time></trkpt>
<trkpt lat="46.47818" lon="6.81919"><ele>683.2</ele><time>2016-09-14T14:05:42Z</time></trkpt>
<trkpt lat="46.47819" lon="6.81908"><ele>685</ele><time>2016-09-14T14:05:50Z</time></trkpt>
<trkpt lat="46.47821" lon="6.81899"><ele>685.8</ele><time>2016-09-14T14:05:57Z</time></trkpt>
<trkpt lat="46.47825" lon="6.81893"><ele>686.6</ele><time>2016-09-14T14:06:03Z</time></trkpt>
<trkpt lat="46.47826" lon="6.81887"><ele>687</ele><time>2016-09-14T14:06:08Z</time></trkpt>
<trkpt lat="46.47828" lon="6.81882"><ele>688</ele><time>2016-09-14T14:06:13Z</time></trkpt>
<trkpt lat="46.47838" lon="6.81862"><ele>692.8</ele><time>2016-09-14T14:06:38Z</time></trkpt>
<trkpt lat="46.47848" lon="6.81841"><ele>698.4</ele><time>2016-09-14T14:07:06Z</time></trkpt>
<trkpt lat="46.47847" lon="6.81815"><ele>703</ele><time>2016-09-14T14:07:31Z</time></trkpt>
<trkpt lat="46.47851" lon="6.81789"><ele>707.4</ele><time>2016-09-14T14:07:53Z</time></trkpt>
<trkpt lat="46.47853" lon="6.81775"><ele>709.2</ele><time>2016-09-14T14:08:02Z</time></trkpt>
<trkpt lat="46.47855" lon="6.81766"><ele>710.6</ele><time>2016-09-14T14:08:08Z</time></trkpt>
<trkpt lat="46.47851" lon="6.81741"><ele>713.4</ele><time>2016-09-14T14:08:19Z</time></trkpt>
<trkpt lat="46.47848" lon="6.81714"><ele>713.8</ele><time>2016-09-14T14:08:27Z</time></trkpt>
<trkpt lat="46.47848" lon="6.81691"><ele>714</ele><time>2016-09-14T14:08:33Z</time></trkpt>
<trkpt lat="46.4785" lon="6.81663"><ele>714.6</ele><time>2016-09-14T14:08:40Z</time></trkpt>
<trkpt lat="46.47861" lon="6.81646"><ele>717.4</ele><time>2016-09-14T14:08:51Z</time></trkpt>
<trkpt lat="46.47874" lon="6.81662"><ele>720</ele><time>2016-09-14T14:09:04Z</time></trkpt>
<trkpt lat="46.47881" lon="6.81687"><ele>722.6</ele><time>2016-09-14T14:09:17Z</time></trkpt>
<trkpt lat="46.47888" lon="6.81727"><ele>726.8</ele><time>2016-09-14T14:09:42Z</time></trkpt>
<trkpt lat="46.47889" lon="6.81734"><ele>727.6</ele><time>2016-09-14T14:09:46Z</time></trkpt>
<trkpt lat="46.4789" lon="6.81742"><ele>728.8</ele><time>2016-09-14T14:09:51Z</time></trkpt>
<trkpt lat="46.47896" lon="6.81766"><ele>732.2</ele><time>2016-09-14T14:10:08Z</time></trkpt>
<trkpt lat="46.47906" lon="6.81776"><ele>734</ele><time>2016-09-14T14:10:22Z</time></trkpt>
<trkpt lat="46.4791" lon="6.81769"><ele>735.2</ele><time>2016-09-14T14:10:28Z</time></trkpt>
<trkpt lat="46.47911" lon="6.81767"><ele>735.4</ele><time>2016-09-14T14:10:29Z</time></trkpt>
<trkpt lat="46.47914" lon="6.81757"><ele>736.6</ele><time>2016-09-14T14:10:35Z</time></trkpt>
<trkpt lat="46.47915" lon="6.81742"><ele>738</ele><time>2016-09-14T14:10:42Z</time></trkpt>
<trkpt lat="46.47916" lon="6.81705"><ele>740.6</ele><time>2016-09-14T14:10:57Z</time></trkpt>
<trkpt lat="46.4792" lon="6.81679"><ele>742.4</ele><time>2016-09-14T14:11:08Z</time></trkpt>
<trkpt lat="46.47929" lon="6.81653"><ele>744.2</ele><time>2016-09-14T14:11:18Z</time></trkpt>
<trkpt lat="46.47938" lon="6.81629"><ele>745.4</ele><time>2016-09-14T14:11:28Z</time></trkpt>
<trkpt lat="46.47949" lon="6.81608"><ele>747.4</ele><time>2016-09-14T14:11:39Z</time></trkpt>
<trkpt lat="46.47966" lon="6.81599"><ele>749.8</ele><time>2016-09-14T14:11:50Z</time></trkpt>
<trkpt lat="46.47974" lon="6.816"><ele>749.8</ele><time>2016-09-14T14:11:54Z</time></trkpt>
<trkpt lat="46.47998" lon="6.81615"><ele>748.8</ele><time>2016-09-14T14:12:04Z</time></trkpt>
<trkpt lat="46.48018" lon="6.81624"><ele>749</ele><time>2016-09-14T14:12:09Z</time></trkpt>
<trkpt lat="46.48038" lon="6.81627"><ele>749.6</ele><time>2016-09-14T14:12:14Z</time></trkpt>
<trkpt lat="46.48059" lon="6.81624"><ele>751</ele><time>2016-09-14T14:12:20Z</time></trkpt>
<trkpt lat="46.48071" lon="6.81626"><ele>752.4</ele><time>2016-09-14T14:12:24Z</time></trkpt>
<trkpt lat="46.48074" lon="6.81638"><ele>753.6</ele><time>2016-09-14T14:12:28Z</time></trkpt>
<trkpt lat="46.48076" lon="6.81667"><ele>755</ele><time>2016-09-14T14:12:37Z</time></trkpt>
<trkpt lat="46.48075" lon="6.81696"><ele>756</ele><time>2016-09-14T14:12:45Z</time></trkpt>
<trkpt lat="46.48072" lon="6.81726"><ele>756.4</ele><time>2016-09-14T14:12:53Z</time></trkpt>
<trkpt lat="46.48068" lon="6.81755"><ele>756.2</ele><time>2016-09-14T14:12:59Z</time></trkpt>
<trkpt lat="46.48064" lon="6.81783"><ele>755.8</ele><time>2016-09-14T14:13:04Z</time></trkpt>
<trkpt lat="46.48058" lon="6.81811"><ele>754.6</ele><time>2016-09-14T14:13:08Z</time></trkpt>
<trkpt lat="46.48056" lon="6.81819"><ele>754.8</ele><time>2016-09-14T14:13:09Z</time></trkpt>
<trkpt lat="46.48057" lon="6.81849"><ele>755.4</ele><time>2016-09-14T14:13:13Z</time></trkpt>
<trkpt lat="46.48074" lon="6.81864"><ele>756.2</ele><time>2016-09-14T14:13:18Z</time></trkpt>
<trkpt lat="46.48081" lon="6.81868"><ele>756.8</ele><time>2016-09-14T14:13:20Z</time></trkpt>
<trkpt lat="46.48099" lon="6.81879"><ele>757.8</ele><time>2016-09-14T14:13:25Z</time></trkpt>
<trkpt lat="46.48106" lon="6.81891"><ele>758.4</ele><time>2016-09-14T14:13:29Z</time></trkpt>
<trkpt lat="46.48109" lon="6.81904"><ele>758.2</ele><time>2016-09-14T14:13:35Z</time></trkpt>
<trkpt lat="46.48115" lon="6.8193"><ele>758</ele><time>2016-09-14T14:13:44Z</time></trkpt>
<trkpt lat="46.48123" lon="6.81955"><ele>757.2</ele><time>2016-09-14T14:13:52Z</time></trkpt>
<trkpt lat="46.48126" lon="6.81984"><ele>755</ele><time>2016-09-14T14:13:58Z</time></trkpt>
<trkpt lat="46.48127" lon="6.82015"><ele>755.2</ele><time>2016-09-14T14:14:03Z</time></trkpt>
<trkpt lat="46.48129" lon="6.82063"><ele>757.4</ele><time>2016-09-14T14:14:13Z</time></trkpt>
<trkpt lat="46.48125" lon="6.82089"><ele>758.4</ele><time>2016-09-14T14:14:19Z</time></trkpt>
<trkpt lat="46.48122" lon="6.82114"><ele>758.2</ele><time>2016-09-14T14:14:24Z</time></trkpt>
<trkpt lat="46.48123" lon="6.82134"><ele>757.2</ele><time>2016-09-14T14:14:28Z</time></trkpt>
<trkpt lat="46.48128" lon="6.82162"><ele>755</ele><time>2016-09-14T14:14:33Z</time></trkpt>
<trkpt lat="46.48132" lon="6.82189"><ele>755.4</ele><time>2016-09-14T14:14:38Z</time></trkpt>
<trkpt lat="46.48135" lon="6.82216"><ele>758</ele><time>2016-09-14T14:14:44Z</time></trkpt>
<trkpt lat="46.48133" lon="6.82243"><ele>761.2</ele><time>2016-09-14T14:14:52Z</time></trkpt>
<trkpt lat="46.48132" lon="6.8226"><ele>763.6</ele><time>2016-09-14T14:14:58Z</time></trkpt>
<trkpt lat="46.48132" lon="6.82263"><ele>764.4</ele><time>2016-09-14T14:14:59Z</time></trkpt>
<trkpt lat="46.4813" lon="6.82281"><ele>765.4</ele><time>2016-09-14T14:15:04Z</time></trkpt>
<trkpt lat="46.48127" lon="6.823"><ele>766.4</ele><time>2016-09-14T14:15:09Z</time></trkpt>
<trkpt lat="46.48128" lon="6.82328"><ele>769.2</ele><time>2016-09-14T14:15:17Z</time></trkpt>
<trkpt lat="46.48133" lon="6.82353"><ele>772</ele><time>2016-09-14T14:15:25Z</time></trkpt>
<trkpt lat="46.48138" lon="6.82379"><ele>773.6</ele><time>2016-09-14T14:15:34Z</time></trkpt>
<trkpt lat="46.4814" lon="6.82406"><ele>776.8</ele><time>2016-09-14T14:15:46Z</time></trkpt>
<trkpt lat="46.48141" lon="6.82429"><ele>779</ele><time>2016-09-14T14:15:57Z</time></trkpt>
<trkpt lat="46.4814" lon="6.82437"><ele>780.4</ele><time>2016-09-14T14:16:01Z</time></trkpt>
<trkpt lat="46.48138" lon="6.82448"><ele>783.4</ele><time>2016-09-14T14:16:08Z</time></trkpt>
<trkpt lat="46.4814" lon="6.82456"><ele>784.6</ele><time>2016-09-14T14:16:13Z</time></trkpt>
<trkpt lat="46.48147" lon="6.82471"><ele>786.8</ele><time>2016-09-14T14:16:27Z</time></trkpt>
<trkpt lat="46.48149" lon="6.82476"><ele>787.8</ele><time>2016-09-14T14:16:32Z</time></trkpt>
<trkpt lat="46.48149" lon="6.82476"><ele>788.2</ele><time>2016-09-14T14:16:33Z</time></trkpt>
<trkpt lat="46.48156" lon="6.82491"><ele>792.2</ele><time>2016-09-14T14:16:48Z</time></trkpt>
<trkpt lat="46.48166" lon="6.82509"><ele>795.2</ele><time>2016-09-14T14:17:07Z</time></trkpt>
<trkpt lat="46.48172" lon="6.8252"><ele>798</ele><time>2016-09-14T14:17:18Z</time></trkpt>
<trkpt lat="46.48179" lon="6.82536"><ele>800.6</ele><time>2016-09-14T14:17:32Z</time></trkpt>
<trkpt lat="46.48182" lon="6.82544"><ele>802</ele><time>2016-09-14T14:17:39Z</time></trkpt>
<trkpt lat="46.48183" lon="6.8255"><ele>802.8</ele><time>2016-09-14T14:17:44Z</time></trkpt>
<trkpt lat="46.48185" lon="6.82556"><ele>803.6</ele><time>2016-09-14T14:17:48Z</time></trkpt>
<trkpt lat="46.48186" lon="6.82561"><ele>804.8</ele><time>2016-09-14T14:17:52Z</time></trkpt>
<trkpt lat="46.48187" lon="6.82573"><ele>806.6</ele><time>2016-09-14T14:17:59Z</time></trkpt>
<trkpt lat="46.48189" lon="6.82601"><ele>809.6</ele><time>2016-09-14T14:18:11Z</time></trkpt>
<trkpt lat="46.48192" lon="6.82627"><ele>810.2</ele><time>2016-09-14T14:18:20Z</time></trkpt>
<trkpt lat="46.48192" lon="6.82654"><ele>810.6</ele><time>2016-09-14T14:18:29Z</time></trkpt>
<trkpt lat="46.48192" lon="6.82683"><ele>811.2</ele><time>2016-09-14T14:18:38Z</time></trkpt>
<trkpt lat="46.48192" lon="6.82706"><ele>811.8</ele><time>2016-09-14T14:18:45Z</time></trkpt>
<trkpt lat="46.48193" lon="6.82718"><ele>812.6</ele><time>2016-09-14T14:18:49Z</time></trkpt>
<trkpt lat="46.48197" lon="6.82751"><ele>815.6</ele><time>2016-09-14T14:19:05Z</time></trkpt>
<trkpt lat="46.48204" lon="6.82776"><ele>818.8</ele><time>2016-09-14T14:19:18Z</time></trkpt>
<trkpt lat="46.4821" lon="6.8279"><ele>820.6</ele><time>2016-09-14T14:19:26Z</time></trkpt>
<trkpt lat="46.48212" lon="6.82817"><ele>824</ele><time>2016-09-14T14:19:39Z</time></trkpt>
<trkpt lat="46.48213" lon="6.82824"><ele>825.2</ele><time>2016-09-14T14:19:43Z</time></trkpt>
<trkpt lat="46.48216" lon="6.82835"><ele>826.2</ele><time>2016-09-14T14:19:53Z</time></trkpt>
<trkpt lat="46.48221" lon="6.82826"><ele>826.4</ele><time>2016-09-14T14:19:59Z</time></trkpt>
<trkpt lat="46.48222" lon="6.82799"><ele>827</ele><time>2016-09-14T14:20:08Z</time></trkpt>
<trkpt lat="46.48224" lon="6.82781"><ele>827.6</ele><time>2016-09-14T14:20:15Z</time></trkpt>
<trkpt lat="46.48223" lon="6.82752"><ele>828.2</ele><time>2016-09-14T14:20:27Z</time></trkpt>
<trkpt lat="46.48226" lon="6.82723"><ele>827.8</ele><time>2016-09-14T14:20:39Z</time></trkpt>
<trkpt lat="46.48235" lon="6.82692"><ele>828</ele><time>2016-09-14T14:20:44Z</time></trkpt>
<trkpt lat="46.48244" lon="6.82658"><ele>828.4</ele><time>2016-09-14T14:20:48Z</time></trkpt>
<trkpt lat="46.4825" lon="6.82631"><ele>828.8</ele><time>2016-09-14T14:20:51Z</time></trkpt>
<trkpt lat="46.48258" lon="6.82604"><ele>829.2</ele><time>2016-09-14T14:20:54Z</time></trkpt>
<trkpt lat="46.48266" lon="6.82578"><ele>829.6</ele><time>2016-09-14T14:20:57Z</time></trkpt>
<trkpt lat="46.48269" lon="6.82569"><ele>829.6</ele><time>2016-09-14T14:20:58Z</time></trkpt>
<trkpt lat="46.48276" lon="6.82543"><ele>830</ele><time>2016-09-14T14:21:01Z</time></trkpt>
<trkpt lat="46.48284" lon="6.82511"><ele>830.6</ele><time>2016-09-14T14:21:05Z</time></trkpt>
<trkpt lat="46.4829" lon="6.82486"><ele>831.4</ele><time>2016-09-14T14:21:09Z</time></trkpt>
<trkpt lat="46.48291" lon="6.82477"><ele>831.6</ele><time>2016-09-14T14:21:11Z</time></trkpt>
<trkpt lat="46.48297" lon="6.82457"><ele>832.2</ele><time>2016-09-14T14:21:16Z</time></trkpt>
<trkpt lat="46.48306" lon="6.82432"><ele>833.2</ele><time>2016-09-14T14:21:21Z</time></trkpt>
<trkpt lat="46.48317" lon="6.82404"><ele>832.8</ele><time>2016-09-14T14:21:26Z</time></trkpt>
<trkpt lat="46.48329" lon="6.8238"><ele>832.6</ele><time>2016-09-14T14:21:31Z</time></trkpt>
<trkpt lat="46.48338" lon="6.82358"><ele>832.8</ele><time>2016-09-14T14:21:36Z</time></trkpt>
<trkpt lat="46.48348" lon="6.82324"><ele>834.2</ele><time>2016-09-14T14:21:44Z</time></trkpt>
<trkpt lat="46.48356" lon="6.82299"><ele>836.2</ele><time>2016-09-14T14:21:51Z</time></trkpt>
<trkpt lat="46.48355" lon="6.82279"><ele>837</ele><time>2016-09-14T14:21:56Z</time></trkpt>
<trkpt lat="46.48363" lon="6.82253"><ele>838.8</ele><time>2016-09-14T14:22:04Z</time></trkpt>
<trkpt lat="46.48367" lon="6.82225"><ele>840.2</ele><time>2016-09-14T14:22:12Z</time></trkpt>
<trkpt lat="46.48371" lon="6.82198"><ele>841.8</ele><time>2016-09-14T14:22:20Z</time></trkpt>
<trkpt lat="46.48378" lon="6.82171"><ele>843.2</ele><time>2016-09-14T14:22:28Z</time></trkpt>
<trkpt lat="46.48384" lon="6.82145"><ele>843.8</ele><time>2016-09-14T14:22:36Z</time></trkpt>
<trkpt lat="46.48395" lon="6.82106"><ele>844.6</ele><time>2016-09-14T14:22:48Z</time></trkpt>
<trkpt lat="46.48399" lon="6.82093"><ele>844.8</ele><time>2016-09-14T14:22:52Z</time></trkpt>
<trkpt lat="46.48406" lon="6.82066"><ele>844.6</ele><time>2016-09-14T14:23:00Z</time></trkpt>
<trkpt lat="46.48413" lon="6.82044"><ele>844.4</ele><time>2016-09-14T14:23:07Z</time></trkpt>
<trkpt lat="46.48417" lon="6.82036"><ele>844.6</ele><time>2016-09-14T14:23:10Z</time></trkpt>
<trkpt lat="46.48427" lon="6.82038"><ele>845</ele><time>2016-09-14T14:23:15Z</time></trkpt>
<trkpt lat="46.48435" lon="6.82045"><ele>845.6</ele><time>2016-09-14T14:23:19Z</time></trkpt>
<trkpt lat="46.48452" lon="6.82059"><ele>847.8</ele><time>2016-09-14T14:23:28Z</time></trkpt>
<trkpt lat="46.48459" lon="6.82077"><ele>851</ele><time>2016-09-14T14:23:38Z</time></trkpt>
<trkpt lat="46.48462" lon="6.82098"><ele>854.2</ele><time>2016-09-14T14:23:50Z</time></trkpt>
<trkpt lat="46.48463" lon="6.82118"><ele>856.8</ele><time>2016-09-14T14:24:01Z</time></trkpt>
<trkpt lat="46.48463" lon="6.8213"><ele>858.2</ele><time>2016-09-14T14:24:08Z</time></trkpt>
<trkpt lat="46.48462" lon="6.82132"><ele>858.6</ele><time>2016-09-14T14:24:09Z</time></trkpt>
<trkpt lat="46.48461" lon="6.82159"><ele>861.4</ele><time>2016-09-14T14:24:23Z</time></trkpt>
<trkpt lat="46.48459" lon="6.82187"><ele>862.4</ele><time>2016-09-14T14:24:35Z</time></trkpt>
<trkpt lat="46.48457" lon="6.82215"><ele>864</ele><time>2016-09-14T14:24:47Z</time></trkpt>
<trkpt lat="46.48458" lon="6.82248"><ele>866.4</ele><time>2016-09-14T14:25:02Z</time></trkpt>
<trkpt lat="46.48465" lon="6.82273"><ele>867.8</ele><time>2016-09-14T14:25:13Z</time></trkpt>
<trkpt lat="46.48473" lon="6.82298"><ele>869.4</ele><time>2016-09-14T14:25:24Z</time></trkpt>
<trkpt lat="46.48478" lon="6.82323"><ele>871.8</ele><time>2016-09-14T14:25:35Z</time></trkpt>
<trkpt lat="46.48484" lon="6.8235"><ele>874.4</ele><time>2016-09-14T14:25:47Z</time></trkpt>
<trkpt lat="46.48489" lon="6.82376"><ele>877</ele><time>2016-09-14T14:25:59Z</time></trkpt>
<trkpt lat="46.48495" lon="6.82414"><ele>880.8</ele><time>2016-09-14T14:26:17Z</time></trkpt>
<trkpt lat="46.48498" lon="6.82434"><ele>883.2</ele><time>2016-09-14T14:26:27Z</time></trkpt>
<trkpt lat="46.48499" lon="6.82454"><ele>885.4</ele><time>2016-09-14T14:26:38Z</time></trkpt>
<trkpt lat="46.485" lon="6.82474"><ele>889</ele><time>2016-09-14T14:26:51Z</time></trkpt>
<trkpt lat="46.48501" lon="6.82479"><ele>890.2</ele><time>2016-09-14T14:26:54Z</time></trkpt>
<trkpt lat="46.48501" lon="6.82483"><ele>891</ele><time>2016-09-14T14:26:57Z</time></trkpt>
<trkpt lat="46.48517" lon="6.82481"><ele>893</ele><time>2016-09-14T14:27:11Z</time></trkpt>
<trkpt lat="46.48535" lon="6.82479"><ele>894.2</ele><time>2016-09-14T14:27:24Z</time></trkpt>
<trkpt lat="46.48547" lon="6.82477"><ele>893.6</ele><time>2016-09-14T14:27:31Z</time></trkpt>
<trkpt lat="46.48565" lon="6.82473"><ele>893.8</ele><time>2016-09-14T14:27:42Z</time></trkpt>
<trkpt lat="46.4858" lon="6.82466"><ele>894.8</ele><time>2016-09-14T14:27:52Z</time></trkpt>
<trkpt lat="46.48596" lon="6.82458"><ele>896</ele><time>2016-09-14T14:28:03Z</time></trkpt>
<trkpt lat="46.48613" lon="6.82448"><ele>897.4</ele><time>2016-09-14T14:28:14Z</time></trkpt>
<trkpt lat="46.48638" lon="6.82439"><ele>900.6</ele><time>2016-09-14T14:28:30Z</time></trkpt>
<trkpt lat="46.48657" lon="6.82431"><ele>904</ele><time>2016-09-14T14:28:44Z</time></trkpt>
<trkpt lat="46.48675" lon="6.8243"><ele>906.4</ele><time>2016-09-14T14:28:57Z</time></trkpt>
<trkpt lat="46.48694" lon="6.82427"><ele>908.8</ele><time>2016-09-14T14:29:10Z</time></trkpt>
<trkpt lat="46.48711" lon="6.82419"><ele>912</ele><time>2016-09-14T14:29:23Z</time></trkpt>
<trkpt lat="46.48728" lon="6.82408"><ele>914.2</ele><time>2016-09-14T14:29:36Z</time></trkpt>
<trkpt lat="46.48743" lon="6.82389"><ele>914.6</ele><time>2016-09-14T14:29:46Z</time></trkpt>
<trkpt lat="46.48755" lon="6.82364"><ele>914.6</ele><time>2016-09-14T14:29:53Z</time></trkpt>
<trkpt lat="46.48757" lon="6.8236"><ele>914.6</ele><time>2016-09-14T14:29:54Z</time></trkpt>
<trkpt lat="46.48767" lon="6.82336"><ele>914.2</ele><time>2016-09-14T14:30:00Z</time></trkpt>
<trkpt lat="46.48787" lon="6.82304"><ele>916.4</ele><time>2016-09-14T14:30:13Z</time></trkpt>
<trkpt lat="46.488" lon="6.82282"><ele>917.4</ele><time>2016-09-14T14:30:22Z</time></trkpt>
<trkpt lat="46.48811" lon="6.82261"><ele>919.2</ele><time>2016-09-14T14:30:31Z</time></trkpt>
<trkpt lat="46.48824" lon="6.82242"><ele>922.4</ele><time>2016-09-14T14:30:44Z</time></trkpt>
<trkpt lat="46.48835" lon="6.82227"><ele>926.4</ele><time>2016-09-14T14:30:56Z</time></trkpt>
<trkpt lat="46.48837" lon="6.82224"><ele>927</ele><time>2016-09-14T14:30:59Z</time></trkpt>
<trkpt lat="46.48839" lon="6.82222"><ele>927.4</ele><time>2016-09-14T14:31:01Z</time></trkpt>
<trkpt lat="46.48846" lon="6.82252"><ele>932.4</ele><time>2016-09-14T14:31:26Z</time></trkpt>
<trkpt lat="46.48846" lon="6.82254"><ele>933</ele><time>2016-09-14T14:31:28Z</time></trkpt>
<trkpt lat="46.48847" lon="6.82255"><ele>933.2</ele><time>2016-09-14T14:31:29Z</time></trkpt>
<trkpt lat="46.48848" lon="6.82258"><ele>934.2</ele><time>2016-09-14T14:31:33Z</time></trkpt>
<trkpt lat="46.48858" lon="6.82281"><ele>937.4</ele><time>2016-09-14T14:31:54Z</time></trkpt>
<trkpt lat="46.48859" lon="6.82284"><ele>938</ele><time>2016-09-14T14:31:57Z</time></trkpt>
<trkpt lat="46.48863" lon="6.82293"><ele>939.4</ele><time>2016-09-14T14:32:07Z</time></trkpt>
<trkpt lat="46.48861" lon="6.82299"><ele>939.6</ele><time>2016-09-14T14:32:11Z</time></trkpt>
<trkpt lat="46.48864" lon="6.823"><ele>940.2</ele><time>2016-09-14T14:32:16Z</time></trkpt>
<trkpt lat="46.48866" lon="6.82299"><ele>940.4</ele><time>2016-09-14T14:32:19Z</time></trkpt>
<trkpt lat="46.48866" lon="6.82298"><ele>940.2</ele><time>2016-09-14T14:32:27Z</time></trkpt>
<trkpt lat="46.48866" lon="6.82296"><ele>940.2</ele><time>2016-09-14T14:32:39Z</time></trkpt>
<trkpt lat="46.48867" lon="6.82297"><ele>940.2</ele><time>2016-09-14T14:32:42Z</time></trkpt>
<trkpt lat="46.48867" lon="6.82298"><ele>940.4</ele><time>2016-09-14T14:32:46Z</time></trkpt>
<trkpt lat="46.48867" lon="6.82299"><ele>940.4</ele><time>2016-09-14T14:32:49Z</time></trkpt>
<trkpt lat="46.48867" lon="6.823"><ele>940.4</ele><time>2016-09-14T14:32:52Z</time></trkpt>
<trkpt lat="46.48868" lon="6.82303"><ele>940.4</ele><time>2016-09-14T14:32:57Z</time></trkpt>
<trkpt lat="46.48868" lon="6.82304"><ele>940.4</ele><time>2016-09-14T14:33:00Z</time></trkpt>
<trkpt lat="46.48869" lon="6.82308"><ele>940.8</ele><time>2016-09-14T14:33:08Z</time></trkpt>
<trkpt lat="46.4887" lon="6.82309"><ele>942.4</ele><time>2016-09-14T14:33:31Z</time></trkpt>
<trkpt lat="46.48869" lon="6.82307"><ele>942.4</ele><time>2016-09-14T14:33:38Z</time></trkpt>
<trkpt lat="46.48866" lon="6.82301"><ele>941.6</ele><time>2016-09-14T14:34:07Z</time></trkpt>
<trkpt lat="46.48866" lon="6.82301"><ele>941.6</ele><time>2016-09-14T14:34:15Z</time></trkpt>
<trkpt lat="46.48866" lon="6.823"><ele>941.6</ele><time>2016-09-14T14:34:18Z</time></trkpt>
<trkpt lat="46.48865" lon="6.823"><ele>941.8</ele><time>2016-09-14T14:34:50Z</time></trkpt>
<trkpt lat="46.4887" lon="6.82295"><ele>940.8</ele><time>2016-09-14T14:35:20Z</time></trkpt>
<trkpt lat="46.48871" lon="6.82295"><ele>940.8</ele><time>2016-09-14T14:35:21Z</time></trkpt>
<trkpt lat="46.48891" lon="6.82293"><ele>940</ele><time>2016-09-14T14:35:28Z</time></trkpt>
<trkpt lat="46.48907" lon="6.82278"><ele>939</ele><time>2016-09-14T14:35:35Z</time></trkpt>
<trkpt lat="46.4892" lon="6.82258"><ele>940.6</ele><time>2016-09-14T14:35:44Z</time></trkpt>
<trkpt lat="46.48923" lon="6.82253"><ele>941</ele><time>2016-09-14T14:35:46Z</time></trkpt>
<trkpt lat="46.48933" lon="6.82235"><ele>943.6</ele><time>2016-09-14T14:35:53Z</time></trkpt>
<trkpt lat="46.4895" lon="6.8222"><ele>944.4</ele><time>2016-09-14T14:36:01Z</time></trkpt>
<trkpt lat="46.48958" lon="6.82215"><ele>945.4</ele><time>2016-09-14T14:36:06Z</time></trkpt>
<trkpt lat="46.48967" lon="6.82205"><ele>946.8</ele><time>2016-09-14T14:36:12Z</time></trkpt>
<trkpt lat="46.48982" lon="6.82187"><ele>947.2</ele><time>2016-09-14T14:36:19Z</time></trkpt>
<trkpt lat="46.4899" lon="6.82181"><ele>946.6</ele><time>2016-09-14T14:36:21Z</time></trkpt>
<trkpt lat="46.49007" lon="6.82168"><ele>946.4</ele><time>2016-09-14T14:36:24Z</time></trkpt>
<trkpt lat="46.49025" lon="6.82152"><ele>946</ele><time>2016-09-14T14:36:27Z</time></trkpt>
<trkpt lat="46.49039" lon="6.82133"><ele>946</ele><time>2016-09-14T14:36:30Z</time></trkpt>
<trkpt lat="46.49049" lon="6.8212"><ele>946</ele><time>2016-09-14T14:36:32Z</time></trkpt>
<trkpt lat="46.49063" lon="6.82097"><ele>945.4</ele><time>2016-09-14T14:36:37Z</time></trkpt>
<trkpt lat="46.49077" lon="6.82079"><ele>943</ele><time>2016-09-14T14:36:41Z</time></trkpt>
<trkpt lat="46.49094" lon="6.82054"><ele>939.8</ele><time>2016-09-14T14:36:45Z</time></trkpt>
<trkpt lat="46.4911" lon="6.82032"><ele>939.4</ele><time>2016-09-14T14:36:49Z</time></trkpt>
<trkpt lat="46.49114" lon="6.82024"><ele>940.6</ele><time>2016-09-14T14:36:50Z</time></trkpt>
<trkpt lat="46.49123" lon="6.81994"><ele>944.4</ele><time>2016-09-14T14:36:54Z</time></trkpt>
<trkpt lat="46.49133" lon="6.81966"><ele>947.2</ele><time>2016-09-14T14:36:59Z</time></trkpt>
<trkpt lat="46.49144" lon="6.81944"><ele>949.2</ele><time>2016-09-14T14:37:04Z</time></trkpt>
<trkpt lat="46.49158" lon="6.8192"><ele>950.6</ele><time>2016-09-14T14:37:10Z</time></trkpt>
<trkpt lat="46.49159" lon="6.81916"><ele>950.8</ele><time>2016-09-14T14:37:11Z</time></trkpt>
<trkpt lat="46.49167" lon="6.81895"><ele>951.2</ele><time>2016-09-14T14:37:16Z</time></trkpt>
<trkpt lat="46.49172" lon="6.81876"><ele>952</ele><time>2016-09-14T14:37:20Z</time></trkpt>
<trkpt lat="46.49178" lon="6.81848"><ele>952.2</ele><time>2016-09-14T14:37:25Z</time></trkpt>
<trkpt lat="46.49181" lon="6.8182"><ele>952.6</ele><time>2016-09-14T14:37:29Z</time></trkpt>
<trkpt lat="46.49187" lon="6.81794"><ele>952.8</ele><time>2016-09-14T14:37:33Z</time></trkpt>
<trkpt lat="46.49191" lon="6.81764"><ele>953.4</ele><time>2016-09-14T14:37:37Z</time></trkpt>
<trkpt lat="46.49199" lon="6.81735"><ele>953.6</ele><time>2016-09-14T14:37:41Z</time></trkpt>
<trkpt lat="46.49216" lon="6.81724"><ele>954.2</ele><time>2016-09-14T14:37:47Z</time></trkpt>
<trkpt lat="46.49222" lon="6.81725"><ele>954.2</ele><time>2016-09-14T14:37:53Z</time></trkpt>
<trkpt lat="46.49236" lon="6.81734"><ele>953.6</ele><time>2016-09-14T14:37:59Z</time></trkpt>
<trkpt lat="46.49245" lon="6.8174"><ele>953.6</ele><time>2016-09-14T14:38:03Z</time></trkpt>
<trkpt lat="46.49253" lon="6.81744"><ele>955</ele><time>2016-09-14T14:38:07Z</time></trkpt>
<trkpt lat="46.49271" lon="6.8175"><ele>958</ele><time>2016-09-14T14:38:15Z</time></trkpt>
<trkpt lat="46.49281" lon="6.81746"><ele>959.6</ele><time>2016-09-14T14:38:21Z</time></trkpt>
<trkpt lat="46.49284" lon="6.81737"><ele>959.4</ele><time>2016-09-14T14:38:24Z</time></trkpt>
<trkpt lat="46.49288" lon="6.8171"><ele>957.2</ele><time>2016-09-14T14:38:28Z</time></trkpt>
<trkpt lat="46.49292" lon="6.81679"><ele>956.8</ele><time>2016-09-14T14:38:32Z</time></trkpt>
<trkpt lat="46.49303" lon="6.81658"><ele>954.4</ele><time>2016-09-14T14:38:35Z</time></trkpt>
<trkpt lat="46.49306" lon="6.81649"><ele>953.8</ele><time>2016-09-14T14:38:36Z</time></trkpt>
<trkpt lat="46.4931" lon="6.81617"><ele>953.2</ele><time>2016-09-14T14:38:39Z</time></trkpt>
<trkpt lat="46.49308" lon="6.81596"><ele>952.6</ele><time>2016-09-14T14:38:41Z</time></trkpt>
<trkpt lat="46.49306" lon="6.81576"><ele>951.4</ele><time>2016-09-14T14:38:43Z</time></trkpt>
<trkpt lat="46.49306" lon="6.81546"><ele>950</ele><time>2016-09-14T14:38:47Z</time></trkpt>
<trkpt lat="46.4931" lon="6.81528"><ele>948</ele><time>2016-09-14T14:38:50Z</time></trkpt>
<trkpt lat="46.49318" lon="6.8151"><ele>945.4</ele><time>2016-09-14T14:38:53Z</time></trkpt>
<trkpt lat="46.49336" lon="6.81493"><ele>942.2</ele><time>2016-09-14T14:38:58Z</time></trkpt>
<trkpt lat="46.49342" lon="6.81488"><ele>941.2</ele><time>2016-09-14T14:39:00Z</time></trkpt>
<trkpt lat="46.49357" lon="6.81473"><ele>939</ele><time>2016-09-14T14:39:07Z</time></trkpt>
<trkpt lat="46.49359" lon="6.81471"><ele>938.8</ele><time>2016-09-14T14:39:09Z</time></trkpt>
<trkpt lat="46.49377" lon="6.81446"><ele>938</ele><time>2016-09-14T14:39:23Z</time></trkpt>
<trkpt lat="46.49384" lon="6.81433"><ele>937.6</ele><time>2016-09-14T14:39:26Z</time></trkpt>
<trkpt lat="46.49394" lon="6.81411"><ele>938</ele><time>2016-09-14T14:39:31Z</time></trkpt>
<trkpt lat="46.49399" lon="6.81383"><ele>938.2</ele><time>2016-09-14T14:39:38Z</time></trkpt>
<trkpt lat="46.49404" lon="6.81356"><ele>938</ele><time>2016-09-14T14:39:45Z</time></trkpt>
<trkpt lat="46.49405" lon="6.81331"><ele>935</ele><time>2016-09-14T14:39:51Z</time></trkpt>
<trkpt lat="46.49407" lon="6.81301"><ele>934.8</ele><time>2016-09-14T14:39:57Z</time></trkpt>
<trkpt lat="46.49406" lon="6.81274"><ele>936.2</ele><time>2016-09-14T14:40:05Z</time></trkpt>
<trkpt lat="46.49411" lon="6.81242"><ele>934.2</ele><time>2016-09-14T14:40:12Z</time></trkpt>
<trkpt lat="46.4942" lon="6.8121"><ele>932</ele><time>2016-09-14T14:40:16Z</time></trkpt>
<trkpt lat="46.4943" lon="6.81183"><ele>930.8</ele><time>2016-09-14T14:40:19Z</time></trkpt>
<trkpt lat="46.4944" lon="6.81156"><ele>930.4</ele><time>2016-09-14T14:40:22Z</time></trkpt>
<trkpt lat="46.4945" lon="6.81132"><ele>929.6</ele><time>2016-09-14T14:40:25Z</time></trkpt>
<trkpt lat="46.49461" lon="6.81109"><ele>929.4</ele><time>2016-09-14T14:40:28Z</time></trkpt>
<trkpt lat="46.49475" lon="6.81084"><ele>927.4</ele><time>2016-09-14T14:40:32Z</time></trkpt>
<trkpt lat="46.49492" lon="6.81066"><ele>924</ele><time>2016-09-14T14:40:35Z</time></trkpt>
<trkpt lat="46.49506" lon="6.81056"><ele>923</ele><time>2016-09-14T14:40:37Z</time></trkpt>
<trkpt lat="46.49524" lon="6.81048"><ele>924.2</ele><time>2016-09-14T14:40:40Z</time></trkpt>
<trkpt lat="46.49529" lon="6.81048"><ele>924.8</ele><time>2016-09-14T14:40:41Z</time></trkpt>
<trkpt lat="46.49544" lon="6.81046"><ele>926.6</ele><time>2016-09-14T14:40:48Z</time></trkpt>
<trkpt lat="46.49546" lon="6.81046"><ele>926.8</ele><time>2016-09-14T14:40:50Z</time></trkpt>
<trkpt lat="46.49554" lon="6.81045"><ele>927.8</ele><time>2016-09-14T14:40:55Z</time></trkpt>
<trkpt lat="46.49558" lon="6.81045"><ele>928</ele><time>2016-09-14T14:40:57Z</time></trkpt>
<trkpt lat="46.49563" lon="6.81045"><ele>928.4</ele><time>2016-09-14T14:41:00Z</time></trkpt>
<trkpt lat="46.49572" lon="6.81044"><ele>928.6</ele><time>2016-09-14T14:41:05Z</time></trkpt>
<trkpt lat="46.49576" lon="6.81042"><ele>929.2</ele><time>2016-09-14T14:41:08Z</time></trkpt>
<trkpt lat="46.4958" lon="6.81042"><ele>929.6</ele><time>2016-09-14T14:41:10Z</time></trkpt>
<trkpt lat="46.49587" lon="6.81039"><ele>931</ele><time>2016-09-14T14:41:15Z</time></trkpt>
<trkpt lat="46.49593" lon="6.81038"><ele>931.8</ele><time>2016-09-14T14:41:19Z</time></trkpt>
<trkpt lat="46.49598" lon="6.81036"><ele>932.6</ele><time>2016-09-14T14:41:22Z</time></trkpt>
<trkpt lat="46.49606" lon="6.81033"><ele>933.8</ele><time>2016-09-14T14:41:27Z</time></trkpt>
<trkpt lat="46.49612" lon="6.81031"><ele>934.6</ele><time>2016-09-14T14:41:31Z</time></trkpt>
<trkpt lat="46.49621" lon="6.81028"><ele>935.8</ele><time>2016-09-14T14:41:37Z</time></trkpt>
<trkpt lat="46.49629" lon="6.81025"><ele>937.4</ele><time>2016-09-14T14:41:43Z</time></trkpt>
<trkpt lat="46.49638" lon="6.8102"><ele>938.8</ele><time>2016-09-14T14:41:49Z</time></trkpt>
<trkpt lat="46.49652" lon="6.81016"><ele>941</ele><time>2016-09-14T14:41:58Z</time></trkpt>
<trkpt lat="46.49668" lon="6.81027"><ele>943.2</ele><time>2016-09-14T14:42:10Z</time></trkpt>
<trkpt lat="46.49677" lon="6.8105"><ele>946</ele><time>2016-09-14T14:42:22Z</time></trkpt>
<trkpt lat="46.49688" lon="6.81084"><ele>949.4</ele><time>2016-09-14T14:42:38Z</time></trkpt>
<trkpt lat="46.49693" lon="6.81109"><ele>952.4</ele><time>2016-09-14T14:42:50Z</time></trkpt>
<trkpt lat="46.49692" lon="6.81135"><ele>954.8</ele><time>2016-09-14T14:43:01Z</time></trkpt>
<trkpt lat="46.49675" lon="6.81147"><ele>956.4</ele><time>2016-09-14T14:43:11Z</time></trkpt>
<trkpt lat="46.49636" lon="6.81161"><ele>958.2</ele><time>2016-09-14T14:43:26Z</time></trkpt>
<trkpt lat="46.49618" lon="6.81176"><ele>957.8</ele><time>2016-09-14T14:43:32Z</time></trkpt>
<trkpt lat="46.49602" lon="6.81192"><ele>958.6</ele><time>2016-09-14T14:43:38Z</time></trkpt>
<trkpt lat="46.4959" lon="6.81212"><ele>959.8</ele><time>2016-09-14T14:43:44Z</time></trkpt>
<trkpt lat="46.49585" lon="6.81239"><ele>961.2</ele><time>2016-09-14T14:43:51Z</time></trkpt>
<trkpt lat="46.49582" lon="6.81266"><ele>963.4</ele><time>2016-09-14T14:44:01Z</time></trkpt>
<trkpt lat="46.49582" lon="6.81304"><ele>966.4</ele><time>2016-09-14T14:44:16Z</time></trkpt>
<trkpt lat="46.4958" lon="6.81331"><ele>969</ele><time>2016-09-14T14:44:27Z</time></trkpt>
<trkpt lat="46.49579" lon="6.81354"><ele>971.4</ele><time>2016-09-14T14:44:36Z</time></trkpt>
<trkpt lat="46.49573" lon="6.81379"><ele>973.4</ele><time>2016-09-14T14:44:46Z</time></trkpt>
<trkpt lat="46.49565" lon="6.81403"><ele>975.6</ele><time>2016-09-14T14:44:56Z</time></trkpt>
<trkpt lat="46.49557" lon="6.81429"><ele>978.2</ele><time>2016-09-14T14:45:07Z</time></trkpt>
<trkpt lat="46.49549" lon="6.81454"><ele>980.4</ele><time>2016-09-14T14:45:18Z</time></trkpt>
<trkpt lat="46.49543" lon="6.81477"><ele>982.6</ele><time>2016-09-14T14:45:28Z</time></trkpt>
<trkpt lat="46.49541" lon="6.81491"><ele>983.6</ele><time>2016-09-14T14:45:34Z</time></trkpt>
<trkpt lat="46.49538" lon="6.81524"><ele>985.8</ele><time>2016-09-14T14:45:50Z</time></trkpt>
<trkpt lat="46.49556" lon="6.81529"><ele>988.2</ele><time>2016-09-14T14:46:02Z</time></trkpt>
<trkpt lat="46.49575" lon="6.81528"><ele>990.2</ele><time>2016-09-14T14:46:13Z</time></trkpt>
<trkpt lat="46.49594" lon="6.81525"><ele>992.2</ele><time>2016-09-14T14:46:24Z</time></trkpt>
<trkpt lat="46.4961" lon="6.8151"><ele>994.6</ele><time>2016-09-14T14:46:35Z</time></trkpt>
<trkpt lat="46.49622" lon="6.8149"><ele>996.8</ele><time>2016-09-14T14:46:45Z</time></trkpt>
<trkpt lat="46.49629" lon="6.81481"><ele>997.8</ele><time>2016-09-14T14:46:50Z</time></trkpt>
<trkpt lat="46.49635" lon="6.81473"><ele>998.8</ele><time>2016-09-14T14:46:55Z</time></trkpt>
<trkpt lat="46.49651" lon="6.81457"><ele>1000.2</ele><time>2016-09-14T14:47:09Z</time></trkpt>
<trkpt lat="46.49657" lon="6.81451"><ele>1000.6</ele><time>2016-09-14T14:47:14Z</time></trkpt>
<trkpt lat="46.49658" lon="6.81449"><ele>1000.6</ele><time>2016-09-14T14:47:15Z</time></trkpt>
<trkpt lat="46.49674" lon="6.81432"><ele>1001.4</ele><time>2016-09-14T14:47:29Z</time></trkpt>
<trkpt lat="46.49692" lon="6.81421"><ele>1002.2</ele><time>2016-09-14T14:47:41Z</time></trkpt>
<trkpt lat="46.4971" lon="6.81409"><ele>1003.8</ele><time>2016-09-14T14:47:51Z</time></trkpt>
<trkpt lat="46.49726" lon="6.81398"><ele>1003.6</ele><time>2016-09-14T14:48:00Z</time></trkpt>
<trkpt lat="46.49745" lon="6.81389"><ele>1006.2</ele><time>2016-09-14T14:48:09Z</time></trkpt>
<trkpt lat="46.49762" lon="6.81381"><ele>1008.6</ele><time>2016-09-14T14:48:18Z</time></trkpt>
<trkpt lat="46.4978" lon="6.81371"><ele>1011</ele><time>2016-09-14T14:48:28Z</time></trkpt>
<trkpt lat="46.49798" lon="6.81362"><ele>1013</ele><time>2016-09-14T14:48:39Z</time></trkpt>
<trkpt lat="46.49821" lon="6.81375"><ele>1016.8</ele><time>2016-09-14T14:48:55Z</time></trkpt>
<trkpt lat="46.4982" lon="6.814"><ele>1019.2</ele><time>2016-09-14T14:49:05Z</time></trkpt>
<trkpt lat="46.49808" lon="6.81421"><ele>1021.8</ele><time>2016-09-14T14:49:15Z</time></trkpt>
<trkpt lat="46.49796" lon="6.81441"><ele>1024</ele><time>2016-09-14T14:49:25Z</time></trkpt>
<trkpt lat="46.49783" lon="6.81461"><ele>1025.8</ele><time>2016-09-14T14:49:34Z</time></trkpt>
<trkpt lat="46.49764" lon="6.8149"><ele>1026.4</ele><time>2016-09-14T14:49:46Z</time></trkpt>
<trkpt lat="46.49749" lon="6.81513"><ele>1026.6</ele><time>2016-09-14T14:49:54Z</time></trkpt>
<trkpt lat="46.49735" lon="6.81533"><ele>1026.4</ele><time>2016-09-14T14:50:00Z</time></trkpt>
<trkpt lat="46.49721" lon="6.81557"><ele>1026.8</ele><time>2016-09-14T14:50:06Z</time></trkpt>
<trkpt lat="46.49709" lon="6.81577"><ele>1027.4</ele><time>2016-09-14T14:50:11Z</time></trkpt>
<trkpt lat="46.49698" lon="6.81599"><ele>1028</ele><time>2016-09-14T14:50:16Z</time></trkpt>
<trkpt lat="46.49689" lon="6.81618"><ele>1028.4</ele><time>2016-09-14T14:50:20Z</time></trkpt>
<trkpt lat="46.49674" lon="6.81638"><ele>1027.8</ele><time>2016-09-14T14:50:26Z</time></trkpt>
<trkpt lat="46.49656" lon="6.81649"><ele>1029.8</ele><time>2016-09-14T14:50:35Z</time></trkpt>
<trkpt lat="46.49639" lon="6.8167"><ele>1031.6</ele><time>2016-09-14T14:50:48Z</time></trkpt>
<trkpt lat="46.49625" lon="6.81688"><ele>1033.4</ele><time>2016-09-14T14:50:58Z</time></trkpt>
<trkpt lat="46.49619" lon="6.81711"><ele>1034.8</ele><time>2016-09-14T14:51:06Z</time></trkpt>
<trkpt lat="46.49614" lon="6.81739"><ele>1036.6</ele><time>2016-09-14T14:51:16Z</time></trkpt>
<trkpt lat="46.49608" lon="6.81765"><ele>1038.2</ele><time>2016-09-14T14:51:26Z</time></trkpt>
<trkpt lat="46.49604" lon="6.81791"><ele>1039.6</ele><time>2016-09-14T14:51:36Z</time></trkpt>
<trkpt lat="46.49597" lon="6.81816"><ele>1041.8</ele><time>2016-09-14T14:51:46Z</time></trkpt>
<trkpt lat="46.4959" lon="6.8184"><ele>1044.2</ele><time>2016-09-14T14:51:56Z</time></trkpt>
<trkpt lat="46.49579" lon="6.81862"><ele>1047.4</ele><time>2016-09-14T14:52:07Z</time></trkpt>
<trkpt lat="46.49571" lon="6.81887"><ele>1049.8</ele><time>2016-09-14T14:52:19Z</time></trkpt>
<trkpt lat="46.49562" lon="6.81917"><ele>1053</ele><time>2016-09-14T14:52:32Z</time></trkpt>
<trkpt lat="46.49555" lon="6.81944"><ele>1054.6</ele><time>2016-09-14T14:52:42Z</time></trkpt>
<trkpt lat="46.49554" lon="6.81948"><ele>1054.6</ele><time>2016-09-14T14:52:43Z</time></trkpt>
<trkpt lat="46.4955" lon="6.81969"><ele>1055.6</ele><time>2016-09-14T14:52:52Z</time></trkpt>
<trkpt lat="46.49549" lon="6.81978"><ele>1056.6</ele><time>2016-09-14T14:52:56Z</time></trkpt>
<trkpt lat="46.49549" lon="6.82007"><ele>1058.4</ele><time>2016-09-14T14:53:05Z</time></trkpt>
<trkpt lat="46.49551" lon="6.82034"><ele>1060.8</ele><time>2016-09-14T14:53:13Z</time></trkpt>
<trkpt lat="46.49552" lon="6.8206"><ele>1061</ele><time>2016-09-14T14:53:24Z</time></trkpt>
<trkpt lat="46.49562" lon="6.82082"><ele>1061.6</ele><time>2016-09-14T14:53:35Z</time></trkpt>
<trkpt lat="46.49589" lon="6.82076"><ele>1066.6</ele><time>2016-09-14T14:53:48Z</time></trkpt>
<trkpt lat="46.49597" lon="6.82052"><ele>1068.8</ele><time>2016-09-14T14:53:54Z</time></trkpt>
<trkpt lat="46.49598" lon="6.82025"><ele>1071</ele><time>2016-09-14T14:54:00Z</time></trkpt>
<trkpt lat="46.49597" lon="6.81998"><ele>1074</ele><time>2016-09-14T14:54:06Z</time></trkpt>
<trkpt lat="46.49609" lon="6.81977"><ele>1076.4</ele><time>2016-09-14T14:54:11Z</time></trkpt>
<trkpt lat="46.49625" lon="6.81964"><ele>1077.6</ele><time>2016-09-14T14:54:16Z</time></trkpt>
<trkpt lat="46.49643" lon="6.81947"><ele>1079.6</ele><time>2016-09-14T14:54:22Z</time></trkpt>
<trkpt lat="46.49662" lon="6.81906"><ele>1082.4</ele><time>2016-09-14T14:54:32Z</time></trkpt>
<trkpt lat="46.49672" lon="6.81882"><ele>1084.2</ele><time>2016-09-14T14:54:41Z</time></trkpt>
<trkpt lat="46.49689" lon="6.8187"><ele>1083</ele><time>2016-09-14T14:54:49Z</time></trkpt>
<trkpt lat="46.49707" lon="6.81861"><ele>1083.8</ele><time>2016-09-14T14:54:55Z</time></trkpt>
<trkpt lat="46.49726" lon="6.81846"><ele>1084</ele><time>2016-09-14T14:55:01Z</time></trkpt>
<trkpt lat="46.49742" lon="6.81834"><ele>1084.2</ele><time>2016-09-14T14:55:05Z</time></trkpt>
<trkpt lat="46.49751" lon="6.81831"><ele>1084</ele><time>2016-09-14T14:55:07Z</time></trkpt>
<trkpt lat="46.49764" lon="6.81835"><ele>1081.8</ele><time>2016-09-14T14:55:10Z</time></trkpt>
<trkpt lat="46.49772" lon="6.81841"><ele>1081</ele><time>2016-09-14T14:55:12Z</time></trkpt>
<trkpt lat="46.49781" lon="6.81849"><ele>1080.6</ele><time>2016-09-14T14:55:14Z</time></trkpt>
<trkpt lat="46.49787" lon="6.81878"><ele>1077.6</ele><time>2016-09-14T14:55:19Z</time></trkpt>
<trkpt lat="46.49786" lon="6.81883"><ele>1076.8</ele><time>2016-09-14T14:55:20Z</time></trkpt>
<trkpt lat="46.49784" lon="6.819"><ele>1075.2</ele><time>2016-09-14T14:55:24Z</time></trkpt>
<trkpt lat="46.4978" lon="6.81931"><ele>1071.2</ele><time>2016-09-14T14:55:31Z</time></trkpt>
<trkpt lat="46.49778" lon="6.81963"><ele>1068.4</ele><time>2016-09-14T14:55:35Z</time></trkpt>
<trkpt lat="46.49776" lon="6.8199"><ele>1065.8</ele><time>2016-09-14T14:55:38Z</time></trkpt>
<trkpt lat="46.49772" lon="6.82021"><ele>1062.6</ele><time>2016-09-14T14:55:41Z</time></trkpt>
<trkpt lat="46.49767" lon="6.82048"><ele>1060.2</ele><time>2016-09-14T14:55:44Z</time></trkpt>
<trkpt lat="46.49755" lon="6.82074"><ele>1057.2</ele><time>2016-09-14T14:55:48Z</time></trkpt>
<trkpt lat="46.49738" lon="6.82093"><ele>1054.8</ele><time>2016-09-14T14:55:51Z</time></trkpt>
<trkpt lat="46.4973" lon="6.82098"><ele>1054</ele><time>2016-09-14T14:55:52Z</time></trkpt>
<trkpt lat="46.49712" lon="6.82102"><ele>1052.8</ele><time>2016-09-14T14:55:54Z</time></trkpt>
<trkpt lat="46.49693" lon="6.82105"><ele>1051.2</ele><time>2016-09-14T14:55:56Z</time></trkpt>
<trkpt lat="46.49671" lon="6.82121"><ele>1050.4</ele><time>2016-09-14T14:55:59Z</time></trkpt>
<trkpt lat="46.4966" lon="6.82137"><ele>1049.2</ele><time>2016-09-14T14:56:01Z</time></trkpt>
<trkpt lat="46.49646" lon="6.82154"><ele>1048.2</ele><time>2016-09-14T14:56:04Z</time></trkpt>
<trkpt lat="46.49632" lon="6.82163"><ele>1047.4</ele><time>2016-09-14T14:56:08Z</time></trkpt>
<trkpt lat="46.49618" lon="6.82174"><ele>1046.4</ele><time>2016-09-14T14:56:12Z</time></trkpt>
<trkpt lat="46.49604" lon="6.82188"><ele>1046</ele><time>2016-09-14T14:56:16Z</time></trkpt>
<trkpt lat="46.49597" lon="6.82196"><ele>1045.6</ele><time>2016-09-14T14:56:18Z</time></trkpt>
<trkpt lat="46.49589" lon="6.82205"><ele>1045.6</ele><time>2016-09-14T14:56:20Z</time></trkpt>
<trkpt lat="46.49572" lon="6.82223"><ele>1044.6</ele><time>2016-09-14T14:56:23Z</time></trkpt>
<trkpt lat="46.49549" lon="6.82245"><ele>1042.8</ele><time>2016-09-14T14:56:26Z</time></trkpt>
<trkpt lat="46.49542" lon="6.82254"><ele>1042.4</ele><time>2016-09-14T14:56:27Z</time></trkpt>
<trkpt lat="46.49527" lon="6.82273"><ele>1040.8</ele><time>2016-09-14T14:56:29Z</time></trkpt>
<trkpt lat="46.49511" lon="6.82288"><ele>1039.8</ele><time>2016-09-14T14:56:31Z</time></trkpt>
<trkpt lat="46.49488" lon="6.82305"><ele>1038.6</ele><time>2016-09-14T14:56:34Z</time></trkpt>
<trkpt lat="46.49469" lon="6.82318"><ele>1037.6</ele><time>2016-09-14T14:56:37Z</time></trkpt>
<trkpt lat="46.49463" lon="6.8232"><ele>1037.4</ele><time>2016-09-14T14:56:38Z</time></trkpt>
<trkpt lat="46.49453" lon="6.82319"><ele>1036.8</ele><time>2016-09-14T14:56:40Z</time></trkpt>
<trkpt lat="46.49436" lon="6.82309"><ele>1036</ele><time>2016-09-14T14:56:43Z</time></trkpt>
<trkpt lat="46.49431" lon="6.82304"><ele>1035.8</ele><time>2016-09-14T14:56:44Z</time></trkpt>
<trkpt lat="46.49421" lon="6.82295"><ele>1035.8</ele><time>2016-09-14T14:56:46Z</time></trkpt>
<trkpt lat="46.49401" lon="6.82294"><ele>1035.2</ele><time>2016-09-14T14:56:50Z</time></trkpt>
<trkpt lat="46.49396" lon="6.82295"><ele>1035</ele><time>2016-09-14T14:56:51Z</time></trkpt>
<trkpt lat="46.49374" lon="6.82294"><ele>1035.2</ele><time>2016-09-14T14:56:55Z</time></trkpt>
<trkpt lat="46.49369" lon="6.82295"><ele>1035</ele><time>2016-09-14T14:56:56Z</time></trkpt>
<trkpt lat="46.49352" lon="6.82305"><ele>1035.2</ele><time>2016-09-14T14:56:59Z</time></trkpt>
<trkpt lat="46.49346" lon="6.82309"><ele>1035.2</ele><time>2016-09-14T14:57:00Z</time></trkpt>
<trkpt lat="46.49337" lon="6.82317"><ele>1035.6</ele><time>2016-09-14T14:57:02Z</time></trkpt>
<trkpt lat="46.49323" lon="6.82339"><ele>1035</ele><time>2016-09-14T14:57:06Z</time></trkpt>
<trkpt lat="46.49309" lon="6.82362"><ele>1033.6</ele><time>2016-09-14T14:57:11Z</time></trkpt>
<trkpt lat="46.49304" lon="6.82369"><ele>1033.2</ele><time>2016-09-14T14:57:13Z</time></trkpt>
<trkpt lat="46.49296" lon="6.82382"><ele>1035.6</ele><time>2016-09-14T14:57:19Z</time></trkpt>
<trkpt lat="46.49287" lon="6.82403"><ele>1038.2</ele><time>2016-09-14T14:57:27Z</time></trkpt>
<trkpt lat="46.49283" lon="6.82431"><ele>1040</ele><time>2016-09-14T14:57:35Z</time></trkpt>
<trkpt lat="46.49282" lon="6.82454"><ele>1041.4</ele><time>2016-09-14T14:57:41Z</time></trkpt>
<trkpt lat="46.49283" lon="6.8248"><ele>1042.4</ele><time>2016-09-14T14:57:48Z</time></trkpt>
<trkpt lat="46.49283" lon="6.82498"><ele>1042.6</ele><time>2016-09-14T14:57:54Z</time></trkpt>
<trkpt lat="46.4928" lon="6.82526"><ele>1040.4</ele><time>2016-09-14T14:58:02Z</time></trkpt>
<trkpt lat="46.49271" lon="6.82551"><ele>1039.2</ele><time>2016-09-14T14:58:10Z</time></trkpt>
<trkpt lat="46.49259" lon="6.82575"><ele>1040.2</ele><time>2016-09-14T14:58:16Z</time></trkpt>
<trkpt lat="46.49247" lon="6.82598"><ele>1038.8</ele><time>2016-09-14T14:58:23Z</time></trkpt>
<trkpt lat="46.49232" lon="6.82613"><ele>1035</ele><time>2016-09-14T14:58:32Z</time></trkpt>
<trkpt lat="46.49213" lon="6.82627"><ele>1030.6</ele><time>2016-09-14T14:58:38Z</time></trkpt>
<trkpt lat="46.49196" lon="6.82637"><ele>1027.4</ele><time>2016-09-14T14:58:43Z</time></trkpt>
<trkpt lat="46.4918" lon="6.82651"><ele>1023.6</ele><time>2016-09-14T14:58:51Z</time></trkpt>
<trkpt lat="46.49164" lon="6.82666"><ele>1021.8</ele><time>2016-09-14T14:58:57Z</time></trkpt>
<trkpt lat="46.49143" lon="6.82678"><ele>1019.8</ele><time>2016-09-14T14:59:03Z</time></trkpt>
<trkpt lat="46.49126" lon="6.82699"><ele>1018.2</ele><time>2016-09-14T14:59:09Z</time></trkpt>
<trkpt lat="46.49122" lon="6.82703"><ele>1018</ele><time>2016-09-14T14:59:10Z</time></trkpt>
<trkpt lat="46.49105" lon="6.82714"><ele>1017</ele><time>2016-09-14T14:59:14Z</time></trkpt>
<trkpt lat="46.49086" lon="6.82724"><ele>1017</ele><time>2016-09-14T14:59:18Z</time></trkpt>
<trkpt lat="46.49069" lon="6.82736"><ele>1016</ele><time>2016-09-14T14:59:22Z</time></trkpt>
<trkpt lat="46.49054" lon="6.82742"><ele>1013.2</ele><time>2016-09-14T14:59:32Z</time></trkpt>
<trkpt lat="46.49051" lon="6.82744"><ele>1012.6</ele><time>2016-09-14T14:59:37Z</time></trkpt>
<trkpt lat="46.49047" lon="6.82744"><ele>1014</ele><time>2016-09-14T14:59:55Z</time></trkpt>
<trkpt lat="46.4904" lon="6.82747"><ele>1013.4</ele><time>2016-09-14T15:00:10Z</time></trkpt>
<trkpt lat="46.49039" lon="6.82748"><ele>1013.4</ele><time>2016-09-14T15:00:15Z</time></trkpt>
<trkpt lat="46.49039" lon="6.82755"><ele>1013.4</ele><time>2016-09-14T15:00:24Z</time></trkpt>
<trkpt lat="46.4903" lon="6.82781"><ele>1013</ele><time>2016-09-14T15:00:37Z</time></trkpt>
<trkpt lat="46.49027" lon="6.82788"><ele>1012.6</ele><time>2016-09-14T15:00:40Z</time></trkpt>
<trkpt lat="46.49026" lon="6.82791"><ele>1012.4</ele><time>2016-09-14T15:00:41Z</time></trkpt>
<trkpt lat="46.49022" lon="6.82797"><ele>1012.2</ele><time>2016-09-14T15:00:44Z</time></trkpt>
<trkpt lat="46.49019" lon="6.82807"><ele>1011.6</ele><time>2016-09-14T15:00:49Z</time></trkpt>
<trkpt lat="46.49017" lon="6.8281"><ele>1011.4</ele><time>2016-09-14T15:00:52Z</time></trkpt>
<trkpt lat="46.49013" lon="6.82812"><ele>1011</ele><time>2016-09-14T15:00:56Z</time></trkpt>
<trkpt lat="46.49014" lon="6.82812"><ele>1010.8</ele><time>2016-09-14T15:00:57Z</time></trkpt>
<trkpt lat="46.48996" lon="6.82826"><ele>1009.4</ele><time>2016-09-14T15:01:18Z</time></trkpt>
<trkpt lat="46.48981" lon="6.82847"><ele>1008.8</ele><time>2016-09-14T15:01:24Z</time></trkpt>
<trkpt lat="46.48959" lon="6.82882"><ele>1006.8</ele><time>2016-09-14T15:01:35Z</time></trkpt>
<trkpt lat="46.48959" lon="6.82885"><ele>1006.6</ele><time>2016-09-14T15:01:36Z</time></trkpt>
<trkpt lat="46.48957" lon="6.82894"><ele>1005.6</ele><time>2016-09-14T15:01:39Z</time></trkpt>
<trkpt lat="46.48952" lon="6.82905"><ele>1004</ele><time>2016-09-14T15:01:43Z</time></trkpt>
<trkpt lat="46.4895" lon="6.82908"><ele>1003.4</ele><time>2016-09-14T15:01:44Z</time></trkpt>
<trkpt lat="46.48948" lon="6.8291"><ele>1003</ele><time>2016-09-14T15:01:45Z</time></trkpt>
<trkpt lat="46.48942" lon="6.82919"><ele>1000.8</ele><time>2016-09-14T15:01:49Z</time></trkpt>
<trkpt lat="46.48931" lon="6.82929"><ele>996.8</ele><time>2016-09-14T15:01:53Z</time></trkpt>
<trkpt lat="46.48922" lon="6.82938"><ele>994.2</ele><time>2016-09-14T15:01:56Z</time></trkpt>
<trkpt lat="46.48906" lon="6.8295"><ele>989.4</ele><time>2016-09-14T15:02:03Z</time></trkpt>
<trkpt lat="46.48889" lon="6.82969"><ele>985.4</ele><time>2016-09-14T15:02:12Z</time></trkpt>
<trkpt lat="46.48881" lon="6.82973"><ele>983.4</ele><time>2016-09-14T15:02:16Z</time></trkpt>
<trkpt lat="46.48849" lon="6.8298"><ele>979.2</ele><time>2016-09-14T15:02:41Z</time></trkpt>
<trkpt lat="46.48832" lon="6.82981"><ele>977.4</ele><time>2016-09-14T15:02:45Z</time></trkpt>
<trkpt lat="46.48825" lon="6.82983"><ele>976.4</ele><time>2016-09-14T15:02:47Z</time></trkpt>
<trkpt lat="46.48804" lon="6.82983"><ele>974</ele><time>2016-09-14T15:02:52Z</time></trkpt>
<trkpt lat="46.48785" lon="6.8298"><ele>972.8</ele><time>2016-09-14T15:02:56Z</time></trkpt>
<trkpt lat="46.48767" lon="6.82975"><ele>969.8</ele><time>2016-09-14T15:03:03Z</time></trkpt>
<trkpt lat="46.48766" lon="6.82973"><ele>968.8</ele><time>2016-09-14T15:03:04Z</time></trkpt>
<trkpt lat="46.48761" lon="6.82969"><ele>965.6</ele><time>2016-09-14T15:03:09Z</time></trkpt>
<trkpt lat="46.48749" lon="6.82954"><ele>959.8</ele><time>2016-09-14T15:03:19Z</time></trkpt>
<trkpt lat="46.48747" lon="6.82949"><ele>958</ele><time>2016-09-14T15:03:22Z</time></trkpt>
<trkpt lat="46.48739" lon="6.82953"><ele>956.2</ele><time>2016-09-14T15:03:30Z</time></trkpt>
<trkpt lat="46.4873" lon="6.82957"><ele>955.6</ele><time>2016-09-14T15:03:34Z</time></trkpt>
<trkpt lat="46.48719" lon="6.82969"><ele>954</ele><time>2016-09-14T15:03:39Z</time></trkpt>
<trkpt lat="46.48703" lon="6.82984"><ele>952</ele><time>2016-09-14T15:03:44Z</time></trkpt>
<trkpt lat="46.48684" lon="6.82998"><ele>949.6</ele><time>2016-09-14T15:03:48Z</time></trkpt>
<trkpt lat="46.48678" lon="6.83"><ele>949</ele><time>2016-09-14T15:03:49Z</time></trkpt>
<trkpt lat="46.48657" lon="6.83008"><ele>947.4</ele><time>2016-09-14T15:03:52Z</time></trkpt>
<trkpt lat="46.48637" lon="6.83017"><ele>946.4</ele><time>2016-09-14T15:03:55Z</time></trkpt>
<trkpt lat="46.48625" lon="6.83023"><ele>946</ele><time>2016-09-14T15:03:57Z</time></trkpt>
<trkpt lat="46.48605" lon="6.83029"><ele>944.6</ele><time>2016-09-14T15:04:01Z</time></trkpt>
<trkpt lat="46.486" lon="6.83029"><ele>944.8</ele><time>2016-09-14T15:04:02Z</time></trkpt>
<trkpt lat="46.48596" lon="6.83036"><ele>943</ele><time>2016-09-14T15:04:07Z</time></trkpt>
<trkpt lat="46.48598" lon="6.83036"><ele>942.6</ele><time>2016-09-14T15:04:08Z</time></trkpt>
<trkpt lat="46.486" lon="6.83036"><ele>942.2</ele><time>2016-09-14T15:04:09Z</time></trkpt>
<trkpt lat="46.48596" lon="6.83041"><ele>941.2</ele><time>2016-09-14T15:04:19Z</time></trkpt>
<trkpt lat="46.48595" lon="6.83039"><ele>941</ele><time>2016-09-14T15:04:20Z</time></trkpt>
<trkpt lat="46.48589" lon="6.83027"><ele>940.8</ele><time>2016-09-14T15:04:25Z</time></trkpt>
<trkpt lat="46.48578" lon="6.83012"><ele>941</ele><time>2016-09-14T15:04:29Z</time></trkpt>
<trkpt lat="46.48564" lon="6.82992"><ele>941.6</ele><time>2016-09-14T15:04:33Z</time></trkpt>
<trkpt lat="46.4856" lon="6.82986"><ele>941.4</ele><time>2016-09-14T15:04:34Z</time></trkpt>
<trkpt lat="46.48549" lon="6.82964"><ele>941</ele><time>2016-09-14T15:04:37Z</time></trkpt>
<trkpt lat="46.4854" lon="6.82937"><ele>940.2</ele><time>2016-09-14T15:04:40Z</time></trkpt>
<trkpt lat="46.48532" lon="6.82907"><ele>938.2</ele><time>2016-09-14T15:04:43Z</time></trkpt>
<trkpt lat="46.48523" lon="6.82875"><ele>936.4</ele><time>2016-09-14T15:04:46Z</time></trkpt>
<trkpt lat="46.48515" lon="6.82845"><ele>934.6</ele><time>2016-09-14T15:04:49Z</time></trkpt>
<trkpt lat="46.48513" lon="6.82835"><ele>934</ele><time>2016-09-14T15:04:50Z</time></trkpt>
<trkpt lat="46.4851" lon="6.82803"><ele>932.2</ele><time>2016-09-14T15:04:53Z</time></trkpt>
<trkpt lat="46.48509" lon="6.82774"><ele>929.2</ele><time>2016-09-14T15:04:56Z</time></trkpt>
<trkpt lat="46.48509" lon="6.82764"><ele>928</ele><time>2016-09-14T15:04:57Z</time></trkpt>
<trkpt lat="46.48509" lon="6.82754"><ele>927</ele><time>2016-09-14T15:04:58Z</time></trkpt>
<trkpt lat="46.4851" lon="6.82722"><ele>925</ele><time>2016-09-14T15:05:01Z</time></trkpt>
<trkpt lat="46.4851" lon="6.82701"><ele>922.2</ele><time>2016-09-14T15:05:03Z</time></trkpt>
<trkpt lat="46.4851" lon="6.82671"><ele>918.8</ele><time>2016-09-14T15:05:06Z</time></trkpt>
<trkpt lat="46.4851" lon="6.82661"><ele>917.4</ele><time>2016-09-14T15:05:07Z</time></trkpt>
<trkpt lat="46.48506" lon="6.82629"><ele>913.2</ele><time>2016-09-14T15:05:10Z</time></trkpt>
<trkpt lat="46.48502" lon="6.82603"><ele>909.4</ele><time>2016-09-14T15:05:12Z</time></trkpt>
<trkpt lat="46.48498" lon="6.82566"><ele>905.4</ele><time>2016-09-14T15:05:15Z</time></trkpt>
<trkpt lat="46.48499" lon="6.82531"><ele>902</ele><time>2016-09-14T15:05:18Z</time></trkpt>
<trkpt lat="46.48501" lon="6.82504"><ele>895.6</ele><time>2016-09-14T15:05:24Z</time></trkpt>
<trkpt lat="46.48502" lon="6.825"><ele>893.8</ele><time>2016-09-14T15:05:26Z</time></trkpt>
<trkpt lat="46.48503" lon="6.82485"><ele>889.2</ele><time>2016-09-14T15:05:30Z</time></trkpt>
<trkpt lat="46.48503" lon="6.82478"><ele>888.4</ele><time>2016-09-14T15:05:31Z</time></trkpt>
<trkpt lat="46.485" lon="6.82452"><ele>885</ele><time>2016-09-14T15:05:34Z</time></trkpt>
<trkpt lat="46.48496" lon="6.8242"><ele>882.2</ele><time>2016-09-14T15:05:37Z</time></trkpt>
<trkpt lat="46.48491" lon="6.82382"><ele>878.6</ele><time>2016-09-14T15:05:40Z</time></trkpt>
<trkpt lat="46.48487" lon="6.82356"><ele>876.2</ele><time>2016-09-14T15:05:42Z</time></trkpt>
<trkpt lat="46.48481" lon="6.82331"><ele>874.8</ele><time>2016-09-14T15:05:44Z</time></trkpt>
<trkpt lat="46.48475" lon="6.82306"><ele>873.2</ele><time>2016-09-14T15:05:46Z</time></trkpt>
<trkpt lat="46.48464" lon="6.82271"><ele>871.4</ele><time>2016-09-14T15:05:49Z</time></trkpt>
<trkpt lat="46.48458" lon="6.8225"><ele>870</ele><time>2016-09-14T15:05:51Z</time></trkpt>
<trkpt lat="46.48456" lon="6.82227"><ele>868</ele><time>2016-09-14T15:05:53Z</time></trkpt>
<trkpt lat="46.48456" lon="6.82202"><ele>866</ele><time>2016-09-14T15:05:55Z</time></trkpt>
<trkpt lat="46.48459" lon="6.82166"><ele>862.8</ele><time>2016-09-14T15:05:58Z</time></trkpt>
<trkpt lat="46.48462" lon="6.82132"><ele>860.2</ele><time>2016-09-14T15:06:01Z</time></trkpt>
<trkpt lat="46.48465" lon="6.82111"><ele>858.4</ele><time>2016-09-14T15:06:03Z</time></trkpt>
<trkpt lat="46.48462" lon="6.82079"><ele>854.6</ele><time>2016-09-14T15:06:06Z</time></trkpt>
<trkpt lat="46.48459" lon="6.82068"><ele>853.2</ele><time>2016-09-14T15:06:07Z</time></trkpt>
<trkpt lat="46.48442" lon="6.82047"><ele>850.4</ele><time>2016-09-14T15:06:10Z</time></trkpt>
<trkpt lat="46.48432" lon="6.8204"><ele>849.2</ele><time>2016-09-14T15:06:12Z</time></trkpt>
<trkpt lat="46.48421" lon="6.82032"><ele>848</ele><time>2016-09-14T15:06:15Z</time></trkpt>
<trkpt lat="46.48418" lon="6.82024"><ele>847.8</ele><time>2016-09-14T15:06:18Z</time></trkpt>
<trkpt lat="46.48419" lon="6.82014"><ele>848.4</ele><time>2016-09-14T15:06:21Z</time></trkpt>
<trkpt lat="46.4842" lon="6.82009"><ele>848.2</ele><time>2016-09-14T15:06:22Z</time></trkpt>
<trkpt lat="46.48428" lon="6.81983"><ele>847.6</ele><time>2016-09-14T15:06:26Z</time></trkpt>
<trkpt lat="46.48435" lon="6.81959"><ele>846.6</ele><time>2016-09-14T15:06:29Z</time></trkpt>
<trkpt lat="46.48443" lon="6.8193"><ele>845.4</ele><time>2016-09-14T15:06:32Z</time></trkpt>
<trkpt lat="46.48449" lon="6.8191"><ele>844.2</ele><time>2016-09-14T15:06:34Z</time></trkpt>
<trkpt lat="46.4846" lon="6.81877"><ele>842</ele><time>2016-09-14T15:06:37Z</time></trkpt>
<trkpt lat="46.48471" lon="6.81843"><ele>840</ele><time>2016-09-14T15:06:40Z</time></trkpt>
<trkpt lat="46.48479" lon="6.81819"><ele>837.8</ele><time>2016-09-14T15:06:42Z</time></trkpt>
<trkpt lat="46.48488" lon="6.8179"><ele>835.2</ele><time>2016-09-14T15:06:44Z</time></trkpt>
<trkpt lat="46.48499" lon="6.81762"><ele>832.8</ele><time>2016-09-14T15:06:46Z</time></trkpt>
<trkpt lat="46.48513" lon="6.81735"><ele>830.8</ele><time>2016-09-14T15:06:48Z</time></trkpt>
<trkpt lat="46.48528" lon="6.81708"><ele>829.6</ele><time>2016-09-14T15:06:50Z</time></trkpt>
<trkpt lat="46.48542" lon="6.81682"><ele>828.6</ele><time>2016-09-14T15:06:52Z</time></trkpt>
<trkpt lat="46.48556" lon="6.81657"><ele>827.2</ele><time>2016-09-14T15:06:54Z</time></trkpt>
<trkpt lat="46.48569" lon="6.81634"><ele>825</ele><time>2016-09-14T15:06:56Z</time></trkpt>
<trkpt lat="46.48583" lon="6.81612"><ele>822.8</ele><time>2016-09-14T15:06:58Z</time></trkpt>
<trkpt lat="46.48597" lon="6.8159"><ele>822</ele><time>2016-09-14T15:07:00Z</time></trkpt>
<trkpt lat="46.48611" lon="6.81569"><ele>820.8</ele><time>2016-09-14T15:07:02Z</time></trkpt>
<trkpt lat="46.48624" lon="6.81548"><ele>820.6</ele><time>2016-09-14T15:07:04Z</time></trkpt>
<trkpt lat="46.4863" lon="6.81537"><ele>820.8</ele><time>2016-09-14T15:07:05Z</time></trkpt>
<trkpt lat="46.48636" lon="6.81527"><ele>821.2</ele><time>2016-09-14T15:07:06Z</time></trkpt>
<trkpt lat="46.48649" lon="6.81508"><ele>821.6</ele><time>2016-09-14T15:07:08Z</time></trkpt>
<trkpt lat="46.48662" lon="6.81491"><ele>821.8</ele><time>2016-09-14T15:07:10Z</time></trkpt>
<trkpt lat="46.48681" lon="6.81471"><ele>822.6</ele><time>2016-09-14T15:07:13Z</time></trkpt>
<trkpt lat="46.48699" lon="6.81454"><ele>822.8</ele><time>2016-09-14T15:07:16Z</time></trkpt>
<trkpt lat="46.48714" lon="6.81435"><ele>822.4</ele><time>2016-09-14T15:07:19Z</time></trkpt>
<trkpt lat="46.48719" lon="6.81426"><ele>822</ele><time>2016-09-14T15:07:20Z</time></trkpt>
<trkpt lat="46.48729" lon="6.81396"><ele>820.4</ele><time>2016-09-14T15:07:23Z</time></trkpt>
<trkpt lat="46.48739" lon="6.81361"><ele>818.8</ele><time>2016-09-14T15:07:26Z</time></trkpt>
<trkpt lat="46.48745" lon="6.81336"><ele>817.6</ele><time>2016-09-14T15:07:28Z</time></trkpt>
<trkpt lat="46.48751" lon="6.8131"><ele>816.8</ele><time>2016-09-14T15:07:30Z</time></trkpt>
<trkpt lat="46.48757" lon="6.81283"><ele>815.6</ele><time>2016-09-14T15:07:32Z</time></trkpt>
<trkpt lat="46.48763" lon="6.81255"><ele>814</ele><time>2016-09-14T15:07:34Z</time></trkpt>
<trkpt lat="46.48769" lon="6.81225"><ele>812.2</ele><time>2016-09-14T15:07:36Z</time></trkpt>
<trkpt lat="46.48775" lon="6.81193"><ele>810</ele><time>2016-09-14T15:07:38Z</time></trkpt>
<trkpt lat="46.48781" lon="6.81161"><ele>808.2</ele><time>2016-09-14T15:07:40Z</time></trkpt>
<trkpt lat="46.48787" lon="6.81129"><ele>806.6</ele><time>2016-09-14T15:07:42Z</time></trkpt>
<trkpt lat="46.48793" lon="6.81096"><ele>805.6</ele><time>2016-09-14T15:07:44Z</time></trkpt>
<trkpt lat="46.48799" lon="6.81064"><ele>804.6</ele><time>2016-09-14T15:07:46Z</time></trkpt>
<trkpt lat="46.48806" lon="6.81033"><ele>803.2</ele><time>2016-09-14T15:07:48Z</time></trkpt>
<trkpt lat="46.48814" lon="6.81002"><ele>801.8</ele><time>2016-09-14T15:07:50Z</time></trkpt>
<trkpt lat="46.48823" lon="6.80972"><ele>800.2</ele><time>2016-09-14T15:07:52Z</time></trkpt>
<trkpt lat="46.48832" lon="6.80941"><ele>797.6</ele><time>2016-09-14T15:07:54Z</time></trkpt>
<trkpt lat="46.48843" lon="6.80908"><ele>795.6</ele><time>2016-09-14T15:07:56Z</time></trkpt>
<trkpt lat="46.48854" lon="6.80876"><ele>793.2</ele><time>2016-09-14T15:07:58Z</time></trkpt>
<trkpt lat="46.48865" lon="6.80843"><ele>791.6</ele><time>2016-09-14T15:08:00Z</time></trkpt>
<trkpt lat="46.48873" lon="6.80809"><ele>790.8</ele><time>2016-09-14T15:08:02Z</time></trkpt>
<trkpt lat="46.48877" lon="6.80778"><ele>789.6</ele><time>2016-09-14T15:08:04Z</time></trkpt>
<trkpt lat="46.48881" lon="6.80745"><ele>787.6</ele><time>2016-09-14T15:08:07Z</time></trkpt>
<trkpt lat="46.48881" lon="6.80736"><ele>787.2</ele><time>2016-09-14T15:08:08Z</time></trkpt>
<trkpt lat="46.48875" lon="6.80703"><ele>786.8</ele><time>2016-09-14T15:08:12Z</time></trkpt>
<trkpt lat="46.48867" lon="6.80674"><ele>786.6</ele><time>2016-09-14T15:08:16Z</time></trkpt>
<trkpt lat="46.48859" lon="6.80646"><ele>786.6</ele><time>2016-09-14T15:08:20Z</time></trkpt>
<trkpt lat="46.48851" lon="6.80617"><ele>786.8</ele><time>2016-09-14T15:08:24Z</time></trkpt>
<trkpt lat="46.48846" lon="6.80603"><ele>785.8</ele><time>2016-09-14T15:08:26Z</time></trkpt>
<trkpt lat="46.48833" lon="6.80583"><ele>784</ele><time>2016-09-14T15:08:29Z</time></trkpt>
<trkpt lat="46.48821" lon="6.80569"><ele>782.6</ele><time>2016-09-14T15:08:31Z</time></trkpt>
<trkpt lat="46.48806" lon="6.80557"><ele>779.6</ele><time>2016-09-14T15:08:33Z</time></trkpt>
<trkpt lat="46.48781" lon="6.80549"><ele>776.8</ele><time>2016-09-14T15:08:36Z</time></trkpt>
<trkpt lat="46.48763" lon="6.80553"><ele>774.2</ele><time>2016-09-14T15:08:38Z</time></trkpt>
<trkpt lat="46.48755" lon="6.80557"><ele>773</ele><time>2016-09-14T15:08:39Z</time></trkpt>
<trkpt lat="46.48748" lon="6.8056"><ele>771.8</ele><time>2016-09-14T15:08:40Z</time></trkpt>
<trkpt lat="46.48727" lon="6.80551"><ele>768.6</ele><time>2016-09-14T15:08:43Z</time></trkpt>
<trkpt lat="46.48719" lon="6.80519"><ele>767.8</ele><time>2016-09-14T15:08:46Z</time></trkpt>
<trkpt lat="46.48719" lon="6.80507"><ele>767.6</ele><time>2016-09-14T15:08:47Z</time></trkpt>
<trkpt lat="46.48717" lon="6.80485"><ele>767.2</ele><time>2016-09-14T15:08:49Z</time></trkpt>
<trkpt lat="46.48708" lon="6.80453"><ele>766</ele><time>2016-09-14T15:08:52Z</time></trkpt>
<trkpt lat="46.48694" lon="6.80423"><ele>765</ele><time>2016-09-14T15:08:55Z</time></trkpt>
<trkpt lat="46.48689" lon="6.80414"><ele>764.8</ele><time>2016-09-14T15:08:56Z</time></trkpt>
<trkpt lat="46.48667" lon="6.80397"><ele>764</ele><time>2016-09-14T15:08:59Z</time></trkpt>
<trkpt lat="46.48659" lon="6.80391"><ele>763.4</ele><time>2016-09-14T15:09:00Z</time></trkpt>
<trkpt lat="46.48644" lon="6.80376"><ele>762.6</ele><time>2016-09-14T15:09:02Z</time></trkpt>
<trkpt lat="46.48626" lon="6.80355"><ele>761.2</ele><time>2016-09-14T15:09:05Z</time></trkpt>
<trkpt lat="46.48616" lon="6.80328"><ele>759.2</ele><time>2016-09-14T15:09:08Z</time></trkpt>
<trkpt lat="46.48614" lon="6.80316"><ele>757.8</ele><time>2016-09-14T15:09:09Z</time></trkpt>
<trkpt lat="46.48612" lon="6.80303"><ele>756.6</ele><time>2016-09-14T15:09:10Z</time></trkpt>
<trkpt lat="46.48611" lon="6.8029"><ele>755.6</ele><time>2016-09-14T15:09:11Z</time></trkpt>
<trkpt lat="46.48613" lon="6.8026"><ele>753.2</ele><time>2016-09-14T15:09:13Z</time></trkpt>
<trkpt lat="46.48617" lon="6.8023"><ele>751</ele><time>2016-09-14T15:09:15Z</time></trkpt>
<trkpt lat="46.48618" lon="6.80197"><ele>746.4</ele><time>2016-09-14T15:09:17Z</time></trkpt>
<trkpt lat="46.48616" lon="6.80165"><ele>743.8</ele><time>2016-09-14T15:09:19Z</time></trkpt>
<trkpt lat="46.48613" lon="6.80136"><ele>741.8</ele><time>2016-09-14T15:09:21Z</time></trkpt>
<trkpt lat="46.4861" lon="6.80124"><ele>740.6</ele><time>2016-09-14T15:09:22Z</time></trkpt>
<trkpt lat="46.48605" lon="6.801"><ele>738.4</ele><time>2016-09-14T15:09:24Z</time></trkpt>
<trkpt lat="46.486" lon="6.80063"><ele>736</ele><time>2016-09-14T15:09:27Z</time></trkpt>
<trkpt lat="46.48591" lon="6.80039"><ele>735</ele><time>2016-09-14T15:09:29Z</time></trkpt>
<trkpt lat="46.48578" lon="6.80019"><ele>733.8</ele><time>2016-09-14T15:09:31Z</time></trkpt>
<trkpt lat="46.48565" lon="6.79998"><ele>733</ele><time>2016-09-14T15:09:33Z</time></trkpt>
<trkpt lat="46.48553" lon="6.79975"><ele>732.2</ele><time>2016-09-14T15:09:35Z</time></trkpt>
<trkpt lat="46.48541" lon="6.79951"><ele>730.8</ele><time>2016-09-14T15:09:37Z</time></trkpt>
<trkpt lat="46.48535" lon="6.79938"><ele>730</ele><time>2016-09-14T15:09:38Z</time></trkpt>
<trkpt lat="46.48529" lon="6.79925"><ele>729</ele><time>2016-09-14T15:09:39Z</time></trkpt>
<trkpt lat="46.4852" lon="6.79894"><ele>727.2</ele><time>2016-09-14T15:09:41Z</time></trkpt>
<trkpt lat="46.4851" lon="6.7986"><ele>725.2</ele><time>2016-09-14T15:09:43Z</time></trkpt>
<trkpt lat="46.48494" lon="6.79829"><ele>723</ele><time>2016-09-14T15:09:45Z</time></trkpt>
<trkpt lat="46.48472" lon="6.79809"><ele>721.2</ele><time>2016-09-14T15:09:47Z</time></trkpt>
<trkpt lat="46.48448" lon="6.79796"><ele>720</ele><time>2016-09-14T15:09:49Z</time></trkpt>
<trkpt lat="46.48423" lon="6.79789"><ele>719.2</ele><time>2016-09-14T15:09:51Z</time></trkpt>
<trkpt lat="46.48399" lon="6.79783"><ele>718</ele><time>2016-09-14T15:09:53Z</time></trkpt>
<trkpt lat="46.48376" lon="6.79775"><ele>717.6</ele><time>2016-09-14T15:09:55Z</time></trkpt>
<trkpt lat="46.48354" lon="6.79768"><ele>717.4</ele><time>2016-09-14T15:09:57Z</time></trkpt>
<trkpt lat="46.48333" lon="6.79765"><ele>717.8</ele><time>2016-09-14T15:09:59Z</time></trkpt>
<trkpt lat="46.48312" lon="6.79766"><ele>717.6</ele><time>2016-09-14T15:10:01Z</time></trkpt>
<trkpt lat="46.48293" lon="6.79767"><ele>717.4</ele><time>2016-09-14T15:10:03Z</time></trkpt>
<trkpt lat="46.48283" lon="6.79766"><ele>717.2</ele><time>2016-09-14T15:10:04Z</time></trkpt>
<trkpt lat="46.48265" lon="6.79764"><ele>715.8</ele><time>2016-09-14T15:10:06Z</time></trkpt>
<trkpt lat="46.48247" lon="6.79763"><ele>714.2</ele><time>2016-09-14T15:10:08Z</time></trkpt>
<trkpt lat="46.48229" lon="6.79747"><ele>711.8</ele><time>2016-09-14T15:10:11Z</time></trkpt>
<trkpt lat="46.48219" lon="6.79725"><ele>710</ele><time>2016-09-14T15:10:14Z</time></trkpt>
<trkpt lat="46.48213" lon="6.7971"><ele>708.4</ele><time>2016-09-14T15:10:17Z</time></trkpt>
<trkpt lat="46.48217" lon="6.79679"><ele>705.2</ele><time>2016-09-14T15:10:22Z</time></trkpt>
<trkpt lat="46.48227" lon="6.79666"><ele>705.4</ele><time>2016-09-14T15:10:25Z</time></trkpt>
<trkpt lat="46.48229" lon="6.79664"><ele>705.2</ele><time>2016-09-14T15:10:26Z</time></trkpt>
<trkpt lat="46.48224" lon="6.79666"><ele>704.6</ele><time>2016-09-14T15:10:31Z</time></trkpt>
<trkpt lat="46.48222" lon="6.79671"><ele>704.2</ele><time>2016-09-14T15:10:34Z</time></trkpt>
<trkpt lat="46.48222" lon="6.79674"><ele>703</ele><time>2016-09-14T15:10:43Z</time></trkpt>
<trkpt lat="46.48236" lon="6.79659"><ele>702.8</ele><time>2016-09-14T15:10:48Z</time></trkpt>
<trkpt lat="46.48253" lon="6.79638"><ele>703.6</ele><time>2016-09-14T15:10:53Z</time></trkpt>
<trkpt lat="46.48264" lon="6.79612"><ele>705</ele><time>2016-09-14T15:10:58Z</time></trkpt>
<trkpt lat="46.48267" lon="6.796"><ele>705.8</ele><time>2016-09-14T15:11:00Z</time></trkpt>
<trkpt lat="46.48269" lon="6.79595"><ele>706.2</ele><time>2016-09-14T15:11:01Z</time></trkpt>
<trkpt lat="46.4827" lon="6.79589"><ele>706.4</ele><time>2016-09-14T15:11:02Z</time></trkpt>
<trkpt lat="46.4828" lon="6.79563"><ele>708.8</ele><time>2016-09-14T15:11:07Z</time></trkpt>
<trkpt lat="46.4829" lon="6.79538"><ele>710.2</ele><time>2016-09-14T15:11:12Z</time></trkpt>
<trkpt lat="46.48299" lon="6.79514"><ele>711.4</ele><time>2016-09-14T15:11:17Z</time></trkpt>
<trkpt lat="46.48307" lon="6.79486"><ele>711.4</ele><time>2016-09-14T15:11:22Z</time></trkpt>
<trkpt lat="46.48316" lon="6.79463"><ele>711.8</ele><time>2016-09-14T15:11:26Z</time></trkpt>
<trkpt lat="46.48329" lon="6.79441"><ele>711.8</ele><time>2016-09-14T15:11:30Z</time></trkpt>
<trkpt lat="46.48343" lon="6.79417"><ele>712.2</ele><time>2016-09-14T15:11:34Z</time></trkpt>
<trkpt lat="46.4835" lon="6.79405"><ele>712.4</ele><time>2016-09-14T15:11:36Z</time></trkpt>
<trkpt lat="46.48359" lon="6.79394"><ele>712.2</ele><time>2016-09-14T15:11:38Z</time></trkpt>
<trkpt lat="46.48375" lon="6.7938"><ele>711.4</ele><time>2016-09-14T15:11:41Z</time></trkpt>
<trkpt lat="46.48395" lon="6.79365"><ele>709.2</ele><time>2016-09-14T15:11:44Z</time></trkpt>
<trkpt lat="46.48418" lon="6.7935"><ele>706</ele><time>2016-09-14T15:11:47Z</time></trkpt>
<trkpt lat="46.48435" lon="6.79337"><ele>704.8</ele><time>2016-09-14T15:11:49Z</time></trkpt>
<trkpt lat="46.48451" lon="6.79324"><ele>703.6</ele><time>2016-09-14T15:11:51Z</time></trkpt>
<trkpt lat="46.48468" lon="6.7931"><ele>701.8</ele><time>2016-09-14T15:11:53Z</time></trkpt>
<trkpt lat="46.48486" lon="6.79295"><ele>700</ele><time>2016-09-14T15:11:55Z</time></trkpt>
<trkpt lat="46.48504" lon="6.79278"><ele>699.2</ele><time>2016-09-14T15:11:57Z</time></trkpt>
<trkpt lat="46.48521" lon="6.79262"><ele>699</ele><time>2016-09-14T15:11:59Z</time></trkpt>
<trkpt lat="46.48538" lon="6.79249"><ele>699</ele><time>2016-09-14T15:12:01Z</time></trkpt>
<trkpt lat="46.48546" lon="6.79242"><ele>698.6</ele><time>2016-09-14T15:12:02Z</time></trkpt>
<trkpt lat="46.48554" lon="6.79236"><ele>698.4</ele><time>2016-09-14T15:12:03Z</time></trkpt>
<trkpt lat="46.48571" lon="6.79222"><ele>697.4</ele><time>2016-09-14T15:12:05Z</time></trkpt>
<trkpt lat="46.48579" lon="6.79214"><ele>695.8</ele><time>2016-09-14T15:12:06Z</time></trkpt>
<trkpt lat="46.48596" lon="6.79196"><ele>693</ele><time>2016-09-14T15:12:08Z</time></trkpt>
<trkpt lat="46.4861" lon="6.79176"><ele>691.2</ele><time>2016-09-14T15:12:10Z</time></trkpt>
<trkpt lat="46.48627" lon="6.79152"><ele>689.8</ele><time>2016-09-14T15:12:13Z</time></trkpt>
<trkpt lat="46.48639" lon="6.79136"><ele>689.8</ele><time>2016-09-14T15:12:17Z</time></trkpt>
<trkpt lat="46.48641" lon="6.79134"><ele>689.8</ele><time>2016-09-14T15:12:18Z</time></trkpt>
<trkpt lat="46.48642" lon="6.79132"><ele>690</ele><time>2016-09-14T15:12:19Z</time></trkpt>
<trkpt lat="46.48647" lon="6.79122"><ele>690.8</ele><time>2016-09-14T15:12:24Z</time></trkpt>
<trkpt lat="46.48649" lon="6.79119"><ele>690.8</ele><time>2016-09-14T15:12:25Z</time></trkpt>
<trkpt lat="46.48653" lon="6.79114"><ele>691</ele><time>2016-09-14T15:12:27Z</time></trkpt>
<trkpt lat="46.4866" lon="6.79105"><ele>691.2</ele><time>2016-09-14T15:12:30Z</time></trkpt>
<trkpt lat="46.4867" lon="6.79095"><ele>691.4</ele><time>2016-09-14T15:12:33Z</time></trkpt>
<trkpt lat="46.48685" lon="6.79077"><ele>691.6</ele><time>2016-09-14T15:12:37Z</time></trkpt>
<trkpt lat="46.48699" lon="6.79062"><ele>690.6</ele><time>2016-09-14T15:12:40Z</time></trkpt>
<trkpt lat="46.48709" lon="6.79051"><ele>689.4</ele><time>2016-09-14T15:12:42Z</time></trkpt>
<trkpt lat="46.48714" lon="6.79046"><ele>688.8</ele><time>2016-09-14T15:12:43Z</time></trkpt>
<trkpt lat="46.4872" lon="6.79041"><ele>688.6</ele><time>2016-09-14T15:12:44Z</time></trkpt>
<trkpt lat="46.48739" lon="6.79025"><ele>685.4</ele><time>2016-09-14T15:12:47Z</time></trkpt>
<trkpt lat="46.48762" lon="6.79007"><ele>682.6</ele><time>2016-09-14T15:12:50Z</time></trkpt>
<trkpt lat="46.48779" lon="6.78997"><ele>680.8</ele><time>2016-09-14T15:12:52Z</time></trkpt>
<trkpt lat="46.48796" lon="6.78986"><ele>679.4</ele><time>2016-09-14T15:12:54Z</time></trkpt>
<trkpt lat="46.48819" lon="6.78967"><ele>677.4</ele><time>2016-09-14T15:12:57Z</time></trkpt>
<trkpt lat="46.48839" lon="6.78951"><ele>676.8</ele><time>2016-09-14T15:13:00Z</time></trkpt>
<trkpt lat="46.48845" lon="6.78947"><ele>677</ele><time>2016-09-14T15:13:01Z</time></trkpt>
<trkpt lat="46.48863" lon="6.78939"><ele>676.8</ele><time>2016-09-14T15:13:04Z</time></trkpt>
<trkpt lat="46.48879" lon="6.78932"><ele>677.4</ele><time>2016-09-14T15:13:07Z</time></trkpt>
<trkpt lat="46.48896" lon="6.78919"><ele>677.8</ele><time>2016-09-14T15:13:11Z</time></trkpt>
<trkpt lat="46.48909" lon="6.78904"><ele>678.2</ele><time>2016-09-14T15:13:14Z</time></trkpt>
<trkpt lat="46.48917" lon="6.78892"><ele>678</ele><time>2016-09-14T15:13:16Z</time></trkpt>
<trkpt lat="46.48926" lon="6.78881"><ele>676.4</ele><time>2016-09-14T15:13:18Z</time></trkpt>
<trkpt lat="46.48942" lon="6.78868"><ele>675.8</ele><time>2016-09-14T15:13:21Z</time></trkpt>
<trkpt lat="46.48953" lon="6.78857"><ele>675.4</ele><time>2016-09-14T15:13:23Z</time></trkpt>
<trkpt lat="46.48964" lon="6.78835"><ele>675</ele><time>2016-09-14T15:13:26Z</time></trkpt>
<trkpt lat="46.48968" lon="6.78819"><ele>675.6</ele><time>2016-09-14T15:13:28Z</time></trkpt>
<trkpt lat="46.4897" lon="6.78799"><ele>676.6</ele><time>2016-09-14T15:13:31Z</time></trkpt>
<trkpt lat="46.4897" lon="6.78792"><ele>676.8</ele><time>2016-09-14T15:13:32Z</time></trkpt>
<trkpt lat="46.48973" lon="6.78773"><ele>677.6</ele><time>2016-09-14T15:13:35Z</time></trkpt>
<trkpt lat="46.48982" lon="6.78748"><ele>678.2</ele><time>2016-09-14T15:13:39Z</time></trkpt>
<trkpt lat="46.48998" lon="6.78736"><ele>678.8</ele><time>2016-09-14T15:13:43Z</time></trkpt>
<trkpt lat="46.49009" lon="6.78733"><ele>679</ele><time>2016-09-14T15:13:45Z</time></trkpt>
<trkpt lat="46.49031" lon="6.7873"><ele>678.8</ele><time>2016-09-14T15:13:49Z</time></trkpt>
<trkpt lat="46.49055" lon="6.78729"><ele>678.4</ele><time>2016-09-14T15:13:53Z</time></trkpt>
<trkpt lat="46.49067" lon="6.78726"><ele>678.4</ele><time>2016-09-14T15:13:55Z</time></trkpt>
<trkpt lat="46.49082" lon="6.78713"><ele>678.6</ele><time>2016-09-14T15:13:58Z</time></trkpt>
<trkpt lat="46.49087" lon="6.78688"><ele>678.4</ele><time>2016-09-14T15:14:01Z</time></trkpt>
<trkpt lat="46.49088" lon="6.78679"><ele>678.4</ele><time>2016-09-14T15:14:02Z</time></trkpt>
<trkpt lat="46.49088" lon="6.78652"><ele>678.8</ele><time>2016-09-14T15:14:05Z</time></trkpt>
<trkpt lat="46.49088" lon="6.78618"><ele>679.4</ele><time>2016-09-14T15:14:09Z</time></trkpt>
<trkpt lat="46.49088" lon="6.78587"><ele>680.2</ele><time>2016-09-14T15:14:13Z</time></trkpt>
<trkpt lat="46.49088" lon="6.78561"><ele>680.8</ele><time>2016-09-14T15:14:17Z</time></trkpt>
<trkpt lat="46.49085" lon="6.7853"><ele>681.6</ele><time>2016-09-14T15:14:22Z</time></trkpt>
<trkpt lat="46.49082" lon="6.78518"><ele>681.8</ele><time>2016-09-14T15:14:24Z</time></trkpt>
<trkpt lat="46.49065" lon="6.78495"><ele>679.2</ele><time>2016-09-14T15:14:28Z</time></trkpt>
<trkpt lat="46.49051" lon="6.78483"><ele>677.6</ele><time>2016-09-14T15:14:30Z</time></trkpt>
<trkpt lat="46.49043" lon="6.78476"><ele>676.8</ele><time>2016-09-14T15:14:31Z</time></trkpt>
<trkpt lat="46.49026" lon="6.78462"><ele>676</ele><time>2016-09-14T15:14:33Z</time></trkpt>
<trkpt lat="46.49017" lon="6.78454"><ele>675.6</ele><time>2016-09-14T15:14:34Z</time></trkpt>
<trkpt lat="46.49" lon="6.78439"><ele>675.2</ele><time>2016-09-14T15:14:36Z</time></trkpt>
<trkpt lat="46.48983" lon="6.78424"><ele>675</ele><time>2016-09-14T15:14:38Z</time></trkpt>
<trkpt lat="46.48966" lon="6.78409"><ele>674.8</ele><time>2016-09-14T15:14:40Z</time></trkpt>
<trkpt lat="46.48948" lon="6.78397"><ele>674.8</ele><time>2016-09-14T15:14:42Z</time></trkpt>
<trkpt lat="46.4893" lon="6.7839"><ele>675</ele><time>2016-09-14T15:14:44Z</time></trkpt>
<trkpt lat="46.48912" lon="6.78384"><ele>675.4</ele><time>2016-09-14T15:14:46Z</time></trkpt>
<trkpt lat="46.48887" lon="6.78375"><ele>676.2</ele><time>2016-09-14T15:14:49Z</time></trkpt>
<trkpt lat="46.48865" lon="6.78364"><ele>676.8</ele><time>2016-09-14T15:14:52Z</time></trkpt>
<trkpt lat="46.48845" lon="6.78351"><ele>677</ele><time>2016-09-14T15:14:55Z</time></trkpt>
<trkpt lat="46.48826" lon="6.78339"><ele>677.2</ele><time>2016-09-14T15:14:58Z</time></trkpt>
<trkpt lat="46.48807" lon="6.78328"><ele>677.4</ele><time>2016-09-14T15:15:01Z</time></trkpt>
<trkpt lat="46.48789" lon="6.78316"><ele>677.4</ele><time>2016-09-14T15:15:04Z</time></trkpt>
<trkpt lat="46.48772" lon="6.78301"><ele>676.8</ele><time>2016-09-14T15:15:07Z</time></trkpt>
<trkpt lat="46.48754" lon="6.7828"><ele>675.4</ele><time>2016-09-14T15:15:10Z</time></trkpt>
<trkpt lat="46.48735" lon="6.78258"><ele>674.8</ele><time>2016-09-14T15:15:13Z</time></trkpt>
<trkpt lat="46.48716" lon="6.78241"><ele>674.6</ele><time>2016-09-14T15:15:16Z</time></trkpt>
<trkpt lat="46.48696" lon="6.78232"><ele>674.4</ele><time>2016-09-14T15:15:19Z</time></trkpt>
<trkpt lat="46.48674" lon="6.78226"><ele>674</ele><time>2016-09-14T15:15:22Z</time></trkpt>
<trkpt lat="46.48649" lon="6.78214"><ele>673.2</ele><time>2016-09-14T15:15:25Z</time></trkpt>
<trkpt lat="46.48631" lon="6.78206"><ele>672.8</ele><time>2016-09-14T15:15:27Z</time></trkpt>
<trkpt lat="46.48608" lon="6.78194"><ele>670.6</ele><time>2016-09-14T15:15:30Z</time></trkpt>
<trkpt lat="46.48585" lon="6.78183"><ele>668.8</ele><time>2016-09-14T15:15:33Z</time></trkpt>
<trkpt lat="46.48572" lon="6.78172"><ele>666.6</ele><time>2016-09-14T15:15:35Z</time></trkpt>
<trkpt lat="46.48561" lon="6.78147"><ele>663.8</ele><time>2016-09-14T15:15:38Z</time></trkpt>
<trkpt lat="46.48563" lon="6.78115"><ele>659.8</ele><time>2016-09-14T15:15:41Z</time></trkpt>
<trkpt lat="46.48576" lon="6.78083"><ele>655.6</ele><time>2016-09-14T15:15:44Z</time></trkpt>
<trkpt lat="46.48587" lon="6.7806"><ele>653.8</ele><time>2016-09-14T15:15:46Z</time></trkpt>
<trkpt lat="46.48602" lon="6.78029"><ele>651.4</ele><time>2016-09-14T15:15:49Z</time></trkpt>
<trkpt lat="46.48599" lon="6.77996"><ele>649.6</ele><time>2016-09-14T15:15:52Z</time></trkpt>
<trkpt lat="46.48583" lon="6.77971"><ele>647</ele><time>2016-09-14T15:15:55Z</time></trkpt>
<trkpt lat="46.48559" lon="6.7796"><ele>645</ele><time>2016-09-14T15:15:58Z</time></trkpt>
<trkpt lat="46.48551" lon="6.77958"><ele>644.6</ele><time>2016-09-14T15:15:59Z</time></trkpt>
<trkpt lat="46.48537" lon="6.77951"><ele>644</ele><time>2016-09-14T15:16:01Z</time></trkpt>
<trkpt lat="46.48525" lon="6.77928"><ele>644.4</ele><time>2016-09-14T15:16:04Z</time></trkpt>
<trkpt lat="46.4853" lon="6.77901"><ele>643.6</ele><time>2016-09-14T15:16:07Z</time></trkpt>
<trkpt lat="46.48533" lon="6.77893"><ele>643.2</ele><time>2016-09-14T15:16:08Z</time></trkpt>
<trkpt lat="46.48543" lon="6.77867"><ele>641.6</ele><time>2016-09-14T15:16:11Z</time></trkpt>
<trkpt lat="46.48554" lon="6.77839"><ele>639.6</ele><time>2016-09-14T15:16:14Z</time></trkpt>
<trkpt lat="46.48566" lon="6.77809"><ele>637.8</ele><time>2016-09-14T15:16:17Z</time></trkpt>
<trkpt lat="46.48578" lon="6.77776"><ele>637</ele><time>2016-09-14T15:16:20Z</time></trkpt>
<trkpt lat="46.48587" lon="6.77744"><ele>635.4</ele><time>2016-09-14T15:16:23Z</time></trkpt>
<trkpt lat="46.48595" lon="6.77708"><ele>633.6</ele><time>2016-09-14T15:16:26Z</time></trkpt>
<trkpt lat="46.48596" lon="6.77694"><ele>632.8</ele><time>2016-09-14T15:16:27Z</time></trkpt>
<trkpt lat="46.48601" lon="6.77666"><ele>630.6</ele><time>2016-09-14T15:16:29Z</time></trkpt>
<trkpt lat="46.48605" lon="6.77637"><ele>627.8</ele><time>2016-09-14T15:16:31Z</time></trkpt>
<trkpt lat="46.48605" lon="6.77624"><ele>627.4</ele><time>2016-09-14T15:16:32Z</time></trkpt>
<trkpt lat="46.48597" lon="6.77595"><ele>625.4</ele><time>2016-09-14T15:16:35Z</time></trkpt>
<trkpt lat="46.48597" lon="6.77565"><ele>624.8</ele><time>2016-09-14T15:16:39Z</time></trkpt>
<trkpt lat="46.486" lon="6.77559"><ele>625</ele><time>2016-09-14T15:16:40Z</time></trkpt>
<trkpt lat="46.4861" lon="6.77534"><ele>626</ele><time>2016-09-14T15:16:44Z</time></trkpt>
<trkpt lat="46.48617" lon="6.77512"><ele>626.6</ele><time>2016-09-14T15:16:48Z</time></trkpt>
<trkpt lat="46.4862" lon="6.77502"><ele>626.8</ele><time>2016-09-14T15:16:51Z</time></trkpt>
<trkpt lat="46.48604" lon="6.77498"><ele>626</ele><time>2016-09-14T15:16:57Z</time></trkpt>
<trkpt lat="46.48596" lon="6.77495"><ele>625.6</ele><time>2016-09-14T15:16:59Z</time></trkpt>
<trkpt lat="46.48574" lon="6.77487"><ele>624.4</ele><time>2016-09-14T15:17:03Z</time></trkpt>
<trkpt lat="46.48561" lon="6.77483"><ele>623.6</ele><time>2016-09-14T15:17:05Z</time></trkpt>
<trkpt lat="46.48547" lon="6.77496"><ele>620.6</ele><time>2016-09-14T15:17:08Z</time></trkpt>
<trkpt lat="46.48544" lon="6.77518"><ele>619.2</ele><time>2016-09-14T15:17:10Z</time></trkpt>
<trkpt lat="46.48539" lon="6.77555"><ele>616.2</ele><time>2016-09-14T15:17:13Z</time></trkpt>
<trkpt lat="46.48531" lon="6.77581"><ele>614.8</ele><time>2016-09-14T15:17:15Z</time></trkpt>
<trkpt lat="46.48519" lon="6.77603"><ele>613</ele><time>2016-09-14T15:17:17Z</time></trkpt>
<trkpt lat="46.48501" lon="6.77612"><ele>611.2</ele><time>2016-09-14T15:17:20Z</time></trkpt>
<trkpt lat="46.48482" lon="6.77614"><ele>608.8</ele><time>2016-09-14T15:17:24Z</time></trkpt>
<trkpt lat="46.48475" lon="6.77638"><ele>607.6</ele><time>2016-09-14T15:17:27Z</time></trkpt>
<trkpt lat="46.48472" lon="6.77648"><ele>607.2</ele><time>2016-09-14T15:17:28Z</time></trkpt>
<trkpt lat="46.48465" lon="6.77677"><ele>605.8</ele><time>2016-09-14T15:17:31Z</time></trkpt>
<trkpt lat="46.48455" lon="6.77706"><ele>604.8</ele><time>2016-09-14T15:17:34Z</time></trkpt>
<trkpt lat="46.48446" lon="6.77736"><ele>603.6</ele><time>2016-09-14T15:17:37Z</time></trkpt>
<trkpt lat="46.48436" lon="6.77765"><ele>602.6</ele><time>2016-09-14T15:17:40Z</time></trkpt>
<trkpt lat="46.48424" lon="6.77795"><ele>601.2</ele><time>2016-09-14T15:17:43Z</time></trkpt>
<trkpt lat="46.48415" lon="6.77815"><ele>600.4</ele><time>2016-09-14T15:17:45Z</time></trkpt>
<trkpt lat="46.48397" lon="6.77845"><ele>599.6</ele><time>2016-09-14T15:17:48Z</time></trkpt>
<trkpt lat="46.48383" lon="6.77863"><ele>599.6</ele><time>2016-09-14T15:17:50Z</time></trkpt>
<trkpt lat="46.48369" lon="6.77882"><ele>599.4</ele><time>2016-09-14T15:17:52Z</time></trkpt>
<trkpt lat="46.48354" lon="6.77899"><ele>599.2</ele><time>2016-09-14T15:17:54Z</time></trkpt>
<trkpt lat="46.48339" lon="6.77915"><ele>599.4</ele><time>2016-09-14T15:17:56Z</time></trkpt>
<trkpt lat="46.48325" lon="6.77926"><ele>598.2</ele><time>2016-09-14T15:17:58Z</time></trkpt>
<trkpt lat="46.48305" lon="6.77936"><ele>596.8</ele><time>2016-09-14T15:18:01Z</time></trkpt>
<trkpt lat="46.48293" lon="6.77937"><ele>597</ele><time>2016-09-14T15:18:03Z</time></trkpt>
<trkpt lat="46.48284" lon="6.77908"><ele>597.2</ele><time>2016-09-14T15:18:07Z</time></trkpt>
<trkpt lat="46.48282" lon="6.77879"><ele>596.2</ele><time>2016-09-14T15:18:10Z</time></trkpt>
<trkpt lat="46.48279" lon="6.77859"><ele>595.2</ele><time>2016-09-14T15:18:12Z</time></trkpt>
<trkpt lat="46.48273" lon="6.77828"><ele>593.4</ele><time>2016-09-14T15:18:15Z</time></trkpt>
<trkpt lat="46.48269" lon="6.77809"><ele>592.8</ele><time>2016-09-14T15:18:17Z</time></trkpt>
<trkpt lat="46.48263" lon="6.77777"><ele>592</ele><time>2016-09-14T15:18:20Z</time></trkpt>
<trkpt lat="46.48269" lon="6.77742"><ele>591.6</ele><time>2016-09-14T15:18:23Z</time></trkpt>
<trkpt lat="46.48276" lon="6.7772"><ele>589.2</ele><time>2016-09-14T15:18:25Z</time></trkpt>
<trkpt lat="46.48288" lon="6.77686"><ele>587.4</ele><time>2016-09-14T15:18:28Z</time></trkpt>
<trkpt lat="46.48296" lon="6.77663"><ele>585.8</ele><time>2016-09-14T15:18:30Z</time></trkpt>
<trkpt lat="46.48304" lon="6.77639"><ele>584.2</ele><time>2016-09-14T15:18:32Z</time></trkpt>
<trkpt lat="46.48311" lon="6.77619"><ele>583</ele><time>2016-09-14T15:18:34Z</time></trkpt>
<trkpt lat="46.48318" lon="6.77599"><ele>582</ele><time>2016-09-14T15:18:37Z</time></trkpt>
<trkpt lat="46.48321" lon="6.77587"><ele>582</ele><time>2016-09-14T15:18:41Z</time></trkpt>
<trkpt lat="46.48311" lon="6.77571"><ele>580.4</ele><time>2016-09-14T15:18:57Z</time></trkpt>
<trkpt lat="46.48289" lon="6.77583"><ele>579.6</ele><time>2016-09-14T15:19:01Z</time></trkpt>
<trkpt lat="46.48271" lon="6.77591"><ele>579.4</ele><time>2016-09-14T15:19:04Z</time></trkpt>
<trkpt lat="46.48264" lon="6.77593"><ele>579.4</ele><time>2016-09-14T15:19:05Z</time></trkpt>
<trkpt lat="46.48258" lon="6.77595"><ele>579.2</ele><time>2016-09-14T15:19:06Z</time></trkpt>
<trkpt lat="46.48241" lon="6.77587"><ele>578.6</ele><time>2016-09-14T15:19:09Z</time></trkpt>
<trkpt lat="46.48228" lon="6.77564"><ele>577.2</ele><time>2016-09-14T15:19:12Z</time></trkpt>
<trkpt lat="46.48213" lon="6.77534"><ele>575.8</ele><time>2016-09-14T15:19:15Z</time></trkpt>
<trkpt lat="46.48203" lon="6.77513"><ele>575</ele><time>2016-09-14T15:19:17Z</time></trkpt>
<trkpt lat="46.4819" lon="6.77493"><ele>574.4</ele><time>2016-09-14T15:19:19Z</time></trkpt>
<trkpt lat="46.48177" lon="6.77473"><ele>574.2</ele><time>2016-09-14T15:19:21Z</time></trkpt>
<trkpt lat="46.48162" lon="6.77454"><ele>573.6</ele><time>2016-09-14T15:19:23Z</time></trkpt>
<trkpt lat="46.48149" lon="6.77433"><ele>573.2</ele><time>2016-09-14T15:19:25Z</time></trkpt>
<trkpt lat="46.48137" lon="6.77409"><ele>572.8</ele><time>2016-09-14T15:19:27Z</time></trkpt>
<trkpt lat="46.48126" lon="6.77387"><ele>572.8</ele><time>2016-09-14T15:19:29Z</time></trkpt>
<trkpt lat="46.48119" lon="6.77377"><ele>572.8</ele><time>2016-09-14T15:19:30Z</time></trkpt>
<trkpt lat="46.48095" lon="6.77362"><ele>573</ele><time>2016-09-14T15:19:33Z</time></trkpt>
<trkpt lat="46.48087" lon="6.77362"><ele>573</ele><time>2016-09-14T15:19:34Z</time></trkpt>
<trkpt lat="46.48061" lon="6.77374"><ele>572.6</ele><time>2016-09-14T15:19:37Z</time></trkpt>
<trkpt lat="46.48052" lon="6.77379"><ele>572.6</ele><time>2016-09-14T15:19:38Z</time></trkpt>
<trkpt lat="46.48044" lon="6.77383"><ele>572.8</ele><time>2016-09-14T15:19:39Z</time></trkpt>
<trkpt lat="46.4802" lon="6.77373"><ele>572.2</ele><time>2016-09-14T15:19:42Z</time></trkpt>
<trkpt lat="46.48008" lon="6.77342"><ele>572</ele><time>2016-09-14T15:19:45Z</time></trkpt>
<trkpt lat="46.48006" lon="6.77305"><ele>570.6</ele><time>2016-09-14T15:19:48Z</time></trkpt>
<trkpt lat="46.4801" lon="6.77279"><ele>569</ele><time>2016-09-14T15:19:50Z</time></trkpt>
<trkpt lat="46.48014" lon="6.77252"><ele>568</ele><time>2016-09-14T15:19:52Z</time></trkpt>
<trkpt lat="46.48018" lon="6.77224"><ele>567</ele><time>2016-09-14T15:19:54Z</time></trkpt>
<trkpt lat="46.48023" lon="6.77196"><ele>565.8</ele><time>2016-09-14T15:19:56Z</time></trkpt>
<trkpt lat="46.48026" lon="6.77166"><ele>564.6</ele><time>2016-09-14T15:19:58Z</time></trkpt>
<trkpt lat="46.48028" lon="6.77136"><ele>563.6</ele><time>2016-09-14T15:20:00Z</time></trkpt>
<trkpt lat="46.4803" lon="6.77107"><ele>562.4</ele><time>2016-09-14T15:20:02Z</time></trkpt>
<trkpt lat="46.48033" lon="6.77077"><ele>561</ele><time>2016-09-14T15:20:04Z</time></trkpt>
<trkpt lat="46.48036" lon="6.77063"><ele>560.4</ele><time>2016-09-14T15:20:05Z</time></trkpt>
<trkpt lat="46.48043" lon="6.77037"><ele>559.6</ele><time>2016-09-14T15:20:07Z</time></trkpt>
<trkpt lat="46.48046" lon="6.77023"><ele>559.2</ele><time>2016-09-14T15:20:08Z</time></trkpt>
<trkpt lat="46.48048" lon="6.76996"><ele>558.4</ele><time>2016-09-14T15:20:10Z</time></trkpt>
<trkpt lat="46.48048" lon="6.76968"><ele>557.4</ele><time>2016-09-14T15:20:12Z</time></trkpt>
<trkpt lat="46.48048" lon="6.76954"><ele>556.8</ele><time>2016-09-14T15:20:13Z</time></trkpt>
<trkpt lat="46.48047" lon="6.76926"><ele>555.6</ele><time>2016-09-14T15:20:15Z</time></trkpt>
<trkpt lat="46.48048" lon="6.76899"><ele>554.2</ele><time>2016-09-14T15:20:17Z</time></trkpt>
<trkpt lat="46.48051" lon="6.76885"><ele>553.8</ele><time>2016-09-14T15:20:18Z</time></trkpt>
<trkpt lat="46.48055" lon="6.76858"><ele>552.8</ele><time>2016-09-14T15:20:20Z</time></trkpt>
<trkpt lat="46.48055" lon="6.76832"><ele>551.6</ele><time>2016-09-14T15:20:22Z</time></trkpt>
<trkpt lat="46.48048" lon="6.76807"><ele>550.8</ele><time>2016-09-14T15:20:24Z</time></trkpt>
<trkpt lat="46.48039" lon="6.76783"><ele>549.8</ele><time>2016-09-14T15:20:26Z</time></trkpt>
<trkpt lat="46.48034" lon="6.7677"><ele>549.4</ele><time>2016-09-14T15:20:27Z</time></trkpt>
<trkpt lat="46.48031" lon="6.76741"><ele>548.8</ele><time>2016-09-14T15:20:29Z</time></trkpt>
<trkpt lat="46.48035" lon="6.76711"><ele>547.2</ele><time>2016-09-14T15:20:31Z</time></trkpt>
<trkpt lat="46.48044" lon="6.76682"><ele>545.6</ele><time>2016-09-14T15:20:33Z</time></trkpt>
<trkpt lat="46.48048" lon="6.76668"><ele>544.8</ele><time>2016-09-14T15:20:34Z</time></trkpt>
<trkpt lat="46.48057" lon="6.76637"><ele>543</ele><time>2016-09-14T15:20:36Z</time></trkpt>
<trkpt lat="46.48065" lon="6.76607"><ele>541.4</ele><time>2016-09-14T15:20:38Z</time></trkpt>
<trkpt lat="46.48079" lon="6.76581"><ele>539.8</ele><time>2016-09-14T15:20:40Z</time></trkpt>
<trkpt lat="46.48094" lon="6.76556"><ele>538.4</ele><time>2016-09-14T15:20:42Z</time></trkpt>
<trkpt lat="46.48106" lon="6.76528"><ele>536.8</ele><time>2016-09-14T15:20:44Z</time></trkpt>
<trkpt lat="46.48117" lon="6.76499"><ele>535.2</ele><time>2016-09-14T15:20:46Z</time></trkpt>
<trkpt lat="46.48127" lon="6.76469"><ele>533.8</ele><time>2016-09-14T15:20:48Z</time></trkpt>
<trkpt lat="46.48137" lon="6.7644"><ele>532.6</ele><time>2016-09-14T15:20:50Z</time></trkpt>
<trkpt lat="46.48148" lon="6.7641"><ele>531</ele><time>2016-09-14T15:20:52Z</time></trkpt>
<trkpt lat="46.4816" lon="6.76382"><ele>529.8</ele><time>2016-09-14T15:20:54Z</time></trkpt>
<trkpt lat="46.48173" lon="6.76355"><ele>528.6</ele><time>2016-09-14T15:20:56Z</time></trkpt>
<trkpt lat="46.48186" lon="6.76328"><ele>527</ele><time>2016-09-14T15:20:58Z</time></trkpt>
<trkpt lat="46.48199" lon="6.76301"><ele>526</ele><time>2016-09-14T15:21:00Z</time></trkpt>
<trkpt lat="46.48211" lon="6.76275"><ele>524.8</ele><time>2016-09-14T15:21:02Z</time></trkpt>
<trkpt lat="46.48224" lon="6.76249"><ele>523.6</ele><time>2016-09-14T15:21:04Z</time></trkpt>
<trkpt lat="46.48237" lon="6.76224"><ele>522.4</ele><time>2016-09-14T15:21:06Z</time></trkpt>
<trkpt lat="46.48252" lon="6.76201"><ele>521.2</ele><time>2016-09-14T15:21:08Z</time></trkpt>
<trkpt lat="46.48268" lon="6.76178"><ele>520</ele><time>2016-09-14T15:21:10Z</time></trkpt>
<trkpt lat="46.48285" lon="6.76154"><ele>518.4</ele><time>2016-09-14T15:21:12Z</time></trkpt>
<trkpt lat="46.483" lon="6.76128"><ele>516.8</ele><time>2016-09-14T15:21:14Z</time></trkpt>
<trkpt lat="46.48314" lon="6.76102"><ele>515.2</ele><time>2016-09-14T15:21:16Z</time></trkpt>
<trkpt lat="46.48329" lon="6.76077"><ele>513.6</ele><time>2016-09-14T15:21:18Z</time></trkpt>
<trkpt lat="46.48345" lon="6.76054"><ele>512.4</ele><time>2016-09-14T15:21:20Z</time></trkpt>
<trkpt lat="46.48363" lon="6.76033"><ele>511.6</ele><time>2016-09-14T15:21:22Z</time></trkpt>
<trkpt lat="46.48379" lon="6.76011"><ele>510.4</ele><time>2016-09-14T15:21:24Z</time></trkpt>
<trkpt lat="46.48395" lon="6.75987"><ele>509.2</ele><time>2016-09-14T15:21:26Z</time></trkpt>
<trkpt lat="46.4841" lon="6.75963"><ele>507.8</ele><time>2016-09-14T15:21:28Z</time></trkpt>
<trkpt lat="46.48418" lon="6.75952"><ele>507.2</ele><time>2016-09-14T15:21:29Z</time></trkpt>
<trkpt lat="46.48437" lon="6.75933"><ele>506</ele><time>2016-09-14T15:21:31Z</time></trkpt>
<trkpt lat="46.48455" lon="6.75915"><ele>505</ele><time>2016-09-14T15:21:33Z</time></trkpt>
<trkpt lat="46.48472" lon="6.75895"><ele>504</ele><time>2016-09-14T15:21:35Z</time></trkpt>
<trkpt lat="46.48487" lon="6.75872"><ele>503</ele><time>2016-09-14T15:21:37Z</time></trkpt>
<trkpt lat="46.48502" lon="6.75849"><ele>501.2</ele><time>2016-09-14T15:21:39Z</time></trkpt>
<trkpt lat="46.48517" lon="6.75825"><ele>499.2</ele><time>2016-09-14T15:21:41Z</time></trkpt>
<trkpt lat="46.48531" lon="6.75801"><ele>497.6</ele><time>2016-09-14T15:21:43Z</time></trkpt>
<trkpt lat="46.48546" lon="6.75776"><ele>496</ele><time>2016-09-14T15:21:45Z</time></trkpt>
<trkpt lat="46.48561" lon="6.75751"><ele>494.4</ele><time>2016-09-14T15:21:47Z</time></trkpt>
<trkpt lat="46.48576" lon="6.75726"><ele>492.8</ele><time>2016-09-14T15:21:49Z</time></trkpt>
<trkpt lat="46.4859" lon="6.75701"><ele>491.4</ele><time>2016-09-14T15:21:51Z</time></trkpt>
<trkpt lat="46.48605" lon="6.75675"><ele>489.8</ele><time>2016-09-14T15:21:53Z</time></trkpt>
<trkpt lat="46.48613" lon="6.75661"><ele>489</ele><time>2016-09-14T15:21:54Z</time></trkpt>
<trkpt lat="46.48628" lon="6.75633"><ele>487.2</ele><time>2016-09-14T15:21:56Z</time></trkpt>
<trkpt lat="46.48644" lon="6.75604"><ele>485.2</ele><time>2016-09-14T15:21:58Z</time></trkpt>
<trkpt lat="46.4866" lon="6.75576"><ele>483.8</ele><time>2016-09-14T15:22:00Z</time></trkpt>
<trkpt lat="46.48677" lon="6.75549"><ele>482.4</ele><time>2016-09-14T15:22:02Z</time></trkpt>
<trkpt lat="46.48694" lon="6.75524"><ele>481.6</ele><time>2016-09-14T15:22:04Z</time></trkpt>
<trkpt lat="46.48712" lon="6.75501"><ele>481</ele><time>2016-09-14T15:22:06Z</time></trkpt>
<trkpt lat="46.48731" lon="6.7548"><ele>480.4</ele><time>2016-09-14T15:22:08Z</time></trkpt>
<trkpt lat="46.4875" lon="6.75458"><ele>480</ele><time>2016-09-14T15:22:10Z</time></trkpt>
<trkpt lat="46.48767" lon="6.75436"><ele>479.4</ele><time>2016-09-14T15:22:12Z</time></trkpt>
<trkpt lat="46.48782" lon="6.75412"><ele>478.8</ele><time>2016-09-14T15:22:14Z</time></trkpt>
<trkpt lat="46.48795" lon="6.75388"><ele>478.2</ele><time>2016-09-14T15:22:16Z</time></trkpt>
<trkpt lat="46.48808" lon="6.75364"><ele>477.6</ele><time>2016-09-14T15:22:18Z</time></trkpt>
<trkpt lat="46.4882" lon="6.7534"><ele>476.8</ele><time>2016-09-14T15:22:20Z</time></trkpt>
<trkpt lat="46.48832" lon="6.75317"><ele>476.2</ele><time>2016-09-14T15:22:22Z</time></trkpt>
<trkpt lat="46.48843" lon="6.75294"><ele>475.4</ele><time>2016-09-14T15:22:24Z</time></trkpt>
<trkpt lat="46.48855" lon="6.75272"><ele>474.8</ele><time>2016-09-14T15:22:26Z</time></trkpt>
<trkpt lat="46.48868" lon="6.7525"><ele>474.2</ele><time>2016-09-14T15:22:28Z</time></trkpt>
<trkpt lat="46.48875" lon="6.75241"><ele>473.8</ele><time>2016-09-14T15:22:29Z</time></trkpt>
<trkpt lat="46.48891" lon="6.75225"><ele>473</ele><time>2016-09-14T15:22:31Z</time></trkpt>
<trkpt lat="46.48899" lon="6.75217"><ele>472.8</ele><time>2016-09-14T15:22:32Z</time></trkpt>
<trkpt lat="46.48907" lon="6.7521"><ele>472.8</ele><time>2016-09-14T15:22:33Z</time></trkpt>
<trkpt lat="46.48915" lon="6.75204"><ele>472.6</ele><time>2016-09-14T15:22:34Z</time></trkpt>
<trkpt lat="46.48923" lon="6.75198"><ele>472.2</ele><time>2016-09-14T15:22:35Z</time></trkpt>
<trkpt lat="46.48931" lon="6.7519"><ele>471.6</ele><time>2016-09-14T15:22:36Z</time></trkpt>
<trkpt lat="46.48944" lon="6.75157"><ele>470.8</ele><time>2016-09-14T15:22:39Z</time></trkpt>
<trkpt lat="46.48946" lon="6.75131"><ele>469.8</ele><time>2016-09-14T15:22:41Z</time></trkpt>
<trkpt lat="46.48947" lon="6.75105"><ele>468.6</ele><time>2016-09-14T15:22:43Z</time></trkpt>
<trkpt lat="46.48952" lon="6.75079"><ele>467.8</ele><time>2016-09-14T15:22:45Z</time></trkpt>
<trkpt lat="46.48962" lon="6.75056"><ele>467.2</ele><time>2016-09-14T15:22:47Z</time></trkpt>
<trkpt lat="46.48969" lon="6.75045"><ele>467.2</ele><time>2016-09-14T15:22:48Z</time></trkpt>
<trkpt lat="46.48975" lon="6.75036"><ele>466.8</ele><time>2016-09-14T15:22:49Z</time></trkpt>
<trkpt lat="46.48982" lon="6.75027"><ele>466.6</ele><time>2016-09-14T15:22:50Z</time></trkpt>
<trkpt lat="46.48996" lon="6.75009"><ele>466</ele><time>2016-09-14T15:22:52Z</time></trkpt>
<trkpt lat="46.49008" lon="6.7499"><ele>465.6</ele><time>2016-09-14T15:22:54Z</time></trkpt>
<trkpt lat="46.49018" lon="6.7496"><ele>463</ele><time>2016-09-14T15:22:57Z</time></trkpt>
<trkpt lat="46.4902" lon="6.7495"><ele>462.6</ele><time>2016-09-14T15:22:58Z</time></trkpt>
<trkpt lat="46.49027" lon="6.74923"><ele>461.8</ele><time>2016-09-14T15:23:02Z</time></trkpt>
<trkpt lat="46.49029" lon="6.74917"><ele>461.6</ele><time>2016-09-14T15:23:06Z</time></trkpt>
<trkpt lat="46.49032" lon="6.74923"><ele>461.8</ele><time>2016-09-14T15:23:14Z</time></trkpt>
<trkpt lat="46.49026" lon="6.7494"><ele>461.6</ele><time>2016-09-14T15:23:21Z</time></trkpt>
<trkpt lat="46.49026" lon="6.74942"><ele>461.4</ele><time>2016-09-14T15:23:23Z</time></trkpt>
<trkpt lat="46.49023" lon="6.74945"><ele>461.4</ele><time>2016-09-14T15:23:27Z</time></trkpt>
<trkpt lat="46.49019" lon="6.74951"><ele>461.8</ele><time>2016-09-14T15:23:34Z</time></trkpt>
<trkpt lat="46.49017" lon="6.74948"><ele>461.8</ele><time>2016-09-14T15:23:38Z</time></trkpt>
<trkpt lat="46.49017" lon="6.74947"><ele>461.8</ele><time>2016-09-14T15:23:39Z</time></trkpt>
<trkpt lat="46.49019" lon="6.74945"><ele>461.8</ele><time>2016-09-14T15:23:42Z</time></trkpt>
<trkpt lat="46.49021" lon="6.74941"><ele>462</ele><time>2016-09-14T15:23:51Z</time></trkpt>
<trkpt lat="46.49024" lon="6.74936"><ele>462</ele><time>2016-09-14T15:23:59Z</time></trkpt>
<trkpt lat="46.49027" lon="6.74934"><ele>462.4</ele><time>2016-09-14T15:24:02Z</time></trkpt>
<trkpt lat="46.49029" lon="6.74934"><ele>462.4</ele><time>2016-09-14T15:24:04Z</time></trkpt>
<trkpt lat="46.49029" lon="6.74933"><ele>462.6</ele><time>2016-09-14T15:24:08Z</time></trkpt>
<trkpt lat="46.49029" lon="6.74934"><ele>463</ele><time>2016-09-14T15:24:13Z</time></trkpt>
<trkpt lat="46.49029" lon="6.74935"><ele>463.2</ele><time>2016-09-14T15:24:18Z</time></trkpt>
<trkpt lat="46.49029" lon="6.74935"><ele>463</ele><time>2016-09-14T15:24:23Z</time></trkpt>
<trkpt lat="46.49029" lon="6.74935"><ele>463.2</ele><time>2016-09-14T15:24:25Z</time></trkpt>
<trkpt lat="46.49029" lon="6.74935"><ele>463.2</ele><time>2016-09-14T15:24:26Z</time></trkpt>
<trkpt lat="46.49029" lon="6.74935"><ele>463.2</ele><time>2016-09-14T15:24:28Z</time></trkpt>
<trkpt lat="46.49026" lon="6.7492"><ele>463.4</ele><time>2016-09-14T15:24:33Z</time></trkpt>
<trkpt lat="46.49027" lon="6.74908"><ele>463.6</ele><time>2016-09-14T15:24:35Z</time></trkpt>
<trkpt lat="46.49038" lon="6.74883"><ele>463.6</ele><time>2016-09-14T15:24:39Z</time></trkpt>
<trkpt lat="46.49053" lon="6.74872"><ele>463.4</ele><time>2016-09-14T15:24:42Z</time></trkpt>
<trkpt lat="46.49058" lon="6.74869"><ele>463.2</ele><time>2016-09-14T15:24:43Z</time></trkpt>
<trkpt lat="46.49077" lon="6.74863"><ele>462.6</ele><time>2016-09-14T15:24:46Z</time></trkpt>
<trkpt lat="46.49083" lon="6.7486"><ele>462.4</ele><time>2016-09-14T15:24:47Z</time></trkpt>
<trkpt lat="46.49099" lon="6.74851"><ele>462</ele><time>2016-09-14T15:24:50Z</time></trkpt>
<trkpt lat="46.49116" lon="6.74829"><ele>461.4</ele><time>2016-09-14T15:24:54Z</time></trkpt>
<trkpt lat="46.49132" lon="6.74807"><ele>458.4</ele><time>2016-09-14T15:24:57Z</time></trkpt>
<trkpt lat="46.49143" lon="6.74791"><ele>458</ele><time>2016-09-14T15:24:59Z</time></trkpt>
<trkpt lat="46.49158" lon="6.74767"><ele>455.4</ele><time>2016-09-14T15:25:02Z</time></trkpt>
<trkpt lat="46.49168" lon="6.7475"><ele>454</ele><time>2016-09-14T15:25:04Z</time></trkpt>
<trkpt lat="46.49176" lon="6.7473"><ele>453.2</ele><time>2016-09-14T15:25:06Z</time></trkpt>
<trkpt lat="46.49185" lon="6.74698"><ele>453.2</ele><time>2016-09-14T15:25:09Z</time></trkpt>
<trkpt lat="46.4919" lon="6.74666"><ele>454.2</ele><time>2016-09-14T15:25:12Z</time></trkpt>
<trkpt lat="46.49193" lon="6.74636"><ele>455.4</ele><time>2016-09-14T15:25:15Z</time></trkpt>
<trkpt lat="46.49196" lon="6.74609"><ele>456.6</ele><time>2016-09-14T15:25:18Z</time></trkpt>
<trkpt lat="46.49201" lon="6.74578"><ele>457.4</ele><time>2016-09-14T15:25:22Z</time></trkpt>
<trkpt lat="46.49203" lon="6.74571"><ele>457.8</ele><time>2016-09-14T15:25:23Z</time></trkpt>
<trkpt lat="46.49216" lon="6.74549"><ele>460.4</ele><time>2016-09-14T15:25:27Z</time></trkpt>
<trkpt lat="46.4922" lon="6.74545"><ele>461.2</ele><time>2016-09-14T15:25:28Z</time></trkpt>
<trkpt lat="46.49237" lon="6.74527"><ele>461.6</ele><time>2016-09-14T15:25:32Z</time></trkpt>
<trkpt lat="46.49252" lon="6.74505"><ele>461</ele><time>2016-09-14T15:25:36Z</time></trkpt>
<trkpt lat="46.49257" lon="6.74478"><ele>460.4</ele><time>2016-09-14T15:25:39Z</time></trkpt>
<trkpt lat="46.49249" lon="6.7445"><ele>459.6</ele><time>2016-09-14T15:25:42Z</time></trkpt>
<trkpt lat="46.49246" lon="6.74442"><ele>459.2</ele><time>2016-09-14T15:25:43Z</time></trkpt>
<trkpt lat="46.49236" lon="6.74421"><ele>459.2</ele><time>2016-09-14T15:25:46Z</time></trkpt>
<trkpt lat="46.49231" lon="6.74393"><ele>460</ele><time>2016-09-14T15:25:50Z</time></trkpt>
<trkpt lat="46.49231" lon="6.74385"><ele>460.2</ele><time>2016-09-14T15:25:51Z</time></trkpt>
<trkpt lat="46.49232" lon="6.74369"><ele>460.2</ele><time>2016-09-14T15:25:53Z</time></trkpt>
<trkpt lat="46.49243" lon="6.74338"><ele>460.6</ele><time>2016-09-14T15:25:57Z</time></trkpt>
<trkpt lat="46.49255" lon="6.74314"><ele>459.2</ele><time>2016-09-14T15:26:00Z</time></trkpt>
<trkpt lat="46.49258" lon="6.74305"><ele>459</ele><time>2016-09-14T15:26:01Z</time></trkpt>
<trkpt lat="46.49264" lon="6.74275"><ele>458</ele><time>2016-09-14T15:26:04Z</time></trkpt>
<trkpt lat="46.49262" lon="6.74242"><ele>456.8</ele><time>2016-09-14T15:26:07Z</time></trkpt>
<trkpt lat="46.4926" lon="6.74231"><ele>456.2</ele><time>2016-09-14T15:26:08Z</time></trkpt>
<trkpt lat="46.49257" lon="6.74197"><ele>455.4</ele><time>2016-09-14T15:26:11Z</time></trkpt>
<trkpt lat="46.4926" lon="6.74162"><ele>454.4</ele><time>2016-09-14T15:26:14Z</time></trkpt>
<trkpt lat="46.49266" lon="6.74132"><ele>453.2</ele><time>2016-09-14T15:26:17Z</time></trkpt>
<trkpt lat="46.49273" lon="6.74105"><ele>452.4</ele><time>2016-09-14T15:26:23Z</time></trkpt>
<trkpt lat="46.49269" lon="6.74113"><ele>451.8</ele><time>2016-09-14T15:26:31Z</time></trkpt>
<trkpt lat="46.49268" lon="6.7413"><ele>452.4</ele><time>2016-09-14T15:26:44Z</time></trkpt>
<trkpt lat="46.49269" lon="6.74127"><ele>452.2</ele><time>2016-09-14T15:26:47Z</time></trkpt>
<trkpt lat="46.49269" lon="6.74127"><ele>452.2</ele><time>2016-09-14T15:26:49Z</time></trkpt>
<trkpt lat="46.49269" lon="6.74127"><ele>452</ele><time>2016-09-14T15:27:10Z</time></trkpt>
<trkpt lat="46.49269" lon="6.74126"><ele>452.2</ele><time>2016-09-14T15:27:18Z</time></trkpt>
<trkpt lat="46.49269" lon="6.74126"><ele>452.2</ele><time>2016-09-14T15:27:19Z</time></trkpt>
<trkpt lat="46.49273" lon="6.74101"><ele>452</ele><time>2016-09-14T15:27:27Z</time></trkpt>
<trkpt lat="46.49279" lon="6.74075"><ele>451.4</ele><time>2016-09-14T15:27:30Z</time></trkpt>
<trkpt lat="46.49285" lon="6.74041"><ele>450.6</ele><time>2016-09-14T15:27:33Z</time></trkpt>
<trkpt lat="46.49286" lon="6.74007"><ele>449.8</ele><time>2016-09-14T15:27:36Z</time></trkpt>
<trkpt lat="46.49283" lon="6.73974"><ele>448.8</ele><time>2016-09-14T15:27:39Z</time></trkpt>
<trkpt lat="46.49281" lon="6.73941"><ele>447.8</ele><time>2016-09-14T15:27:42Z</time></trkpt>
<trkpt lat="46.49281" lon="6.73904"><ele>446.4</ele><time>2016-09-14T15:27:45Z</time></trkpt>
<trkpt lat="46.49283" lon="6.73877"><ele>445.4</ele><time>2016-09-14T15:27:47Z</time></trkpt>
<trkpt lat="46.49288" lon="6.73851"><ele>444.8</ele><time>2016-09-14T15:27:49Z</time></trkpt>
<trkpt lat="46.49294" lon="6.73826"><ele>444.6</ele><time>2016-09-14T15:27:51Z</time></trkpt>
<trkpt lat="46.49303" lon="6.73799"><ele>444.4</ele><time>2016-09-14T15:27:54Z</time></trkpt>
<trkpt lat="46.49314" lon="6.73772"><ele>443.8</ele><time>2016-09-14T15:27:58Z</time></trkpt>
<trkpt lat="46.4932" lon="6.73757"><ele>443.6</ele><time>2016-09-14T15:28:00Z</time></trkpt>
<trkpt lat="46.49328" lon="6.73732"><ele>443</ele><time>2016-09-14T15:28:03Z</time></trkpt>
<trkpt lat="46.49333" lon="6.73706"><ele>443</ele><time>2016-09-14T15:28:06Z</time></trkpt>
<trkpt lat="46.49336" lon="6.73676"><ele>443</ele><time>2016-09-14T15:28:09Z</time></trkpt>
<trkpt lat="46.49337" lon="6.73655"><ele>443</ele><time>2016-09-14T15:28:11Z</time></trkpt>
<trkpt lat="46.49339" lon="6.73625"><ele>443.6</ele><time>2016-09-14T15:28:14Z</time></trkpt>
<trkpt lat="46.49342" lon="6.73595"><ele>443.6</ele><time>2016-09-14T15:28:17Z</time></trkpt>
<trkpt lat="46.49342" lon="6.73566"><ele>443.2</ele><time>2016-09-14T15:28:20Z</time></trkpt>
<trkpt lat="46.49343" lon="6.73536"><ele>442.8</ele><time>2016-09-14T15:28:23Z</time></trkpt>
<trkpt lat="46.49342" lon="6.73526"><ele>442.8</ele><time>2016-09-14T15:28:24Z</time></trkpt>
<trkpt lat="46.49344" lon="6.7349"><ele>441.4</ele><time>2016-09-14T15:28:27Z</time></trkpt>
<trkpt lat="46.49355" lon="6.7346"><ele>438.8</ele><time>2016-09-14T15:28:30Z</time></trkpt>
<trkpt lat="46.49363" lon="6.73446"><ele>438</ele><time>2016-09-14T15:28:32Z</time></trkpt>
<trkpt lat="46.49371" lon="6.73434"><ele>437.4</ele><time>2016-09-14T15:28:34Z</time></trkpt>
<trkpt lat="46.49373" lon="6.7341"><ele>436.2</ele><time>2016-09-14T15:28:37Z</time></trkpt>
<trkpt lat="46.49359" lon="6.73387"><ele>435.2</ele><time>2016-09-14T15:28:40Z</time></trkpt>
<trkpt lat="46.49337" lon="6.73373"><ele>433.4</ele><time>2016-09-14T15:28:43Z</time></trkpt>
<trkpt lat="46.4932" lon="6.73365"><ele>431.8</ele><time>2016-09-14T15:28:45Z</time></trkpt>
<trkpt lat="46.49301" lon="6.73357"><ele>430.6</ele><time>2016-09-14T15:28:47Z</time></trkpt>
<trkpt lat="46.49281" lon="6.73345"><ele>429.2</ele><time>2016-09-14T15:28:49Z</time></trkpt>
<trkpt lat="46.49263" lon="6.73327"><ele>428</ele><time>2016-09-14T15:28:51Z</time></trkpt>
<trkpt lat="46.49248" lon="6.73303"><ele>426.8</ele><time>2016-09-14T15:28:53Z</time></trkpt>
<trkpt lat="46.49241" lon="6.7329"><ele>426</ele><time>2016-09-14T15:28:54Z</time></trkpt>
<trkpt lat="46.49228" lon="6.73263"><ele>424.4</ele><time>2016-09-14T15:28:56Z</time></trkpt>
<trkpt lat="46.49213" lon="6.73238"><ele>423</ele><time>2016-09-14T15:28:58Z</time></trkpt>
<trkpt lat="46.49196" lon="6.73215"><ele>421.8</ele><time>2016-09-14T15:29:00Z</time></trkpt>
<trkpt lat="46.49178" lon="6.73192"><ele>421</ele><time>2016-09-14T15:29:02Z</time></trkpt>
<trkpt lat="46.49169" lon="6.7318"><ele>420.4</ele><time>2016-09-14T15:29:03Z</time></trkpt>
<trkpt lat="46.49155" lon="6.73151"><ele>419</ele><time>2016-09-14T15:29:05Z</time></trkpt>
<trkpt lat="46.49146" lon="6.73118"><ele>417.8</ele><time>2016-09-14T15:29:07Z</time></trkpt>
<trkpt lat="46.49143" lon="6.73101"><ele>417</ele><time>2016-09-14T15:29:08Z</time></trkpt>
<trkpt lat="46.49135" lon="6.73068"><ele>415.8</ele><time>2016-09-14T15:29:10Z</time></trkpt>
<trkpt lat="46.49122" lon="6.73038"><ele>414.6</ele><time>2016-09-14T15:29:12Z</time></trkpt>
<trkpt lat="46.49105" lon="6.73015"><ele>413.2</ele><time>2016-09-14T15:29:14Z</time></trkpt>
<trkpt lat="46.49085" lon="6.72996"><ele>411.8</ele><time>2016-09-14T15:29:16Z</time></trkpt>
<trkpt lat="46.49074" lon="6.72988"><ele>411</ele><time>2016-09-14T15:29:17Z</time></trkpt>
<trkpt lat="46.49052" lon="6.72973"><ele>409.6</ele><time>2016-09-14T15:29:19Z</time></trkpt>
<trkpt lat="46.49031" lon="6.72957"><ele>408.2</ele><time>2016-09-14T15:29:21Z</time></trkpt>
<trkpt lat="46.4901" lon="6.7294"><ele>406.8</ele><time>2016-09-14T15:29:23Z</time></trkpt>
<trkpt lat="46.4899" lon="6.72919"><ele>405.2</ele><time>2016-09-14T15:29:25Z</time></trkpt>
<trkpt lat="46.48973" lon="6.72892"><ele>403.4</ele><time>2016-09-14T15:29:27Z</time></trkpt>
<trkpt lat="46.48962" lon="6.7286"><ele>401.8</ele><time>2016-09-14T15:29:29Z</time></trkpt>
<trkpt lat="46.48956" lon="6.72828"><ele>400.4</ele><time>2016-09-14T15:29:31Z</time></trkpt>
<trkpt lat="46.48952" lon="6.728"><ele>399.2</ele><time>2016-09-14T15:29:33Z</time></trkpt>
<trkpt lat="46.48949" lon="6.72773"><ele>397.8</ele><time>2016-09-14T15:29:35Z</time></trkpt>
<trkpt lat="46.48946" lon="6.72747"><ele>396.8</ele><time>2016-09-14T15:29:37Z</time></trkpt>
<trkpt lat="46.48941" lon="6.72712"><ele>395.6</ele><time>2016-09-14T15:29:40Z</time></trkpt>
<trkpt lat="46.48938" lon="6.72693"><ele>395.2</ele><time>2016-09-14T15:29:42Z</time></trkpt>
<trkpt lat="46.48921" lon="6.72672"><ele>394</ele><time>2016-09-14T15:29:46Z</time></trkpt>
<trkpt lat="46.48916" lon="6.72667"><ele>393.6</ele><time>2016-09-14T15:29:47Z</time></trkpt>
<trkpt lat="46.48908" lon="6.72637"><ele>393.6</ele><time>2016-09-14T15:29:51Z</time></trkpt>
<trkpt lat="46.48908" lon="6.72629"><ele>393.8</ele><time>2016-09-14T15:29:52Z</time></trkpt>
<trkpt lat="46.48911" lon="6.72603"><ele>394.8</ele><time>2016-09-14T15:29:56Z</time></trkpt>
<trkpt lat="46.48911" lon="6.72591"><ele>395.2</ele><time>2016-09-14T15:29:58Z</time></trkpt>
<trkpt lat="46.48912" lon="6.72575"><ele>396.2</ele><time>2016-09-14T15:30:01Z</time></trkpt>
<trkpt lat="46.48908" lon="6.72547"><ele>397.4</ele><time>2016-09-14T15:30:07Z</time></trkpt>
<trkpt lat="46.48907" lon="6.72543"><ele>397.6</ele><time>2016-09-14T15:30:08Z</time></trkpt>
<trkpt lat="46.48907" lon="6.7253"><ele>398.2</ele><time>2016-09-14T15:30:11Z</time></trkpt>
<trkpt lat="46.48907" lon="6.72508"><ele>399.8</ele><time>2016-09-14T15:30:17Z</time></trkpt>
<trkpt lat="46.4891" lon="6.72495"><ele>400.6</ele><time>2016-09-14T15:30:21Z</time></trkpt>
<trkpt lat="46.48913" lon="6.72486"><ele>401.4</ele><time>2016-09-14T15:30:24Z</time></trkpt>
<trkpt lat="46.48919" lon="6.72472"><ele>402.6</ele><time>2016-09-14T15:30:29Z</time></trkpt>
<trkpt lat="46.48926" lon="6.72454"><ele>404</ele><time>2016-09-14T15:30:35Z</time></trkpt>
<trkpt lat="46.48935" lon="6.7243"><ele>405.6</ele><time>2016-09-14T15:30:43Z</time></trkpt>
<trkpt lat="46.48942" lon="6.72406"><ele>407.8</ele><time>2016-09-14T15:30:51Z</time></trkpt>
<trkpt lat="46.48944" lon="6.72378"><ele>410.4</ele><time>2016-09-14T15:31:00Z</time></trkpt>
<trkpt lat="46.48941" lon="6.72363"><ele>411.8</ele><time>2016-09-14T15:31:05Z</time></trkpt>
<trkpt lat="46.4894" lon="6.72353"><ele>412.4</ele><time>2016-09-14T15:31:08Z</time></trkpt>
<trkpt lat="46.48935" lon="6.7232"><ele>415</ele><time>2016-09-14T15:31:18Z</time></trkpt>
<trkpt lat="46.48932" lon="6.72302"><ele>416.4</ele><time>2016-09-14T15:31:23Z</time></trkpt>
<trkpt lat="46.48929" lon="6.72273"><ele>418.2</ele><time>2016-09-14T15:31:31Z</time></trkpt>
<trkpt lat="46.48929" lon="6.72246"><ele>419.4</ele><time>2016-09-14T15:31:38Z</time></trkpt>
<trkpt lat="46.48932" lon="6.72218"><ele>420.2</ele><time>2016-09-14T15:31:45Z</time></trkpt>
<trkpt lat="46.48937" lon="6.72191"><ele>421</ele><time>2016-09-14T15:31:53Z</time></trkpt>
<trkpt lat="46.48945" lon="6.72167"><ele>421.6</ele><time>2016-09-14T15:32:00Z</time></trkpt>
<trkpt lat="46.48959" lon="6.72148"><ele>421.6</ele><time>2016-09-14T15:32:06Z</time></trkpt>
<trkpt lat="46.48974" lon="6.7213"><ele>421.2</ele><time>2016-09-14T15:32:12Z</time></trkpt>
<trkpt lat="46.48998" lon="6.72106"><ele>421.8</ele><time>2016-09-14T15:32:21Z</time></trkpt>
<trkpt lat="46.49014" lon="6.72089"><ele>423.6</ele><time>2016-09-14T15:32:28Z</time></trkpt>
<trkpt lat="46.4903" lon="6.72075"><ele>425.2</ele><time>2016-09-14T15:32:35Z</time></trkpt>
<trkpt lat="46.49046" lon="6.72058"><ele>427</ele><time>2016-09-14T15:32:43Z</time></trkpt>
<trkpt lat="46.49058" lon="6.72038"><ele>429.2</ele><time>2016-09-14T15:32:52Z</time></trkpt>
<trkpt lat="46.49061" lon="6.7203"><ele>429.6</ele><time>2016-09-14T15:32:55Z</time></trkpt>
<trkpt lat="46.49065" lon="6.72017"><ele>431.2</ele><time>2016-09-14T15:33:01Z</time></trkpt>
<trkpt lat="46.49069" lon="6.72002"><ele>433</ele><time>2016-09-14T15:33:07Z</time></trkpt>
<trkpt lat="46.49072" lon="6.71988"><ele>434.6</ele><time>2016-09-14T15:33:13Z</time></trkpt>
<trkpt lat="46.49073" lon="6.71986"><ele>434.8</ele><time>2016-09-14T15:33:14Z</time></trkpt>
<trkpt lat="46.49074" lon="6.7198"><ele>435.6</ele><time>2016-09-14T15:33:16Z</time></trkpt>
<trkpt lat="46.49078" lon="6.71962"><ele>437.6</ele><time>2016-09-14T15:33:23Z</time></trkpt>
<trkpt lat="46.4908" lon="6.71953"><ele>438.4</ele><time>2016-09-14T15:33:26Z</time></trkpt>
<trkpt lat="46.49087" lon="6.71929"><ele>440.6</ele><time>2016-09-14T15:33:36Z</time></trkpt>
<trkpt lat="46.49087" lon="6.71927"><ele>440.8</ele><time>2016-09-14T15:33:37Z</time></trkpt>
<trkpt lat="46.49082" lon="6.7192"><ele>441.4</ele><time>2016-09-14T15:33:41Z</time></trkpt>
<trkpt lat="46.49065" lon="6.71906"><ele>444</ele><time>2016-09-14T15:33:50Z</time></trkpt>
<trkpt lat="46.49049" lon="6.71913"><ele>444</ele><time>2016-09-14T15:33:57Z</time></trkpt>
<trkpt lat="46.4904" lon="6.71936"><ele>443.2</ele><time>2016-09-14T15:34:02Z</time></trkpt>
<trkpt lat="46.49027" lon="6.71963"><ele>442</ele><time>2016-09-14T15:34:07Z</time></trkpt>
<trkpt lat="46.49019" lon="6.71974"><ele>441.4</ele><time>2016-09-14T15:34:09Z</time></trkpt>
<trkpt lat="46.48997" lon="6.71983"><ele>437.6</ele><time>2016-09-14T15:34:13Z</time></trkpt>
<trkpt lat="46.48977" lon="6.71984"><ele>436</ele><time>2016-09-14T15:34:16Z</time></trkpt>
<trkpt lat="46.48965" lon="6.7198"><ele>435.4</ele><time>2016-09-14T15:34:18Z</time></trkpt>
<trkpt lat="46.4896" lon="6.71977"><ele>435</ele><time>2016-09-14T15:34:19Z</time></trkpt>
<trkpt lat="46.48956" lon="6.71975"><ele>434.8</ele><time>2016-09-14T15:34:20Z</time></trkpt>
<trkpt lat="46.48946" lon="6.71971"><ele>434.4</ele><time>2016-09-14T15:34:24Z</time></trkpt>
<trkpt lat="46.48944" lon="6.71972"><ele>433.8</ele><time>2016-09-14T15:34:56Z</time></trkpt>
<trkpt lat="46.48943" lon="6.71971"><ele>433.6</ele><time>2016-09-14T15:35:00Z</time></trkpt>
<trkpt lat="46.48945" lon="6.71967"><ele>433.2</ele><time>2016-09-14T15:35:10Z</time></trkpt>
<trkpt lat="46.48945" lon="6.71967"><ele>433</ele><time>2016-09-14T15:35:12Z</time></trkpt>
<trkpt lat="46.48945" lon="6.71966"><ele>433</ele><time>2016-09-14T15:35:15Z</time></trkpt>
<trkpt lat="46.48945" lon="6.71966"><ele>432.4</ele><time>2016-09-14T15:35:36Z</time></trkpt>
<trkpt lat="46.48945" lon="6.71967"><ele>432.4</ele><time>2016-09-14T15:35:44Z</time></trkpt>
<trkpt lat="46.48945" lon="6.71968"><ele>432.4</ele><time>2016-09-14T15:35:46Z</time></trkpt>
<trkpt lat="46.48943" lon="6.71972"><ele>432.2</ele><time>2016-09-14T15:35:53Z</time></trkpt>
<trkpt lat="46.48944" lon="6.71969"><ele>433.4</ele><time>2016-09-14T15:36:04Z</time></trkpt>
<trkpt lat="46.48945" lon="6.71967"><ele>433.6</ele><time>2016-09-14T15:36:13Z</time></trkpt>
<trkpt lat="46.48946" lon="6.71967"><ele>433.6</ele><time>2016-09-14T15:36:26Z</time></trkpt>
<trkpt lat="46.48945" lon="6.71967"><ele>433.4</ele><time>2016-09-14T15:36:36Z</time></trkpt>
<trkpt lat="46.48944" lon="6.71968"><ele>433.2</ele><time>2016-09-14T15:36:49Z</time></trkpt>
<trkpt lat="46.48944" lon="6.71968"><ele>433.2</ele><time>2016-09-14T15:36:56Z</time></trkpt>
<trkpt lat="46.48944" lon="6.71967"><ele>433</ele><time>2016-09-14T15:37:03Z</time></trkpt>
<trkpt lat="46.48944" lon="6.71966"><ele>432.8</ele><time>2016-09-14T15:37:09Z</time></trkpt>
<trkpt lat="46.48945" lon="6.71967"><ele>432.6</ele><time>2016-09-14T15:37:22Z</time></trkpt>
<trkpt lat="46.48946" lon="6.71967"><ele>433</ele><time>2016-09-14T15:37:29Z</time></trkpt>
<trkpt lat="46.48946" lon="6.71967"><ele>433.2</ele><time>2016-09-14T15:37:34Z</time></trkpt>
<trkpt lat="46.48946" lon="6.7197"><ele>431.8</ele><time>2016-09-14T15:38:10Z</time></trkpt>
<trkpt lat="46.48947" lon="6.71969"><ele>431.8</ele><time>2016-09-14T15:38:15Z</time></trkpt>
<trkpt lat="46.48947" lon="6.71972"><ele>431.8</ele><time>2016-09-14T15:38:31Z</time></trkpt>
<trkpt lat="46.48946" lon="6.71977"><ele>431.6</ele><time>2016-09-14T15:38:35Z</time></trkpt>
<trkpt lat="46.48933" lon="6.71995"><ele>430</ele><time>2016-09-14T15:38:40Z</time></trkpt>
<trkpt lat="46.48914" lon="6.72017"><ele>428.2</ele><time>2016-09-14T15:38:44Z</time></trkpt>
<trkpt lat="46.48905" lon="6.7203"><ele>427.2</ele><time>2016-09-14T15:38:46Z</time></trkpt>
<trkpt lat="46.48895" lon="6.72057"><ele>425.6</ele><time>2016-09-14T15:38:49Z</time></trkpt>
<trkpt lat="46.4889" lon="6.72075"><ele>424.4</ele><time>2016-09-14T15:38:51Z</time></trkpt>
<trkpt lat="46.48879" lon="6.72098"><ele>421.4</ele><time>2016-09-14T15:38:54Z</time></trkpt>
<trkpt lat="46.48876" lon="6.72104"><ele>420.6</ele><time>2016-09-14T15:38:55Z</time></trkpt>
<trkpt lat="46.48865" lon="6.72131"><ele>418.2</ele><time>2016-09-14T15:38:59Z</time></trkpt>
<trkpt lat="46.48858" lon="6.72148"><ele>416.6</ele><time>2016-09-14T15:39:03Z</time></trkpt>
<trkpt lat="46.48854" lon="6.72153"><ele>416.2</ele><time>2016-09-14T15:39:05Z</time></trkpt>
<trkpt lat="46.48848" lon="6.72156"><ele>414.2</ele><time>2016-09-14T15:39:07Z</time></trkpt>
<trkpt lat="46.48843" lon="6.72158"><ele>413</ele><time>2016-09-14T15:39:08Z</time></trkpt>
<trkpt lat="46.48823" lon="6.72162"><ele>408.6</ele><time>2016-09-14T15:39:13Z</time></trkpt>
<trkpt lat="46.48817" lon="6.72154"><ele>406.8</ele><time>2016-09-14T15:39:18Z</time></trkpt>
<trkpt lat="46.48817" lon="6.72149"><ele>406.8</ele><time>2016-09-14T15:39:19Z</time></trkpt>
<trkpt lat="46.48817" lon="6.72144"><ele>406.6</ele><time>2016-09-14T15:39:20Z</time></trkpt>
<trkpt lat="46.48821" lon="6.72118"><ele>405.6</ele><time>2016-09-14T15:39:24Z</time></trkpt>
<trkpt lat="46.48828" lon="6.72086"><ele>404.6</ele><time>2016-09-14T15:39:28Z</time></trkpt>
<trkpt lat="46.48838" lon="6.72056"><ele>404.2</ele><time>2016-09-14T15:39:32Z</time></trkpt>
<trkpt lat="46.48849" lon="6.7203"><ele>403.6</ele><time>2016-09-14T15:39:36Z</time></trkpt>
<trkpt lat="46.4886" lon="6.72008"><ele>403.8</ele><time>2016-09-14T15:39:40Z</time></trkpt>
<trkpt lat="46.48873" lon="6.71986"><ele>404.4</ele><time>2016-09-14T15:39:45Z</time></trkpt>
<trkpt lat="46.48881" lon="6.71973"><ele>404.2</ele><time>2016-09-14T15:39:48Z</time></trkpt>
<trkpt lat="46.48897" lon="6.71948"><ele>403.4</ele><time>2016-09-14T15:39:53Z</time></trkpt>
<trkpt lat="46.48912" lon="6.71922"><ele>400.6</ele><time>2016-09-14T15:39:57Z</time></trkpt>
<trkpt lat="46.48925" lon="6.71896"><ele>398.8</ele><time>2016-09-14T15:40:00Z</time></trkpt>
<trkpt lat="46.4894" lon="6.71869"><ele>398.2</ele><time>2016-09-14T15:40:03Z</time></trkpt>
<trkpt lat="46.48953" lon="6.71846"><ele>398.6</ele><time>2016-09-14T15:40:06Z</time></trkpt>
<trkpt lat="46.48968" lon="6.71821"><ele>399.8</ele><time>2016-09-14T15:40:10Z</time></trkpt>
<trkpt lat="46.48981" lon="6.718"><ele>400.4</ele><time>2016-09-14T15:40:14Z</time></trkpt>
<trkpt lat="46.4899" lon="6.71789"><ele>400.8</ele><time>2016-09-14T15:40:17Z</time></trkpt>
<trkpt lat="46.49008" lon="6.71774"><ele>403</ele><time>2016-09-14T15:40:23Z</time></trkpt>
<trkpt lat="46.49023" lon="6.71758"><ele>404.2</ele><time>2016-09-14T15:40:30Z</time></trkpt>
<trkpt lat="46.49046" lon="6.71734"><ele>406.4</ele><time>2016-09-14T15:40:40Z</time></trkpt>
<trkpt lat="46.4906" lon="6.71723"><ele>408.4</ele><time>2016-09-14T15:40:47Z</time></trkpt>
<trkpt lat="46.49073" lon="6.71705"><ele>411</ele><time>2016-09-14T15:40:55Z</time></trkpt>
<trkpt lat="46.4908" lon="6.71692"><ele>412.2</ele><time>2016-09-14T15:40:59Z</time></trkpt>
<trkpt lat="46.49094" lon="6.71669"><ele>413.6</ele><time>2016-09-14T15:41:05Z</time></trkpt>
<trkpt lat="46.49108" lon="6.71649"><ele>414.2</ele><time>2016-09-14T15:41:10Z</time></trkpt>
<trkpt lat="46.49111" lon="6.71645"><ele>414</ele><time>2016-09-14T15:41:11Z</time></trkpt>
<trkpt lat="46.49125" lon="6.71628"><ele>413.6</ele><time>2016-09-14T15:41:15Z</time></trkpt>
<trkpt lat="46.49138" lon="6.71608"><ele>413.6</ele><time>2016-09-14T15:41:19Z</time></trkpt>
<trkpt lat="46.49152" lon="6.7158"><ele>411.8</ele><time>2016-09-14T15:41:23Z</time></trkpt>
<trkpt lat="46.49167" lon="6.71552"><ele>409.6</ele><time>2016-09-14T15:41:26Z</time></trkpt>
<trkpt lat="46.49176" lon="6.71531"><ele>409.2</ele><time>2016-09-14T15:41:28Z</time></trkpt>
<trkpt lat="46.49186" lon="6.71496"><ele>407.8</ele><time>2016-09-14T15:41:31Z</time></trkpt>
<trkpt lat="46.49192" lon="6.71472"><ele>407</ele><time>2016-09-14T15:41:33Z</time></trkpt>
<trkpt lat="46.492" lon="6.71438"><ele>407.6</ele><time>2016-09-14T15:41:36Z</time></trkpt>
<trkpt lat="46.49203" lon="6.71419"><ele>409.2</ele><time>2016-09-14T15:41:38Z</time></trkpt>
<trkpt lat="46.49202" lon="6.71393"><ele>410.6</ele><time>2016-09-14T15:41:42Z</time></trkpt>
<trkpt lat="46.49202" lon="6.71373"><ele>410.4</ele><time>2016-09-14T15:41:45Z</time></trkpt>
<trkpt lat="46.49205" lon="6.71338"><ele>408.2</ele><time>2016-09-14T15:41:49Z</time></trkpt>
<trkpt lat="46.49206" lon="6.71328"><ele>408</ele><time>2016-09-14T15:41:50Z</time></trkpt>
<trkpt lat="46.49214" lon="6.71303"><ele>408.6</ele><time>2016-09-14T15:41:53Z</time></trkpt>
<trkpt lat="46.49226" lon="6.71279"><ele>407.2</ele><time>2016-09-14T15:41:58Z</time></trkpt>
<trkpt lat="46.4925" lon="6.71246"><ele>405.2</ele><time>2016-09-14T15:42:06Z</time></trkpt>
<trkpt lat="46.49265" lon="6.7123"><ele>404.4</ele><time>2016-09-14T15:42:09Z</time></trkpt>
<trkpt lat="46.49283" lon="6.71212"><ele>403.4</ele><time>2016-09-14T15:42:12Z</time></trkpt>
<trkpt lat="46.49289" lon="6.71205"><ele>402.8</ele><time>2016-09-14T15:42:13Z</time></trkpt>
<trkpt lat="46.49305" lon="6.71182"><ele>401.6</ele><time>2016-09-14T15:42:16Z</time></trkpt>
<trkpt lat="46.49317" lon="6.71159"><ele>399.6</ele><time>2016-09-14T15:42:19Z</time></trkpt>
<trkpt lat="46.4933" lon="6.71129"><ele>395.8</ele><time>2016-09-14T15:42:22Z</time></trkpt>
<trkpt lat="46.49346" lon="6.71102"><ele>395.2</ele><time>2016-09-14T15:42:25Z</time></trkpt>
<trkpt lat="46.49352" lon="6.71095"><ele>395.4</ele><time>2016-09-14T15:42:26Z</time></trkpt>
<trkpt lat="46.49369" lon="6.71079"><ele>396</ele><time>2016-09-14T15:42:30Z</time></trkpt>
<trkpt lat="46.49387" lon="6.71066"><ele>397</ele><time>2016-09-14T15:42:35Z</time></trkpt>
<trkpt lat="46.4939" lon="6.71063"><ele>397.4</ele><time>2016-09-14T15:42:36Z</time></trkpt>
<trkpt lat="46.49409" lon="6.71052"><ele>399</ele><time>2016-09-14T15:42:41Z</time></trkpt>
<trkpt lat="46.49417" lon="6.71046"><ele>398.8</ele><time>2016-09-14T15:42:44Z</time></trkpt>
<trkpt lat="46.49437" lon="6.71031"><ele>398</ele><time>2016-09-14T15:42:49Z</time></trkpt>
<trkpt lat="46.49441" lon="6.71026"><ele>398</ele><time>2016-09-14T15:42:50Z</time></trkpt>
<trkpt lat="46.49455" lon="6.71008"><ele>398.2</ele><time>2016-09-14T15:42:54Z</time></trkpt>
<trkpt lat="46.49469" lon="6.70984"><ele>395.6</ele><time>2016-09-14T15:42:58Z</time></trkpt>
<trkpt lat="46.49481" lon="6.70961"><ele>393</ele><time>2016-09-14T15:43:01Z</time></trkpt>
<trkpt lat="46.49493" lon="6.70935"><ele>391.6</ele><time>2016-09-14T15:43:04Z</time></trkpt>
<trkpt lat="46.49501" lon="6.70917"><ele>390</ele><time>2016-09-14T15:43:07Z</time></trkpt>
<trkpt lat="46.49499" lon="6.70913"><ele>389.6</ele><time>2016-09-14T15:43:08Z</time></trkpt>
<trkpt lat="46.49486" lon="6.70891"><ele>388.8</ele><time>2016-09-14T15:43:12Z</time></trkpt>
<trkpt lat="46.49467" lon="6.70896"><ele>387</ele><time>2016-09-14T15:43:16Z</time></trkpt>
<trkpt lat="46.49463" lon="6.70902"><ele>387.2</ele><time>2016-09-14T15:43:17Z</time></trkpt>
<trkpt lat="46.49459" lon="6.70909"><ele>387.2</ele><time>2016-09-14T15:43:18Z</time></trkpt>
<trkpt lat="46.49446" lon="6.70932"><ele>387</ele><time>2016-09-14T15:43:22Z</time></trkpt>
<trkpt lat="46.49436" lon="6.70948"><ele>386.2</ele><time>2016-09-14T15:43:27Z</time></trkpt>
<trkpt lat="46.49435" lon="6.70952"><ele>386.4</ele><time>2016-09-14T15:43:37Z</time></trkpt>
<trkpt lat="46.49435" lon="6.70952"><ele>386.6</ele><time>2016-09-14T15:43:41Z</time></trkpt>
<trkpt lat="46.49435" lon="6.70951"><ele>386.6</ele><time>2016-09-14T15:43:42Z</time></trkpt>
</trkseg></trk></gpx>